<?xml version="1.0" encoding="UTF-8" standalone="no" ?>
<gpx xmlns="http://www.topografix.com/GPX/1/1" xmlns:xsi="http://www.w3.org/2001/XMLSchema-instance" xsi:schemaLocation="http://www.topografix.com/GPX/1/1 http://www.topografix.com/GPX/1/1/gpx.xsd" version="1.1" creator="VisuGPX - https://www.visugpx.com">
  <metadata>
    <name>LOMBERS  81</name>
  </metadata>
  <trk>
    <name><![CDATA[22-FEV-26 14:22:50]]></name>
    <extensions>
      <line xmlns="http://www.topografix.com/GPX/gpx_style/0/2">
        <color>0000FF</color>
        <width>4</width>
      </line>
    </extensions>
    <trkseg>
      <trkpt lat="43.8046" lon="2.15026">
        <ele>197.69</ele>
        <time>2026-02-22T07:34:25Z</time>
      </trkpt>
      <trkpt lat="43.80461" lon="2.15011">
        <ele>198.65</ele>
        <time>2026-02-22T07:35:11Z</time>
      </trkpt>
      <trkpt lat="43.80465" lon="2.14999">
        <ele>199.61</ele>
        <time>2026-02-22T07:35:23Z</time>
      </trkpt>
      <trkpt lat="43.80472" lon="2.15002">
        <ele>199.13</ele>
        <time>2026-02-22T07:35:50Z</time>
      </trkpt>
      <trkpt lat="43.80469" lon="2.15008">
        <ele>200.09</ele>
        <time>2026-02-22T07:46:25Z</time>
      </trkpt>
      <trkpt lat="43.80467" lon="2.15008">
        <ele>200.57</ele>
        <time>2026-02-22T07:48:51Z</time>
      </trkpt>
      <trkpt lat="43.80474" lon="2.14998">
        <ele>201.05</ele>
        <time>2026-02-22T07:49:21Z</time>
      </trkpt>
      <trkpt lat="43.80479" lon="2.14984">
        <ele>201.53</ele>
        <time>2026-02-22T07:49:32Z</time>
      </trkpt>
      <trkpt lat="43.80482" lon="2.14971">
        <ele>200.09</ele>
        <time>2026-02-22T07:49:43Z</time>
      </trkpt>
      <trkpt lat="43.80487" lon="2.14957">
        <ele>199.61</ele>
        <time>2026-02-22T07:49:53Z</time>
      </trkpt>
      <trkpt lat="43.80491" lon="2.14944">
        <ele>200.09</ele>
        <time>2026-02-22T07:50:02Z</time>
      </trkpt>
      <trkpt lat="43.80491" lon="2.1493">
        <ele>199.13</ele>
        <time>2026-02-22T07:50:12Z</time>
      </trkpt>
      <trkpt lat="43.80497" lon="2.14914">
        <ele>197.21</ele>
        <time>2026-02-22T07:50:25Z</time>
      </trkpt>
      <trkpt lat="43.80501" lon="2.149">
        <ele>197.69</ele>
        <time>2026-02-22T07:50:35Z</time>
      </trkpt>
      <trkpt lat="43.80507" lon="2.14888">
        <ele>199.61</ele>
        <time>2026-02-22T07:50:44Z</time>
      </trkpt>
      <trkpt lat="43.80512" lon="2.14872">
        <ele>201.53</ele>
        <time>2026-02-22T07:50:53Z</time>
      </trkpt>
      <trkpt lat="43.80516" lon="2.1486">
        <ele>201.53</ele>
        <time>2026-02-22T07:51:02Z</time>
      </trkpt>
      <trkpt lat="43.80519" lon="2.14846">
        <ele>202.01</ele>
        <time>2026-02-22T07:51:11Z</time>
      </trkpt>
      <trkpt lat="43.80511" lon="2.14835">
        <ele>201.53</ele>
        <time>2026-02-22T07:51:19Z</time>
      </trkpt>
      <trkpt lat="43.80501" lon="2.14824">
        <ele>199.13</ele>
        <time>2026-02-22T07:51:28Z</time>
      </trkpt>
      <trkpt lat="43.80491" lon="2.14817">
        <ele>198.17</ele>
        <time>2026-02-22T07:51:38Z</time>
      </trkpt>
      <trkpt lat="43.80483" lon="2.14811">
        <ele>199.13</ele>
        <time>2026-02-22T07:51:47Z</time>
      </trkpt>
      <trkpt lat="43.80474" lon="2.14803">
        <ele>199.61</ele>
        <time>2026-02-22T07:51:56Z</time>
      </trkpt>
      <trkpt lat="43.80466" lon="2.14797">
        <ele>199.61</ele>
        <time>2026-02-22T07:52:05Z</time>
      </trkpt>
      <trkpt lat="43.80456" lon="2.1479">
        <ele>199.13</ele>
        <time>2026-02-22T07:52:16Z</time>
      </trkpt>
      <trkpt lat="43.80446" lon="2.14779">
        <ele>199.61</ele>
        <time>2026-02-22T07:52:27Z</time>
      </trkpt>
      <trkpt lat="43.80437" lon="2.14768">
        <ele>200.57</ele>
        <time>2026-02-22T07:52:38Z</time>
      </trkpt>
      <trkpt lat="43.80429" lon="2.14759">
        <ele>200.57</ele>
        <time>2026-02-22T07:52:47Z</time>
      </trkpt>
      <trkpt lat="43.8042" lon="2.14749">
        <ele>200.57</ele>
        <time>2026-02-22T07:52:56Z</time>
      </trkpt>
      <trkpt lat="43.80414" lon="2.14738">
        <ele>200.57</ele>
        <time>2026-02-22T07:53:04Z</time>
      </trkpt>
      <trkpt lat="43.80407" lon="2.14727">
        <ele>201.53</ele>
        <time>2026-02-22T07:53:13Z</time>
      </trkpt>
      <trkpt lat="43.80401" lon="2.14715">
        <ele>201.53</ele>
        <time>2026-02-22T07:53:21Z</time>
      </trkpt>
      <trkpt lat="43.80396" lon="2.14703">
        <ele>201.53</ele>
        <time>2026-02-22T07:53:29Z</time>
      </trkpt>
      <trkpt lat="43.80392" lon="2.14692">
        <ele>201.53</ele>
        <time>2026-02-22T07:53:37Z</time>
      </trkpt>
      <trkpt lat="43.80388" lon="2.14679">
        <ele>202.01</ele>
        <time>2026-02-22T07:53:46Z</time>
      </trkpt>
      <trkpt lat="43.80384" lon="2.14664">
        <ele>201.05</ele>
        <time>2026-02-22T07:53:55Z</time>
      </trkpt>
      <trkpt lat="43.80379" lon="2.1465">
        <ele>202.01</ele>
        <time>2026-02-22T07:54:04Z</time>
      </trkpt>
      <trkpt lat="43.80375" lon="2.14637">
        <ele>203.46</ele>
        <time>2026-02-22T07:54:12Z</time>
      </trkpt>
      <trkpt lat="43.8037" lon="2.14625">
        <ele>203.94</ele>
        <time>2026-02-22T07:54:20Z</time>
      </trkpt>
      <trkpt lat="43.80362" lon="2.14613">
        <ele>202.49</ele>
        <time>2026-02-22T07:54:29Z</time>
      </trkpt>
      <trkpt lat="43.80356" lon="2.14601">
        <ele>201.53</ele>
        <time>2026-02-22T07:54:38Z</time>
      </trkpt>
      <trkpt lat="43.80349" lon="2.14589">
        <ele>202.01</ele>
        <time>2026-02-22T07:54:46Z</time>
      </trkpt>
      <trkpt lat="43.80344" lon="2.14579">
        <ele>202.01</ele>
        <time>2026-02-22T07:54:54Z</time>
      </trkpt>
      <trkpt lat="43.80337" lon="2.14568">
        <ele>200.57</ele>
        <time>2026-02-22T07:55:02Z</time>
      </trkpt>
      <trkpt lat="43.80336" lon="2.14553">
        <ele>200.57</ele>
        <time>2026-02-22T07:55:10Z</time>
      </trkpt>
      <trkpt lat="43.8034" lon="2.14538">
        <ele>201.05</ele>
        <time>2026-02-22T07:55:19Z</time>
      </trkpt>
      <trkpt lat="43.80347" lon="2.14524">
        <ele>201.53</ele>
        <time>2026-02-22T07:55:28Z</time>
      </trkpt>
      <trkpt lat="43.80353" lon="2.14512">
        <ele>202.01</ele>
        <time>2026-02-22T07:55:37Z</time>
      </trkpt>
      <trkpt lat="43.80358" lon="2.145">
        <ele>202.49</ele>
        <time>2026-02-22T07:55:46Z</time>
      </trkpt>
      <trkpt lat="43.80363" lon="2.1449">
        <ele>203.46</ele>
        <time>2026-02-22T07:55:55Z</time>
      </trkpt>
      <trkpt lat="43.80368" lon="2.14479">
        <ele>205.38</ele>
        <time>2026-02-22T07:56:04Z</time>
      </trkpt>
      <trkpt lat="43.80371" lon="2.14465">
        <ele>205.86</ele>
        <time>2026-02-22T07:56:14Z</time>
      </trkpt>
      <trkpt lat="43.80375" lon="2.14454">
        <ele>205.86</ele>
        <time>2026-02-22T07:56:23Z</time>
      </trkpt>
      <trkpt lat="43.80378" lon="2.14441">
        <ele>205.86</ele>
        <time>2026-02-22T07:56:33Z</time>
      </trkpt>
      <trkpt lat="43.80381" lon="2.14427">
        <ele>206.34</ele>
        <time>2026-02-22T07:56:43Z</time>
      </trkpt>
      <trkpt lat="43.80384" lon="2.14414">
        <ele>206.82</ele>
        <time>2026-02-22T07:56:53Z</time>
      </trkpt>
      <trkpt lat="43.80389" lon="2.144">
        <ele>208.26</ele>
        <time>2026-02-22T07:57:03Z</time>
      </trkpt>
      <trkpt lat="43.80392" lon="2.14387">
        <ele>210.67</ele>
        <time>2026-02-22T07:57:12Z</time>
      </trkpt>
      <trkpt lat="43.80396" lon="2.14374">
        <ele>212.59</ele>
        <time>2026-02-22T07:57:21Z</time>
      </trkpt>
      <trkpt lat="43.80399" lon="2.1436">
        <ele>213.55</ele>
        <time>2026-02-22T07:57:30Z</time>
      </trkpt>
      <trkpt lat="43.80402" lon="2.14347">
        <ele>213.55</ele>
        <time>2026-02-22T07:57:39Z</time>
      </trkpt>
      <trkpt lat="43.80406" lon="2.14332">
        <ele>214.51</ele>
        <time>2026-02-22T07:57:49Z</time>
      </trkpt>
      <trkpt lat="43.80411" lon="2.14317">
        <ele>214.99</ele>
        <time>2026-02-22T07:57:59Z</time>
      </trkpt>
      <trkpt lat="43.80415" lon="2.14303">
        <ele>216.43</ele>
        <time>2026-02-22T07:58:09Z</time>
      </trkpt>
      <trkpt lat="43.80419" lon="2.1429">
        <ele>217.4</ele>
        <time>2026-02-22T07:58:18Z</time>
      </trkpt>
      <trkpt lat="43.80423" lon="2.14273">
        <ele>216.43</ele>
        <time>2026-02-22T07:58:29Z</time>
      </trkpt>
      <trkpt lat="43.80428" lon="2.14253">
        <ele>216.43</ele>
        <time>2026-02-22T07:58:41Z</time>
      </trkpt>
      <trkpt lat="43.80433" lon="2.14238">
        <ele>215.95</ele>
        <time>2026-02-22T07:58:54Z</time>
      </trkpt>
      <trkpt lat="43.8044" lon="2.14225">
        <ele>217.88</ele>
        <time>2026-02-22T07:59:05Z</time>
      </trkpt>
      <trkpt lat="43.80447" lon="2.14212">
        <ele>220.28</ele>
        <time>2026-02-22T07:59:16Z</time>
      </trkpt>
      <trkpt lat="43.80459" lon="2.14195">
        <ele>221.24</ele>
        <time>2026-02-22T07:59:32Z</time>
      </trkpt>
      <trkpt lat="43.80469" lon="2.14181">
        <ele>222.2</ele>
        <time>2026-02-22T07:59:43Z</time>
      </trkpt>
      <trkpt lat="43.8048" lon="2.14169">
        <ele>222.2</ele>
        <time>2026-02-22T07:59:54Z</time>
      </trkpt>
      <trkpt lat="43.80488" lon="2.14157">
        <ele>223.16</ele>
        <time>2026-02-22T08:00:04Z</time>
      </trkpt>
      <trkpt lat="43.80493" lon="2.14146">
        <ele>224.12</ele>
        <time>2026-02-22T08:00:12Z</time>
      </trkpt>
      <trkpt lat="43.80498" lon="2.14133">
        <ele>225.57</ele>
        <time>2026-02-22T08:00:20Z</time>
      </trkpt>
      <trkpt lat="43.80501" lon="2.1412">
        <ele>226.53</ele>
        <time>2026-02-22T08:00:28Z</time>
      </trkpt>
      <trkpt lat="43.80503" lon="2.14106">
        <ele>226.05</ele>
        <time>2026-02-22T08:00:37Z</time>
      </trkpt>
      <trkpt lat="43.80504" lon="2.14092">
        <ele>226.53</ele>
        <time>2026-02-22T08:00:46Z</time>
      </trkpt>
      <trkpt lat="43.80505" lon="2.14079">
        <ele>227.49</ele>
        <time>2026-02-22T08:00:54Z</time>
      </trkpt>
      <trkpt lat="43.80506" lon="2.14066">
        <ele>227.97</ele>
        <time>2026-02-22T08:01:02Z</time>
      </trkpt>
      <trkpt lat="43.80507" lon="2.14053">
        <ele>228.45</ele>
        <time>2026-02-22T08:01:10Z</time>
      </trkpt>
      <trkpt lat="43.80508" lon="2.14038">
        <ele>228.45</ele>
        <time>2026-02-22T08:01:18Z</time>
      </trkpt>
      <trkpt lat="43.80509" lon="2.14024">
        <ele>228.45</ele>
        <time>2026-02-22T08:01:26Z</time>
      </trkpt>
      <trkpt lat="43.80511" lon="2.1401">
        <ele>228.45</ele>
        <time>2026-02-22T08:01:34Z</time>
      </trkpt>
      <trkpt lat="43.80512" lon="2.13998">
        <ele>228.45</ele>
        <time>2026-02-22T08:01:42Z</time>
      </trkpt>
      <trkpt lat="43.80514" lon="2.13985">
        <ele>227.97</ele>
        <time>2026-02-22T08:01:50Z</time>
      </trkpt>
      <trkpt lat="43.80517" lon="2.13971">
        <ele>227.49</ele>
        <time>2026-02-22T08:01:58Z</time>
      </trkpt>
      <trkpt lat="43.8052" lon="2.13958">
        <ele>227.01</ele>
        <time>2026-02-22T08:02:06Z</time>
      </trkpt>
      <trkpt lat="43.80523" lon="2.13944">
        <ele>226.53</ele>
        <time>2026-02-22T08:02:14Z</time>
      </trkpt>
      <trkpt lat="43.80526" lon="2.13931">
        <ele>226.53</ele>
        <time>2026-02-22T08:02:22Z</time>
      </trkpt>
      <trkpt lat="43.80529" lon="2.13918">
        <ele>226.05</ele>
        <time>2026-02-22T08:02:30Z</time>
      </trkpt>
      <trkpt lat="43.80532" lon="2.13905">
        <ele>225.09</ele>
        <time>2026-02-22T08:02:38Z</time>
      </trkpt>
      <trkpt lat="43.80534" lon="2.13891">
        <ele>225.09</ele>
        <time>2026-02-22T08:02:46Z</time>
      </trkpt>
      <trkpt lat="43.80538" lon="2.13879">
        <ele>224.12</ele>
        <time>2026-02-22T08:02:54Z</time>
      </trkpt>
      <trkpt lat="43.80542" lon="2.13867">
        <ele>223.64</ele>
        <time>2026-02-22T08:03:02Z</time>
      </trkpt>
      <trkpt lat="43.80546" lon="2.13856">
        <ele>222.68</ele>
        <time>2026-02-22T08:03:10Z</time>
      </trkpt>
      <trkpt lat="43.80552" lon="2.13845">
        <ele>222.68</ele>
        <time>2026-02-22T08:03:18Z</time>
      </trkpt>
      <trkpt lat="43.80557" lon="2.13833">
        <ele>222.2</ele>
        <time>2026-02-22T08:03:28Z</time>
      </trkpt>
      <trkpt lat="43.80562" lon="2.13822">
        <ele>221.72</ele>
        <time>2026-02-22T08:03:35Z</time>
      </trkpt>
      <trkpt lat="43.80567" lon="2.13812">
        <ele>221.72</ele>
        <time>2026-02-22T08:03:42Z</time>
      </trkpt>
      <trkpt lat="43.80573" lon="2.13801">
        <ele>221.24</ele>
        <time>2026-02-22T08:03:49Z</time>
      </trkpt>
      <trkpt lat="43.80579" lon="2.1379">
        <ele>220.28</ele>
        <time>2026-02-22T08:03:57Z</time>
      </trkpt>
      <trkpt lat="43.80585" lon="2.13779">
        <ele>219.8</ele>
        <time>2026-02-22T08:04:04Z</time>
      </trkpt>
      <trkpt lat="43.80591" lon="2.13769">
        <ele>219.32</ele>
        <time>2026-02-22T08:04:11Z</time>
      </trkpt>
      <trkpt lat="43.80594" lon="2.13757">
        <ele>219.32</ele>
        <time>2026-02-22T08:04:19Z</time>
      </trkpt>
      <trkpt lat="43.80597" lon="2.13745">
        <ele>219.8</ele>
        <time>2026-02-22T08:04:27Z</time>
      </trkpt>
      <trkpt lat="43.80601" lon="2.13732">
        <ele>219.32</ele>
        <time>2026-02-22T08:04:35Z</time>
      </trkpt>
      <trkpt lat="43.80604" lon="2.13718">
        <ele>218.84</ele>
        <time>2026-02-22T08:04:43Z</time>
      </trkpt>
      <trkpt lat="43.80607" lon="2.13705">
        <ele>218.36</ele>
        <time>2026-02-22T08:04:51Z</time>
      </trkpt>
      <trkpt lat="43.80608" lon="2.13691">
        <ele>217.4</ele>
        <time>2026-02-22T08:05:00Z</time>
      </trkpt>
      <trkpt lat="43.80608" lon="2.13676">
        <ele>218.36</ele>
        <time>2026-02-22T08:05:32Z</time>
      </trkpt>
      <trkpt lat="43.80608" lon="2.13673">
        <ele>219.8</ele>
        <time>2026-02-22T08:10:00Z</time>
      </trkpt>
      <trkpt lat="43.80608" lon="2.13658">
        <ele>218.36</ele>
        <time>2026-02-22T08:10:08Z</time>
      </trkpt>
      <trkpt lat="43.8061" lon="2.13644">
        <ele>216.91</ele>
        <time>2026-02-22T08:10:16Z</time>
      </trkpt>
      <trkpt lat="43.80613" lon="2.1363">
        <ele>215.47</ele>
        <time>2026-02-22T08:10:24Z</time>
      </trkpt>
      <trkpt lat="43.80618" lon="2.13618">
        <ele>214.51</ele>
        <time>2026-02-22T08:10:32Z</time>
      </trkpt>
      <trkpt lat="43.80623" lon="2.13604">
        <ele>213.55</ele>
        <time>2026-02-22T08:10:40Z</time>
      </trkpt>
      <trkpt lat="43.80629" lon="2.13591">
        <ele>212.11</ele>
        <time>2026-02-22T08:10:47Z</time>
      </trkpt>
      <trkpt lat="43.80636" lon="2.13582">
        <ele>212.59</ele>
        <time>2026-02-22T08:10:54Z</time>
      </trkpt>
      <trkpt lat="43.80642" lon="2.13571">
        <ele>212.11</ele>
        <time>2026-02-22T08:11:01Z</time>
      </trkpt>
      <trkpt lat="43.80647" lon="2.1356">
        <ele>212.11</ele>
        <time>2026-02-22T08:11:08Z</time>
      </trkpt>
      <trkpt lat="43.80653" lon="2.13552">
        <ele>212.59</ele>
        <time>2026-02-22T08:11:15Z</time>
      </trkpt>
      <trkpt lat="43.80661" lon="2.13542">
        <ele>213.07</ele>
        <time>2026-02-22T08:11:23Z</time>
      </trkpt>
      <trkpt lat="43.80669" lon="2.13536">
        <ele>213.55</ele>
        <time>2026-02-22T08:11:30Z</time>
      </trkpt>
      <trkpt lat="43.80678" lon="2.1353">
        <ele>213.55</ele>
        <time>2026-02-22T08:11:37Z</time>
      </trkpt>
      <trkpt lat="43.80687" lon="2.13523">
        <ele>213.07</ele>
        <time>2026-02-22T08:11:45Z</time>
      </trkpt>
      <trkpt lat="43.80697" lon="2.13517">
        <ele>213.07</ele>
        <time>2026-02-22T08:11:53Z</time>
      </trkpt>
      <trkpt lat="43.80706" lon="2.13508">
        <ele>213.07</ele>
        <time>2026-02-22T08:12:00Z</time>
      </trkpt>
      <trkpt lat="43.80713" lon="2.13501">
        <ele>212.59</ele>
        <time>2026-02-22T08:12:07Z</time>
      </trkpt>
      <trkpt lat="43.80722" lon="2.13492">
        <ele>213.07</ele>
        <time>2026-02-22T08:12:14Z</time>
      </trkpt>
      <trkpt lat="43.8073" lon="2.13483">
        <ele>214.03</ele>
        <time>2026-02-22T08:12:21Z</time>
      </trkpt>
      <trkpt lat="43.80737" lon="2.13476">
        <ele>214.03</ele>
        <time>2026-02-22T08:12:28Z</time>
      </trkpt>
      <trkpt lat="43.80744" lon="2.13467">
        <ele>214.51</ele>
        <time>2026-02-22T08:12:35Z</time>
      </trkpt>
      <trkpt lat="43.80752" lon="2.13458">
        <ele>214.99</ele>
        <time>2026-02-22T08:12:42Z</time>
      </trkpt>
      <trkpt lat="43.80759" lon="2.13449">
        <ele>214.03</ele>
        <time>2026-02-22T08:12:49Z</time>
      </trkpt>
      <trkpt lat="43.80765" lon="2.1344">
        <ele>213.55</ele>
        <time>2026-02-22T08:12:55Z</time>
      </trkpt>
      <trkpt lat="43.80772" lon="2.13431">
        <ele>213.07</ele>
        <time>2026-02-22T08:13:02Z</time>
      </trkpt>
      <trkpt lat="43.8078" lon="2.13422">
        <ele>213.55</ele>
        <time>2026-02-22T08:13:09Z</time>
      </trkpt>
      <trkpt lat="43.80786" lon="2.13414">
        <ele>213.07</ele>
        <time>2026-02-22T08:13:16Z</time>
      </trkpt>
      <trkpt lat="43.80793" lon="2.13403">
        <ele>213.55</ele>
        <time>2026-02-22T08:13:24Z</time>
      </trkpt>
      <trkpt lat="43.80801" lon="2.13394">
        <ele>213.55</ele>
        <time>2026-02-22T08:13:31Z</time>
      </trkpt>
      <trkpt lat="43.80808" lon="2.13384">
        <ele>213.55</ele>
        <time>2026-02-22T08:13:39Z</time>
      </trkpt>
      <trkpt lat="43.80816" lon="2.13375">
        <ele>213.55</ele>
        <time>2026-02-22T08:13:47Z</time>
      </trkpt>
      <trkpt lat="43.80824" lon="2.13366">
        <ele>214.03</ele>
        <time>2026-02-22T08:13:55Z</time>
      </trkpt>
      <trkpt lat="43.80832" lon="2.13358">
        <ele>214.51</ele>
        <time>2026-02-22T08:14:04Z</time>
      </trkpt>
      <trkpt lat="43.80842" lon="2.13362">
        <ele>218.36</ele>
        <time>2026-02-22T08:14:48Z</time>
      </trkpt>
      <trkpt lat="43.80852" lon="2.13362">
        <ele>218.36</ele>
        <time>2026-02-22T08:14:57Z</time>
      </trkpt>
      <trkpt lat="43.80863" lon="2.1336">
        <ele>218.36</ele>
        <time>2026-02-22T08:15:07Z</time>
      </trkpt>
      <trkpt lat="43.80874" lon="2.13358">
        <ele>217.88</ele>
        <time>2026-02-22T08:15:17Z</time>
      </trkpt>
      <trkpt lat="43.80884" lon="2.13351">
        <ele>218.84</ele>
        <time>2026-02-22T08:15:26Z</time>
      </trkpt>
      <trkpt lat="43.80894" lon="2.13345">
        <ele>219.8</ele>
        <time>2026-02-22T08:15:35Z</time>
      </trkpt>
      <trkpt lat="43.80905" lon="2.13335">
        <ele>219.32</ele>
        <time>2026-02-22T08:15:45Z</time>
      </trkpt>
      <trkpt lat="43.80914" lon="2.13327">
        <ele>219.8</ele>
        <time>2026-02-22T08:15:54Z</time>
      </trkpt>
      <trkpt lat="43.80922" lon="2.13319">
        <ele>218.84</ele>
        <time>2026-02-22T08:16:03Z</time>
      </trkpt>
      <trkpt lat="43.80929" lon="2.13309">
        <ele>217.4</ele>
        <time>2026-02-22T08:16:13Z</time>
      </trkpt>
      <trkpt lat="43.80938" lon="2.133">
        <ele>216.43</ele>
        <time>2026-02-22T08:16:23Z</time>
      </trkpt>
      <trkpt lat="43.80947" lon="2.13291">
        <ele>214.99</ele>
        <time>2026-02-22T08:16:33Z</time>
      </trkpt>
      <trkpt lat="43.80963" lon="2.13277">
        <ele>214.03</ele>
        <time>2026-02-22T08:16:49Z</time>
      </trkpt>
      <trkpt lat="43.80974" lon="2.13267">
        <ele>214.99</ele>
        <time>2026-02-22T08:17:00Z</time>
      </trkpt>
      <trkpt lat="43.80985" lon="2.13257">
        <ele>215.95</ele>
        <time>2026-02-22T08:17:10Z</time>
      </trkpt>
      <trkpt lat="43.80996" lon="2.13249">
        <ele>217.4</ele>
        <time>2026-02-22T08:17:21Z</time>
      </trkpt>
      <trkpt lat="43.81005" lon="2.13241">
        <ele>219.32</ele>
        <time>2026-02-22T08:17:30Z</time>
      </trkpt>
      <trkpt lat="43.81015" lon="2.13233">
        <ele>220.28</ele>
        <time>2026-02-22T08:17:39Z</time>
      </trkpt>
      <trkpt lat="43.81024" lon="2.13225">
        <ele>219.8</ele>
        <time>2026-02-22T08:17:48Z</time>
      </trkpt>
      <trkpt lat="43.81032" lon="2.13218">
        <ele>219.8</ele>
        <time>2026-02-22T08:17:56Z</time>
      </trkpt>
      <trkpt lat="43.81041" lon="2.13211">
        <ele>220.28</ele>
        <time>2026-02-22T08:18:04Z</time>
      </trkpt>
      <trkpt lat="43.81049" lon="2.13203">
        <ele>220.28</ele>
        <time>2026-02-22T08:18:12Z</time>
      </trkpt>
      <trkpt lat="43.81057" lon="2.13195">
        <ele>219.8</ele>
        <time>2026-02-22T08:18:20Z</time>
      </trkpt>
      <trkpt lat="43.81065" lon="2.13188">
        <ele>221.24</ele>
        <time>2026-02-22T08:18:31Z</time>
      </trkpt>
      <trkpt lat="43.81074" lon="2.13181">
        <ele>221.72</ele>
        <time>2026-02-22T08:18:43Z</time>
      </trkpt>
      <trkpt lat="43.8108" lon="2.13173">
        <ele>220.28</ele>
        <time>2026-02-22T08:18:52Z</time>
      </trkpt>
      <trkpt lat="43.81088" lon="2.13165">
        <ele>218.36</ele>
        <time>2026-02-22T08:19:00Z</time>
      </trkpt>
      <trkpt lat="43.81097" lon="2.13158">
        <ele>217.4</ele>
        <time>2026-02-22T08:19:08Z</time>
      </trkpt>
      <trkpt lat="43.81105" lon="2.1315">
        <ele>217.88</ele>
        <time>2026-02-22T08:19:16Z</time>
      </trkpt>
      <trkpt lat="43.81113" lon="2.13144">
        <ele>218.36</ele>
        <time>2026-02-22T08:19:24Z</time>
      </trkpt>
      <trkpt lat="43.81121" lon="2.13136">
        <ele>219.32</ele>
        <time>2026-02-22T08:19:32Z</time>
      </trkpt>
      <trkpt lat="43.81129" lon="2.13129">
        <ele>219.8</ele>
        <time>2026-02-22T08:19:41Z</time>
      </trkpt>
      <trkpt lat="43.81138" lon="2.13122">
        <ele>219.32</ele>
        <time>2026-02-22T08:19:49Z</time>
      </trkpt>
      <trkpt lat="43.81148" lon="2.13117">
        <ele>219.32</ele>
        <time>2026-02-22T08:19:58Z</time>
      </trkpt>
      <trkpt lat="43.81163" lon="2.13113">
        <ele>219.32</ele>
        <time>2026-02-22T08:20:12Z</time>
      </trkpt>
      <trkpt lat="43.81176" lon="2.13108">
        <ele>221.24</ele>
        <time>2026-02-22T08:20:25Z</time>
      </trkpt>
      <trkpt lat="43.81187" lon="2.13107">
        <ele>222.68</ele>
        <time>2026-02-22T08:20:35Z</time>
      </trkpt>
      <trkpt lat="43.81199" lon="2.13107">
        <ele>223.16</ele>
        <time>2026-02-22T08:20:45Z</time>
      </trkpt>
      <trkpt lat="43.8121" lon="2.13108">
        <ele>222.68</ele>
        <time>2026-02-22T08:20:55Z</time>
      </trkpt>
      <trkpt lat="43.8122" lon="2.13105">
        <ele>224.61</ele>
        <time>2026-02-22T08:21:06Z</time>
      </trkpt>
      <trkpt lat="43.8123" lon="2.13104">
        <ele>226.53</ele>
        <time>2026-02-22T08:21:16Z</time>
      </trkpt>
      <trkpt lat="43.81241" lon="2.13102">
        <ele>228.45</ele>
        <time>2026-02-22T08:21:26Z</time>
      </trkpt>
      <trkpt lat="43.81253" lon="2.131">
        <ele>229.41</ele>
        <time>2026-02-22T08:21:37Z</time>
      </trkpt>
      <trkpt lat="43.81266" lon="2.131">
        <ele>229.41</ele>
        <time>2026-02-22T08:21:47Z</time>
      </trkpt>
      <trkpt lat="43.81276" lon="2.131">
        <ele>229.89</ele>
        <time>2026-02-22T08:21:57Z</time>
      </trkpt>
      <trkpt lat="43.81286" lon="2.131">
        <ele>229.41</ele>
        <time>2026-02-22T08:22:11Z</time>
      </trkpt>
      <trkpt lat="43.81296" lon="2.13095">
        <ele>229.41</ele>
        <time>2026-02-22T08:22:30Z</time>
      </trkpt>
      <trkpt lat="43.81309" lon="2.13085">
        <ele>228.45</ele>
        <time>2026-02-22T08:22:51Z</time>
      </trkpt>
      <trkpt lat="43.81316" lon="2.13076">
        <ele>228.45</ele>
        <time>2026-02-22T08:23:02Z</time>
      </trkpt>
      <trkpt lat="43.81324" lon="2.13065">
        <ele>227.49</ele>
        <time>2026-02-22T08:23:14Z</time>
      </trkpt>
      <trkpt lat="43.81331" lon="2.13054">
        <ele>226.05</ele>
        <time>2026-02-22T08:23:26Z</time>
      </trkpt>
      <trkpt lat="43.81342" lon="2.13042">
        <ele>223.64</ele>
        <time>2026-02-22T08:23:42Z</time>
      </trkpt>
      <trkpt lat="43.81363" lon="2.13022">
        <ele>223.16</ele>
        <time>2026-02-22T08:24:09Z</time>
      </trkpt>
      <trkpt lat="43.81375" lon="2.13012">
        <ele>223.16</ele>
        <time>2026-02-22T08:24:22Z</time>
      </trkpt>
      <trkpt lat="43.81385" lon="2.13008">
        <ele>223.64</ele>
        <time>2026-02-22T08:24:32Z</time>
      </trkpt>
      <trkpt lat="43.81394" lon="2.13">
        <ele>226.05</ele>
        <time>2026-02-22T08:24:43Z</time>
      </trkpt>
      <trkpt lat="43.81403" lon="2.12994">
        <ele>228.45</ele>
        <time>2026-02-22T08:24:53Z</time>
      </trkpt>
      <trkpt lat="43.81413" lon="2.12987">
        <ele>230.37</ele>
        <time>2026-02-22T08:25:04Z</time>
      </trkpt>
      <trkpt lat="43.81422" lon="2.1298">
        <ele>232.3</ele>
        <time>2026-02-22T08:25:14Z</time>
      </trkpt>
      <trkpt lat="43.81431" lon="2.12973">
        <ele>232.78</ele>
        <time>2026-02-22T08:25:25Z</time>
      </trkpt>
      <trkpt lat="43.81443" lon="2.12964">
        <ele>233.26</ele>
        <time>2026-02-22T08:25:41Z</time>
      </trkpt>
      <trkpt lat="43.8145" lon="2.12956">
        <ele>234.22</ele>
        <time>2026-02-22T08:25:51Z</time>
      </trkpt>
      <trkpt lat="43.81462" lon="2.12947">
        <ele>237.1</ele>
        <time>2026-02-22T08:26:10Z</time>
      </trkpt>
      <trkpt lat="43.8147" lon="2.12937">
        <ele>237.1</ele>
        <time>2026-02-22T08:26:22Z</time>
      </trkpt>
      <trkpt lat="43.81477" lon="2.12928">
        <ele>238.54</ele>
        <time>2026-02-22T08:26:33Z</time>
      </trkpt>
      <trkpt lat="43.81489" lon="2.12918">
        <ele>240.95</ele>
        <time>2026-02-22T08:26:47Z</time>
      </trkpt>
      <trkpt lat="43.81499" lon="2.12905">
        <ele>240.95</ele>
        <time>2026-02-22T08:27:00Z</time>
      </trkpt>
      <trkpt lat="43.81509" lon="2.12896">
        <ele>239.51</ele>
        <time>2026-02-22T08:27:11Z</time>
      </trkpt>
      <trkpt lat="43.81518" lon="2.12887">
        <ele>240.95</ele>
        <time>2026-02-22T08:27:21Z</time>
      </trkpt>
      <trkpt lat="43.81525" lon="2.12877">
        <ele>242.87</ele>
        <time>2026-02-22T08:27:31Z</time>
      </trkpt>
      <trkpt lat="43.81533" lon="2.12868">
        <ele>243.35</ele>
        <time>2026-02-22T08:27:41Z</time>
      </trkpt>
      <trkpt lat="43.81542" lon="2.12859">
        <ele>240.95</ele>
        <time>2026-02-22T08:27:52Z</time>
      </trkpt>
      <trkpt lat="43.81552" lon="2.12848">
        <ele>239.51</ele>
        <time>2026-02-22T08:28:03Z</time>
      </trkpt>
      <trkpt lat="43.81558" lon="2.12836">
        <ele>239.02</ele>
        <time>2026-02-22T08:28:14Z</time>
      </trkpt>
      <trkpt lat="43.81564" lon="2.12821">
        <ele>239.02</ele>
        <time>2026-02-22T08:28:27Z</time>
      </trkpt>
      <trkpt lat="43.8157" lon="2.12802">
        <ele>239.99</ele>
        <time>2026-02-22T08:28:40Z</time>
      </trkpt>
      <trkpt lat="43.81576" lon="2.12782">
        <ele>238.06</ele>
        <time>2026-02-22T08:28:55Z</time>
      </trkpt>
      <trkpt lat="43.81583" lon="2.12762">
        <ele>234.7</ele>
        <time>2026-02-22T08:29:12Z</time>
      </trkpt>
      <trkpt lat="43.81589" lon="2.1274">
        <ele>235.66</ele>
        <time>2026-02-22T08:29:29Z</time>
      </trkpt>
      <trkpt lat="43.81592" lon="2.12719">
        <ele>236.62</ele>
        <time>2026-02-22T08:29:45Z</time>
      </trkpt>
      <trkpt lat="43.81595" lon="2.12703">
        <ele>237.58</ele>
        <time>2026-02-22T08:30:02Z</time>
      </trkpt>
      <trkpt lat="43.81596" lon="2.12688">
        <ele>237.58</ele>
        <time>2026-02-22T08:30:18Z</time>
      </trkpt>
      <trkpt lat="43.81602" lon="2.12676">
        <ele>236.62</ele>
        <time>2026-02-22T08:30:30Z</time>
      </trkpt>
      <trkpt lat="43.8161" lon="2.12663">
        <ele>237.1</ele>
        <time>2026-02-22T08:30:41Z</time>
      </trkpt>
      <trkpt lat="43.81615" lon="2.12651">
        <ele>238.06</ele>
        <time>2026-02-22T08:30:51Z</time>
      </trkpt>
      <trkpt lat="43.81619" lon="2.12636">
        <ele>238.54</ele>
        <time>2026-02-22T08:31:02Z</time>
      </trkpt>
      <trkpt lat="43.8162" lon="2.12622">
        <ele>239.51</ele>
        <time>2026-02-22T08:31:12Z</time>
      </trkpt>
      <trkpt lat="43.81622" lon="2.12606">
        <ele>239.51</ele>
        <time>2026-02-22T08:31:23Z</time>
      </trkpt>
      <trkpt lat="43.81623" lon="2.12592">
        <ele>240.47</ele>
        <time>2026-02-22T08:31:33Z</time>
      </trkpt>
      <trkpt lat="43.81627" lon="2.12576">
        <ele>241.91</ele>
        <time>2026-02-22T08:31:44Z</time>
      </trkpt>
      <trkpt lat="43.8163" lon="2.12562">
        <ele>241.91</ele>
        <time>2026-02-22T08:31:54Z</time>
      </trkpt>
      <trkpt lat="43.81634" lon="2.12547">
        <ele>242.39</ele>
        <time>2026-02-22T08:32:04Z</time>
      </trkpt>
      <trkpt lat="43.81638" lon="2.12533">
        <ele>243.35</ele>
        <time>2026-02-22T08:32:14Z</time>
      </trkpt>
      <trkpt lat="43.81639" lon="2.1252">
        <ele>244.31</ele>
        <time>2026-02-22T08:32:24Z</time>
      </trkpt>
      <trkpt lat="43.81642" lon="2.12506">
        <ele>244.31</ele>
        <time>2026-02-22T08:32:35Z</time>
      </trkpt>
      <trkpt lat="43.81647" lon="2.12487">
        <ele>245.75</ele>
        <time>2026-02-22T08:32:52Z</time>
      </trkpt>
      <trkpt lat="43.81654" lon="2.12466">
        <ele>247.2</ele>
        <time>2026-02-22T08:33:10Z</time>
      </trkpt>
      <trkpt lat="43.81666" lon="2.12437">
        <ele>251.04</ele>
        <time>2026-02-22T08:33:39Z</time>
      </trkpt>
      <trkpt lat="43.81675" lon="2.12422">
        <ele>252</ele>
        <time>2026-02-22T08:33:54Z</time>
      </trkpt>
      <trkpt lat="43.81685" lon="2.1241">
        <ele>253.44</ele>
        <time>2026-02-22T08:34:07Z</time>
      </trkpt>
      <trkpt lat="43.81694" lon="2.12396">
        <ele>254.89</ele>
        <time>2026-02-22T08:34:20Z</time>
      </trkpt>
      <trkpt lat="43.81711" lon="2.12383">
        <ele>256.33</ele>
        <time>2026-02-22T08:34:44Z</time>
      </trkpt>
      <trkpt lat="43.81727" lon="2.12374">
        <ele>259.69</ele>
        <time>2026-02-22T08:35:01Z</time>
      </trkpt>
      <trkpt lat="43.81739" lon="2.12368">
        <ele>261.62</ele>
        <time>2026-02-22T08:35:12Z</time>
      </trkpt>
      <trkpt lat="43.81749" lon="2.12362">
        <ele>261.62</ele>
        <time>2026-02-22T08:35:23Z</time>
      </trkpt>
      <trkpt lat="43.81758" lon="2.12355">
        <ele>262.1</ele>
        <time>2026-02-22T08:35:33Z</time>
      </trkpt>
      <trkpt lat="43.81768" lon="2.12347">
        <ele>263.06</ele>
        <time>2026-02-22T08:35:43Z</time>
      </trkpt>
      <trkpt lat="43.81778" lon="2.1234">
        <ele>264.5</ele>
        <time>2026-02-22T08:35:53Z</time>
      </trkpt>
      <trkpt lat="43.81787" lon="2.12332">
        <ele>264.98</ele>
        <time>2026-02-22T08:36:03Z</time>
      </trkpt>
      <trkpt lat="43.81797" lon="2.12323">
        <ele>266.42</ele>
        <time>2026-02-22T08:36:14Z</time>
      </trkpt>
      <trkpt lat="43.81807" lon="2.12315">
        <ele>266.9</ele>
        <time>2026-02-22T08:36:24Z</time>
      </trkpt>
      <trkpt lat="43.81815" lon="2.12307">
        <ele>266.9</ele>
        <time>2026-02-22T08:36:34Z</time>
      </trkpt>
      <trkpt lat="43.81824" lon="2.12298">
        <ele>267.38</ele>
        <time>2026-02-22T08:36:45Z</time>
      </trkpt>
      <trkpt lat="43.81834" lon="2.12289">
        <ele>267.38</ele>
        <time>2026-02-22T08:36:55Z</time>
      </trkpt>
      <trkpt lat="43.81843" lon="2.12279">
        <ele>267.86</ele>
        <time>2026-02-22T08:37:06Z</time>
      </trkpt>
      <trkpt lat="43.81853" lon="2.12254">
        <ele>274.59</ele>
        <time>2026-02-22T08:38:22Z</time>
      </trkpt>
      <trkpt lat="43.81846" lon="2.12245">
        <ele>276.04</ele>
        <time>2026-02-22T08:43:48Z</time>
      </trkpt>
      <trkpt lat="43.81835" lon="2.12239">
        <ele>274.11</ele>
        <time>2026-02-22T08:43:57Z</time>
      </trkpt>
      <trkpt lat="43.81825" lon="2.12233">
        <ele>272.19</ele>
        <time>2026-02-22T08:44:08Z</time>
      </trkpt>
      <trkpt lat="43.81815" lon="2.12226">
        <ele>272.67</ele>
        <time>2026-02-22T08:44:17Z</time>
      </trkpt>
      <trkpt lat="43.81807" lon="2.1222">
        <ele>272.19</ele>
        <time>2026-02-22T08:44:25Z</time>
      </trkpt>
      <trkpt lat="43.81797" lon="2.12213">
        <ele>271.23</ele>
        <time>2026-02-22T08:44:33Z</time>
      </trkpt>
      <trkpt lat="43.81787" lon="2.12207">
        <ele>270.27</ele>
        <time>2026-02-22T08:44:41Z</time>
      </trkpt>
      <trkpt lat="43.81777" lon="2.12201">
        <ele>268.83</ele>
        <time>2026-02-22T08:44:50Z</time>
      </trkpt>
      <trkpt lat="43.81767" lon="2.12195">
        <ele>266.9</ele>
        <time>2026-02-22T08:45:00Z</time>
      </trkpt>
      <trkpt lat="43.81756" lon="2.12189">
        <ele>265.94</ele>
        <time>2026-02-22T08:45:09Z</time>
      </trkpt>
      <trkpt lat="43.81747" lon="2.12184">
        <ele>264.98</ele>
        <time>2026-02-22T08:45:17Z</time>
      </trkpt>
      <trkpt lat="43.81737" lon="2.12178">
        <ele>264.98</ele>
        <time>2026-02-22T08:45:26Z</time>
      </trkpt>
      <trkpt lat="43.81727" lon="2.12173">
        <ele>264.98</ele>
        <time>2026-02-22T08:45:34Z</time>
      </trkpt>
      <trkpt lat="43.81717" lon="2.12169">
        <ele>264.02</ele>
        <time>2026-02-22T08:45:42Z</time>
      </trkpt>
      <trkpt lat="43.81708" lon="2.12163">
        <ele>263.06</ele>
        <time>2026-02-22T08:45:50Z</time>
      </trkpt>
      <trkpt lat="43.81698" lon="2.12158">
        <ele>262.1</ele>
        <time>2026-02-22T08:45:58Z</time>
      </trkpt>
      <trkpt lat="43.81689" lon="2.12153">
        <ele>261.14</ele>
        <time>2026-02-22T08:46:06Z</time>
      </trkpt>
      <trkpt lat="43.81679" lon="2.12149">
        <ele>260.65</ele>
        <time>2026-02-22T08:46:14Z</time>
      </trkpt>
      <trkpt lat="43.81669" lon="2.12142">
        <ele>260.65</ele>
        <time>2026-02-22T08:46:23Z</time>
      </trkpt>
      <trkpt lat="43.81658" lon="2.12136">
        <ele>259.69</ele>
        <time>2026-02-22T08:46:32Z</time>
      </trkpt>
      <trkpt lat="43.81648" lon="2.12131">
        <ele>259.21</ele>
        <time>2026-02-22T08:46:41Z</time>
      </trkpt>
      <trkpt lat="43.81637" lon="2.12125">
        <ele>259.21</ele>
        <time>2026-02-22T08:46:50Z</time>
      </trkpt>
      <trkpt lat="43.81628" lon="2.12121">
        <ele>258.73</ele>
        <time>2026-02-22T08:46:58Z</time>
      </trkpt>
      <trkpt lat="43.81617" lon="2.12117">
        <ele>258.73</ele>
        <time>2026-02-22T08:47:06Z</time>
      </trkpt>
      <trkpt lat="43.81608" lon="2.12114">
        <ele>258.73</ele>
        <time>2026-02-22T08:47:14Z</time>
      </trkpt>
      <trkpt lat="43.81597" lon="2.12114">
        <ele>259.69</ele>
        <time>2026-02-22T08:47:22Z</time>
      </trkpt>
      <trkpt lat="43.81587" lon="2.12114">
        <ele>261.14</ele>
        <time>2026-02-22T08:47:30Z</time>
      </trkpt>
      <trkpt lat="43.81577" lon="2.12115">
        <ele>262.58</ele>
        <time>2026-02-22T08:47:39Z</time>
      </trkpt>
      <trkpt lat="43.81567" lon="2.12116">
        <ele>264.02</ele>
        <time>2026-02-22T08:47:48Z</time>
      </trkpt>
      <trkpt lat="43.81557" lon="2.12118">
        <ele>264.5</ele>
        <time>2026-02-22T08:47:56Z</time>
      </trkpt>
      <trkpt lat="43.81547" lon="2.1212">
        <ele>264.98</ele>
        <time>2026-02-22T08:48:04Z</time>
      </trkpt>
      <trkpt lat="43.81537" lon="2.12122">
        <ele>266.42</ele>
        <time>2026-02-22T08:48:13Z</time>
      </trkpt>
      <trkpt lat="43.81527" lon="2.12124">
        <ele>266.9</ele>
        <time>2026-02-22T08:48:22Z</time>
      </trkpt>
      <trkpt lat="43.81517" lon="2.12125">
        <ele>268.35</ele>
        <time>2026-02-22T08:48:30Z</time>
      </trkpt>
      <trkpt lat="43.81508" lon="2.12126">
        <ele>268.83</ele>
        <time>2026-02-22T08:48:38Z</time>
      </trkpt>
      <trkpt lat="43.81497" lon="2.12127">
        <ele>269.79</ele>
        <time>2026-02-22T08:48:47Z</time>
      </trkpt>
      <trkpt lat="43.81487" lon="2.12128">
        <ele>270.75</ele>
        <time>2026-02-22T08:48:56Z</time>
      </trkpt>
      <trkpt lat="43.81477" lon="2.12126">
        <ele>271.71</ele>
        <time>2026-02-22T08:49:05Z</time>
      </trkpt>
      <trkpt lat="43.81467" lon="2.12122">
        <ele>273.15</ele>
        <time>2026-02-22T08:49:14Z</time>
      </trkpt>
      <trkpt lat="43.81457" lon="2.12121">
        <ele>273.15</ele>
        <time>2026-02-22T08:49:24Z</time>
      </trkpt>
      <trkpt lat="43.81447" lon="2.12116">
        <ele>274.11</ele>
        <time>2026-02-22T08:49:33Z</time>
      </trkpt>
      <trkpt lat="43.81438" lon="2.12111">
        <ele>274.59</ele>
        <time>2026-02-22T08:49:42Z</time>
      </trkpt>
      <trkpt lat="43.81428" lon="2.12109">
        <ele>274.59</ele>
        <time>2026-02-22T08:49:51Z</time>
      </trkpt>
      <trkpt lat="43.81419" lon="2.12104">
        <ele>274.11</ele>
        <time>2026-02-22T08:49:59Z</time>
      </trkpt>
      <trkpt lat="43.8141" lon="2.121">
        <ele>273.15</ele>
        <time>2026-02-22T08:50:07Z</time>
      </trkpt>
      <trkpt lat="43.814" lon="2.12096">
        <ele>272.67</ele>
        <time>2026-02-22T08:50:15Z</time>
      </trkpt>
      <trkpt lat="43.81391" lon="2.12094">
        <ele>271.71</ele>
        <time>2026-02-22T08:50:23Z</time>
      </trkpt>
      <trkpt lat="43.8138" lon="2.12094">
        <ele>270.75</ele>
        <time>2026-02-22T08:50:31Z</time>
      </trkpt>
      <trkpt lat="43.8137" lon="2.12095">
        <ele>270.27</ele>
        <time>2026-02-22T08:50:39Z</time>
      </trkpt>
      <trkpt lat="43.81361" lon="2.12098">
        <ele>268.83</ele>
        <time>2026-02-22T08:50:47Z</time>
      </trkpt>
      <trkpt lat="43.81351" lon="2.12101">
        <ele>268.35</ele>
        <time>2026-02-22T08:50:55Z</time>
      </trkpt>
      <trkpt lat="43.81342" lon="2.12107">
        <ele>267.38</ele>
        <time>2026-02-22T08:51:03Z</time>
      </trkpt>
      <trkpt lat="43.81333" lon="2.12113">
        <ele>267.86</ele>
        <time>2026-02-22T08:51:11Z</time>
      </trkpt>
      <trkpt lat="43.81324" lon="2.1212">
        <ele>266.9</ele>
        <time>2026-02-22T08:51:19Z</time>
      </trkpt>
      <trkpt lat="43.81316" lon="2.12127">
        <ele>266.9</ele>
        <time>2026-02-22T08:51:27Z</time>
      </trkpt>
      <trkpt lat="43.81308" lon="2.12135">
        <ele>266.9</ele>
        <time>2026-02-22T08:51:35Z</time>
      </trkpt>
      <trkpt lat="43.81299" lon="2.12142">
        <ele>266.42</ele>
        <time>2026-02-22T08:51:43Z</time>
      </trkpt>
      <trkpt lat="43.8129" lon="2.12149">
        <ele>266.42</ele>
        <time>2026-02-22T08:51:51Z</time>
      </trkpt>
      <trkpt lat="43.8128" lon="2.12157">
        <ele>265.94</ele>
        <time>2026-02-22T08:52:00Z</time>
      </trkpt>
      <trkpt lat="43.81272" lon="2.12162">
        <ele>265.94</ele>
        <time>2026-02-22T08:52:09Z</time>
      </trkpt>
      <trkpt lat="43.81264" lon="2.12169">
        <ele>265.46</ele>
        <time>2026-02-22T08:52:17Z</time>
      </trkpt>
      <trkpt lat="43.81256" lon="2.12176">
        <ele>264.5</ele>
        <time>2026-02-22T08:52:25Z</time>
      </trkpt>
      <trkpt lat="43.81246" lon="2.12183">
        <ele>264.02</ele>
        <time>2026-02-22T08:52:34Z</time>
      </trkpt>
      <trkpt lat="43.81236" lon="2.12187">
        <ele>263.06</ele>
        <time>2026-02-22T08:52:43Z</time>
      </trkpt>
      <trkpt lat="43.81225" lon="2.12191">
        <ele>263.06</ele>
        <time>2026-02-22T08:52:52Z</time>
      </trkpt>
      <trkpt lat="43.81215" lon="2.12193">
        <ele>263.06</ele>
        <time>2026-02-22T08:53:01Z</time>
      </trkpt>
      <trkpt lat="43.81205" lon="2.12194">
        <ele>263.54</ele>
        <time>2026-02-22T08:53:10Z</time>
      </trkpt>
      <trkpt lat="43.81193" lon="2.12195">
        <ele>263.54</ele>
        <time>2026-02-22T08:53:20Z</time>
      </trkpt>
      <trkpt lat="43.81181" lon="2.12192">
        <ele>264.02</ele>
        <time>2026-02-22T08:53:30Z</time>
      </trkpt>
      <trkpt lat="43.81169" lon="2.12188">
        <ele>264.5</ele>
        <time>2026-02-22T08:53:40Z</time>
      </trkpt>
      <trkpt lat="43.8116" lon="2.12181">
        <ele>264.98</ele>
        <time>2026-02-22T08:53:49Z</time>
      </trkpt>
      <trkpt lat="43.8115" lon="2.12173">
        <ele>264.5</ele>
        <time>2026-02-22T08:53:58Z</time>
      </trkpt>
      <trkpt lat="43.81141" lon="2.12166">
        <ele>264.5</ele>
        <time>2026-02-22T08:54:07Z</time>
      </trkpt>
      <trkpt lat="43.81133" lon="2.12158">
        <ele>265.46</ele>
        <time>2026-02-22T08:54:17Z</time>
      </trkpt>
      <trkpt lat="43.81125" lon="2.12149">
        <ele>265.94</ele>
        <time>2026-02-22T08:54:26Z</time>
      </trkpt>
      <trkpt lat="43.81116" lon="2.1214">
        <ele>265.94</ele>
        <time>2026-02-22T08:54:36Z</time>
      </trkpt>
      <trkpt lat="43.81109" lon="2.1213">
        <ele>267.38</ele>
        <time>2026-02-22T08:54:45Z</time>
      </trkpt>
      <trkpt lat="43.81101" lon="2.1212">
        <ele>268.35</ele>
        <time>2026-02-22T08:54:55Z</time>
      </trkpt>
      <trkpt lat="43.81092" lon="2.12107">
        <ele>270.75</ele>
        <time>2026-02-22T08:55:06Z</time>
      </trkpt>
      <trkpt lat="43.81084" lon="2.12097">
        <ele>270.75</ele>
        <time>2026-02-22T08:55:15Z</time>
      </trkpt>
      <trkpt lat="43.81075" lon="2.12089">
        <ele>270.75</ele>
        <time>2026-02-22T08:55:23Z</time>
      </trkpt>
      <trkpt lat="43.81069" lon="2.1208">
        <ele>271.23</ele>
        <time>2026-02-22T08:55:31Z</time>
      </trkpt>
      <trkpt lat="43.81061" lon="2.12071">
        <ele>272.19</ele>
        <time>2026-02-22T08:55:39Z</time>
      </trkpt>
      <trkpt lat="43.81054" lon="2.12062">
        <ele>273.15</ele>
        <time>2026-02-22T08:55:47Z</time>
      </trkpt>
      <trkpt lat="43.81045" lon="2.12053">
        <ele>273.15</ele>
        <time>2026-02-22T08:55:56Z</time>
      </trkpt>
      <trkpt lat="43.81038" lon="2.12043">
        <ele>272.67</ele>
        <time>2026-02-22T08:56:05Z</time>
      </trkpt>
      <trkpt lat="43.81029" lon="2.12034">
        <ele>272.67</ele>
        <time>2026-02-22T08:56:14Z</time>
      </trkpt>
      <trkpt lat="43.81021" lon="2.12025">
        <ele>272.67</ele>
        <time>2026-02-22T08:56:24Z</time>
      </trkpt>
      <trkpt lat="43.81011" lon="2.12013">
        <ele>271.71</ele>
        <time>2026-02-22T08:56:35Z</time>
      </trkpt>
      <trkpt lat="43.81003" lon="2.12001">
        <ele>273.63</ele>
        <time>2026-02-22T08:56:46Z</time>
      </trkpt>
      <trkpt lat="43.80993" lon="2.1199">
        <ele>275.07</ele>
        <time>2026-02-22T08:57:02Z</time>
      </trkpt>
      <trkpt lat="43.80985" lon="2.11976">
        <ele>276.04</ele>
        <time>2026-02-22T08:57:12Z</time>
      </trkpt>
      <trkpt lat="43.80977" lon="2.11966">
        <ele>277</ele>
        <time>2026-02-22T08:57:22Z</time>
      </trkpt>
      <trkpt lat="43.80971" lon="2.11954">
        <ele>277.48</ele>
        <time>2026-02-22T08:57:31Z</time>
      </trkpt>
      <trkpt lat="43.80964" lon="2.11944">
        <ele>277.96</ele>
        <time>2026-02-22T08:57:41Z</time>
      </trkpt>
      <trkpt lat="43.80955" lon="2.11932">
        <ele>277.96</ele>
        <time>2026-02-22T08:57:57Z</time>
      </trkpt>
      <trkpt lat="43.80947" lon="2.11919">
        <ele>278.44</ele>
        <time>2026-02-22T08:58:08Z</time>
      </trkpt>
      <trkpt lat="43.80939" lon="2.11909">
        <ele>278.92</ele>
        <time>2026-02-22T08:58:18Z</time>
      </trkpt>
      <trkpt lat="43.8093" lon="2.11894">
        <ele>277.96</ele>
        <time>2026-02-22T08:58:31Z</time>
      </trkpt>
      <trkpt lat="43.80922" lon="2.11881">
        <ele>279.88</ele>
        <time>2026-02-22T08:58:41Z</time>
      </trkpt>
      <trkpt lat="43.80914" lon="2.11868">
        <ele>281.8</ele>
        <time>2026-02-22T08:58:50Z</time>
      </trkpt>
      <trkpt lat="43.80907" lon="2.11856">
        <ele>282.77</ele>
        <time>2026-02-22T08:58:59Z</time>
      </trkpt>
      <trkpt lat="43.80899" lon="2.11846">
        <ele>283.73</ele>
        <time>2026-02-22T08:59:07Z</time>
      </trkpt>
      <trkpt lat="43.80892" lon="2.11834">
        <ele>285.17</ele>
        <time>2026-02-22T08:59:28Z</time>
      </trkpt>
      <trkpt lat="43.80879" lon="2.1183">
        <ele>287.57</ele>
        <time>2026-02-22T09:03:03Z</time>
      </trkpt>
      <trkpt lat="43.8087" lon="2.11821">
        <ele>286.13</ele>
        <time>2026-02-22T09:03:14Z</time>
      </trkpt>
      <trkpt lat="43.80861" lon="2.11812">
        <ele>285.17</ele>
        <time>2026-02-22T09:03:25Z</time>
      </trkpt>
      <trkpt lat="43.8085" lon="2.11805">
        <ele>284.21</ele>
        <time>2026-02-22T09:03:36Z</time>
      </trkpt>
      <trkpt lat="43.80841" lon="2.11797">
        <ele>283.25</ele>
        <time>2026-02-22T09:03:47Z</time>
      </trkpt>
      <trkpt lat="43.80831" lon="2.1179">
        <ele>282.28</ele>
        <time>2026-02-22T09:03:58Z</time>
      </trkpt>
      <trkpt lat="43.80823" lon="2.11783">
        <ele>282.28</ele>
        <time>2026-02-22T09:04:07Z</time>
      </trkpt>
      <trkpt lat="43.80814" lon="2.11775">
        <ele>281.8</ele>
        <time>2026-02-22T09:04:17Z</time>
      </trkpt>
      <trkpt lat="43.80805" lon="2.11769">
        <ele>281.32</ele>
        <time>2026-02-22T09:04:26Z</time>
      </trkpt>
      <trkpt lat="43.80796" lon="2.11763">
        <ele>280.36</ele>
        <time>2026-02-22T09:04:35Z</time>
      </trkpt>
      <trkpt lat="43.80786" lon="2.11755">
        <ele>279.4</ele>
        <time>2026-02-22T09:04:45Z</time>
      </trkpt>
      <trkpt lat="43.80777" lon="2.11748">
        <ele>277.96</ele>
        <time>2026-02-22T09:04:55Z</time>
      </trkpt>
      <trkpt lat="43.80767" lon="2.11739">
        <ele>277.48</ele>
        <time>2026-02-22T09:05:04Z</time>
      </trkpt>
      <trkpt lat="43.80758" lon="2.11732">
        <ele>276.04</ele>
        <time>2026-02-22T09:05:13Z</time>
      </trkpt>
      <trkpt lat="43.80749" lon="2.11725">
        <ele>274.59</ele>
        <time>2026-02-22T09:05:22Z</time>
      </trkpt>
      <trkpt lat="43.8074" lon="2.11718">
        <ele>274.59</ele>
        <time>2026-02-22T09:05:31Z</time>
      </trkpt>
      <trkpt lat="43.8073" lon="2.1171">
        <ele>273.15</ele>
        <time>2026-02-22T09:05:41Z</time>
      </trkpt>
      <trkpt lat="43.80721" lon="2.11703">
        <ele>273.15</ele>
        <time>2026-02-22T09:05:51Z</time>
      </trkpt>
      <trkpt lat="43.80711" lon="2.11695">
        <ele>272.67</ele>
        <time>2026-02-22T09:06:01Z</time>
      </trkpt>
      <trkpt lat="43.80702" lon="2.11688">
        <ele>271.71</ele>
        <time>2026-02-22T09:06:10Z</time>
      </trkpt>
      <trkpt lat="43.80693" lon="2.11683">
        <ele>270.75</ele>
        <time>2026-02-22T09:06:18Z</time>
      </trkpt>
      <trkpt lat="43.80684" lon="2.11677">
        <ele>270.75</ele>
        <time>2026-02-22T09:06:26Z</time>
      </trkpt>
      <trkpt lat="43.80674" lon="2.11673">
        <ele>270.27</ele>
        <time>2026-02-22T09:06:34Z</time>
      </trkpt>
      <trkpt lat="43.80665" lon="2.1167">
        <ele>269.79</ele>
        <time>2026-02-22T09:06:42Z</time>
      </trkpt>
      <trkpt lat="43.80655" lon="2.11666">
        <ele>269.31</ele>
        <time>2026-02-22T09:06:50Z</time>
      </trkpt>
      <trkpt lat="43.80645" lon="2.11664">
        <ele>268.35</ele>
        <time>2026-02-22T09:06:58Z</time>
      </trkpt>
      <trkpt lat="43.80635" lon="2.11661">
        <ele>266.9</ele>
        <time>2026-02-22T09:07:06Z</time>
      </trkpt>
      <trkpt lat="43.80625" lon="2.11658">
        <ele>266.9</ele>
        <time>2026-02-22T09:07:14Z</time>
      </trkpt>
      <trkpt lat="43.80616" lon="2.11656">
        <ele>266.42</ele>
        <time>2026-02-22T09:07:22Z</time>
      </trkpt>
      <trkpt lat="43.80607" lon="2.11654">
        <ele>266.9</ele>
        <time>2026-02-22T09:07:30Z</time>
      </trkpt>
      <trkpt lat="43.80597" lon="2.11651">
        <ele>267.38</ele>
        <time>2026-02-22T09:07:38Z</time>
      </trkpt>
      <trkpt lat="43.80587" lon="2.11648">
        <ele>266.9</ele>
        <time>2026-02-22T09:07:47Z</time>
      </trkpt>
      <trkpt lat="43.80578" lon="2.11646">
        <ele>265.94</ele>
        <time>2026-02-22T09:07:55Z</time>
      </trkpt>
      <trkpt lat="43.80568" lon="2.11643">
        <ele>265.94</ele>
        <time>2026-02-22T09:08:03Z</time>
      </trkpt>
      <trkpt lat="43.80558" lon="2.1164">
        <ele>264.98</ele>
        <time>2026-02-22T09:08:12Z</time>
      </trkpt>
      <trkpt lat="43.80549" lon="2.11636">
        <ele>264.5</ele>
        <time>2026-02-22T09:08:20Z</time>
      </trkpt>
      <trkpt lat="43.8054" lon="2.11644">
        <ele>262.58</ele>
        <time>2026-02-22T09:08:41Z</time>
      </trkpt>
      <trkpt lat="43.80541" lon="2.11658">
        <ele>263.06</ele>
        <time>2026-02-22T09:08:51Z</time>
      </trkpt>
      <trkpt lat="43.80545" lon="2.1167">
        <ele>264.5</ele>
        <time>2026-02-22T09:09:01Z</time>
      </trkpt>
      <trkpt lat="43.80547" lon="2.11683">
        <ele>265.46</ele>
        <time>2026-02-22T09:09:11Z</time>
      </trkpt>
      <trkpt lat="43.8055" lon="2.11695">
        <ele>265.94</ele>
        <time>2026-02-22T09:09:19Z</time>
      </trkpt>
      <trkpt lat="43.80552" lon="2.11708">
        <ele>265.94</ele>
        <time>2026-02-22T09:09:27Z</time>
      </trkpt>
      <trkpt lat="43.80555" lon="2.11722">
        <ele>265.94</ele>
        <time>2026-02-22T09:09:36Z</time>
      </trkpt>
      <trkpt lat="43.80558" lon="2.11735">
        <ele>266.9</ele>
        <time>2026-02-22T09:09:44Z</time>
      </trkpt>
      <trkpt lat="43.80561" lon="2.11749">
        <ele>266.9</ele>
        <time>2026-02-22T09:09:53Z</time>
      </trkpt>
      <trkpt lat="43.80564" lon="2.11763">
        <ele>267.86</ele>
        <time>2026-02-22T09:10:02Z</time>
      </trkpt>
      <trkpt lat="43.80566" lon="2.11776">
        <ele>267.86</ele>
        <time>2026-02-22T09:10:11Z</time>
      </trkpt>
      <trkpt lat="43.80569" lon="2.11791">
        <ele>266.9</ele>
        <time>2026-02-22T09:10:20Z</time>
      </trkpt>
      <trkpt lat="43.80573" lon="2.11805">
        <ele>267.86</ele>
        <time>2026-02-22T09:10:29Z</time>
      </trkpt>
      <trkpt lat="43.80576" lon="2.11818">
        <ele>268.83</ele>
        <time>2026-02-22T09:10:38Z</time>
      </trkpt>
      <trkpt lat="43.8058" lon="2.11833">
        <ele>269.79</ele>
        <time>2026-02-22T09:10:47Z</time>
      </trkpt>
      <trkpt lat="43.80583" lon="2.11846">
        <ele>269.31</ele>
        <time>2026-02-22T09:10:56Z</time>
      </trkpt>
      <trkpt lat="43.80586" lon="2.11859">
        <ele>270.27</ele>
        <time>2026-02-22T09:11:05Z</time>
      </trkpt>
      <trkpt lat="43.80587" lon="2.11875">
        <ele>270.27</ele>
        <time>2026-02-22T09:11:16Z</time>
      </trkpt>
      <trkpt lat="43.80585" lon="2.11891">
        <ele>268.35</ele>
        <time>2026-02-22T09:11:27Z</time>
      </trkpt>
      <trkpt lat="43.80582" lon="2.11905">
        <ele>268.83</ele>
        <time>2026-02-22T09:11:37Z</time>
      </trkpt>
      <trkpt lat="43.80577" lon="2.11918">
        <ele>267.86</ele>
        <time>2026-02-22T09:11:47Z</time>
      </trkpt>
      <trkpt lat="43.80568" lon="2.11932">
        <ele>267.38</ele>
        <time>2026-02-22T09:12:01Z</time>
      </trkpt>
      <trkpt lat="43.80561" lon="2.11945">
        <ele>267.38</ele>
        <time>2026-02-22T09:12:11Z</time>
      </trkpt>
      <trkpt lat="43.80554" lon="2.1196">
        <ele>265.94</ele>
        <time>2026-02-22T09:12:21Z</time>
      </trkpt>
      <trkpt lat="43.80548" lon="2.11975">
        <ele>263.54</ele>
        <time>2026-02-22T09:12:38Z</time>
      </trkpt>
      <trkpt lat="43.80542" lon="2.11989">
        <ele>264.5</ele>
        <time>2026-02-22T09:12:48Z</time>
      </trkpt>
      <trkpt lat="43.80537" lon="2.12003">
        <ele>265.94</ele>
        <time>2026-02-22T09:12:58Z</time>
      </trkpt>
      <trkpt lat="43.80533" lon="2.12018">
        <ele>266.9</ele>
        <time>2026-02-22T09:13:08Z</time>
      </trkpt>
      <trkpt lat="43.80528" lon="2.12034">
        <ele>267.86</ele>
        <time>2026-02-22T09:13:20Z</time>
      </trkpt>
      <trkpt lat="43.80524" lon="2.12048">
        <ele>268.83</ele>
        <time>2026-02-22T09:13:30Z</time>
      </trkpt>
      <trkpt lat="43.80519" lon="2.1206">
        <ele>269.79</ele>
        <time>2026-02-22T09:13:40Z</time>
      </trkpt>
      <trkpt lat="43.80515" lon="2.12073">
        <ele>271.23</ele>
        <time>2026-02-22T09:13:49Z</time>
      </trkpt>
      <trkpt lat="43.80512" lon="2.12088">
        <ele>270.75</ele>
        <time>2026-02-22T09:13:58Z</time>
      </trkpt>
      <trkpt lat="43.80508" lon="2.12101">
        <ele>271.23</ele>
        <time>2026-02-22T09:14:07Z</time>
      </trkpt>
      <trkpt lat="43.80504" lon="2.12114">
        <ele>271.71</ele>
        <time>2026-02-22T09:14:16Z</time>
      </trkpt>
      <trkpt lat="43.805" lon="2.12127">
        <ele>272.67</ele>
        <time>2026-02-22T09:14:27Z</time>
      </trkpt>
      <trkpt lat="43.80496" lon="2.12138">
        <ele>273.63</ele>
        <time>2026-02-22T09:14:36Z</time>
      </trkpt>
      <trkpt lat="43.80491" lon="2.12151">
        <ele>273.15</ele>
        <time>2026-02-22T09:14:45Z</time>
      </trkpt>
      <trkpt lat="43.80487" lon="2.12164">
        <ele>273.63</ele>
        <time>2026-02-22T09:14:54Z</time>
      </trkpt>
      <trkpt lat="43.80482" lon="2.12176">
        <ele>273.63</ele>
        <time>2026-02-22T09:15:03Z</time>
      </trkpt>
      <trkpt lat="43.80477" lon="2.12189">
        <ele>273.63</ele>
        <time>2026-02-22T09:15:12Z</time>
      </trkpt>
      <trkpt lat="43.80472" lon="2.12202">
        <ele>274.11</ele>
        <time>2026-02-22T09:15:21Z</time>
      </trkpt>
      <trkpt lat="43.80468" lon="2.12213">
        <ele>276.52</ele>
        <time>2026-02-22T09:15:33Z</time>
      </trkpt>
      <trkpt lat="43.80464" lon="2.12225">
        <ele>277.96</ele>
        <time>2026-02-22T09:15:45Z</time>
      </trkpt>
      <trkpt lat="43.80459" lon="2.1224">
        <ele>278.44</ele>
        <time>2026-02-22T09:15:54Z</time>
      </trkpt>
      <trkpt lat="43.80453" lon="2.12252">
        <ele>278.44</ele>
        <time>2026-02-22T09:16:04Z</time>
      </trkpt>
      <trkpt lat="43.80449" lon="2.12264">
        <ele>277.48</ele>
        <time>2026-02-22T09:16:13Z</time>
      </trkpt>
      <trkpt lat="43.80445" lon="2.12277">
        <ele>277</ele>
        <time>2026-02-22T09:16:23Z</time>
      </trkpt>
      <trkpt lat="43.8044" lon="2.1229">
        <ele>277.48</ele>
        <time>2026-02-22T09:16:44Z</time>
      </trkpt>
      <trkpt lat="43.80432" lon="2.123">
        <ele>280.36</ele>
        <time>2026-02-22T09:17:50Z</time>
      </trkpt>
      <trkpt lat="43.80427" lon="2.12314">
        <ele>280.36</ele>
        <time>2026-02-22T09:18:00Z</time>
      </trkpt>
      <trkpt lat="43.8042" lon="2.12326">
        <ele>281.32</ele>
        <time>2026-02-22T09:18:09Z</time>
      </trkpt>
      <trkpt lat="43.80416" lon="2.1234">
        <ele>281.32</ele>
        <time>2026-02-22T09:18:17Z</time>
      </trkpt>
      <trkpt lat="43.80412" lon="2.12354">
        <ele>282.28</ele>
        <time>2026-02-22T09:18:28Z</time>
      </trkpt>
      <trkpt lat="43.80409" lon="2.12368">
        <ele>281.8</ele>
        <time>2026-02-22T09:18:39Z</time>
      </trkpt>
      <trkpt lat="43.8041" lon="2.12377">
        <ele>289.49</ele>
        <time>2026-02-22T09:23:21Z</time>
      </trkpt>
      <trkpt lat="43.80398" lon="2.12375">
        <ele>286.61</ele>
        <time>2026-02-22T09:27:04Z</time>
      </trkpt>
      <trkpt lat="43.80384" lon="2.12382">
        <ele>284.69</ele>
        <time>2026-02-22T09:27:24Z</time>
      </trkpt>
      <trkpt lat="43.80377" lon="2.12396">
        <ele>282.77</ele>
        <time>2026-02-22T09:27:36Z</time>
      </trkpt>
      <trkpt lat="43.80373" lon="2.1241">
        <ele>282.28</ele>
        <time>2026-02-22T09:27:48Z</time>
      </trkpt>
      <trkpt lat="43.8037" lon="2.12424">
        <ele>282.28</ele>
        <time>2026-02-22T09:27:58Z</time>
      </trkpt>
      <trkpt lat="43.80366" lon="2.12438">
        <ele>282.77</ele>
        <time>2026-02-22T09:28:07Z</time>
      </trkpt>
      <trkpt lat="43.80363" lon="2.12454">
        <ele>282.28</ele>
        <time>2026-02-22T09:28:18Z</time>
      </trkpt>
      <trkpt lat="43.8036" lon="2.12472">
        <ele>283.73</ele>
        <time>2026-02-22T09:28:31Z</time>
      </trkpt>
      <trkpt lat="43.80357" lon="2.12485">
        <ele>283.25</ele>
        <time>2026-02-22T09:28:44Z</time>
      </trkpt>
      <trkpt lat="43.80351" lon="2.12501">
        <ele>280.84</ele>
        <time>2026-02-22T09:28:57Z</time>
      </trkpt>
      <trkpt lat="43.80343" lon="2.12513">
        <ele>280.36</ele>
        <time>2026-02-22T09:29:08Z</time>
      </trkpt>
      <trkpt lat="43.80336" lon="2.12521">
        <ele>279.88</ele>
        <time>2026-02-22T09:29:17Z</time>
      </trkpt>
      <trkpt lat="43.80327" lon="2.12528">
        <ele>279.88</ele>
        <time>2026-02-22T09:29:26Z</time>
      </trkpt>
      <trkpt lat="43.80318" lon="2.12532">
        <ele>280.84</ele>
        <time>2026-02-22T09:29:35Z</time>
      </trkpt>
      <trkpt lat="43.80309" lon="2.12538">
        <ele>282.28</ele>
        <time>2026-02-22T09:29:44Z</time>
      </trkpt>
      <trkpt lat="43.80298" lon="2.12544">
        <ele>281.8</ele>
        <time>2026-02-22T09:29:54Z</time>
      </trkpt>
      <trkpt lat="43.8029" lon="2.12549">
        <ele>281.32</ele>
        <time>2026-02-22T09:30:03Z</time>
      </trkpt>
      <trkpt lat="43.8028" lon="2.12554">
        <ele>280.84</ele>
        <time>2026-02-22T09:30:13Z</time>
      </trkpt>
      <trkpt lat="43.80271" lon="2.12559">
        <ele>280.36</ele>
        <time>2026-02-22T09:30:22Z</time>
      </trkpt>
      <trkpt lat="43.80262" lon="2.12564">
        <ele>279.88</ele>
        <time>2026-02-22T09:30:31Z</time>
      </trkpt>
      <trkpt lat="43.80252" lon="2.12569">
        <ele>279.4</ele>
        <time>2026-02-22T09:30:40Z</time>
      </trkpt>
      <trkpt lat="43.80243" lon="2.12573">
        <ele>279.4</ele>
        <time>2026-02-22T09:30:49Z</time>
      </trkpt>
      <trkpt lat="43.80233" lon="2.12581">
        <ele>278.92</ele>
        <time>2026-02-22T09:30:59Z</time>
      </trkpt>
      <trkpt lat="43.80225" lon="2.12589">
        <ele>278.92</ele>
        <time>2026-02-22T09:31:09Z</time>
      </trkpt>
      <trkpt lat="43.80216" lon="2.12598">
        <ele>278.92</ele>
        <time>2026-02-22T09:31:19Z</time>
      </trkpt>
      <trkpt lat="43.80207" lon="2.12606">
        <ele>279.4</ele>
        <time>2026-02-22T09:31:28Z</time>
      </trkpt>
      <trkpt lat="43.80197" lon="2.12613">
        <ele>277.96</ele>
        <time>2026-02-22T09:31:37Z</time>
      </trkpt>
      <trkpt lat="43.80188" lon="2.12617">
        <ele>278.44</ele>
        <time>2026-02-22T09:31:47Z</time>
      </trkpt>
      <trkpt lat="43.80178" lon="2.12622">
        <ele>279.4</ele>
        <time>2026-02-22T09:31:58Z</time>
      </trkpt>
      <trkpt lat="43.80169" lon="2.12629">
        <ele>278.44</ele>
        <time>2026-02-22T09:32:08Z</time>
      </trkpt>
      <trkpt lat="43.80159" lon="2.12635">
        <ele>278.92</ele>
        <time>2026-02-22T09:32:18Z</time>
      </trkpt>
      <trkpt lat="43.80148" lon="2.12641">
        <ele>279.4</ele>
        <time>2026-02-22T09:32:27Z</time>
      </trkpt>
      <trkpt lat="43.80139" lon="2.12647">
        <ele>281.32</ele>
        <time>2026-02-22T09:32:37Z</time>
      </trkpt>
      <trkpt lat="43.80128" lon="2.12654">
        <ele>279.88</ele>
        <time>2026-02-22T09:32:47Z</time>
      </trkpt>
      <trkpt lat="43.80119" lon="2.1266">
        <ele>279.4</ele>
        <time>2026-02-22T09:32:58Z</time>
      </trkpt>
      <trkpt lat="43.80109" lon="2.12667">
        <ele>279.4</ele>
        <time>2026-02-22T09:33:08Z</time>
      </trkpt>
      <trkpt lat="43.80099" lon="2.12668">
        <ele>278.92</ele>
        <time>2026-02-22T09:33:18Z</time>
      </trkpt>
      <trkpt lat="43.80093" lon="2.12656">
        <ele>279.4</ele>
        <time>2026-02-22T09:33:28Z</time>
      </trkpt>
      <trkpt lat="43.80089" lon="2.12642">
        <ele>278.92</ele>
        <time>2026-02-22T09:33:39Z</time>
      </trkpt>
      <trkpt lat="43.80083" lon="2.12626">
        <ele>278.92</ele>
        <time>2026-02-22T09:33:49Z</time>
      </trkpt>
      <trkpt lat="43.80077" lon="2.12616">
        <ele>278.44</ele>
        <time>2026-02-22T09:33:58Z</time>
      </trkpt>
      <trkpt lat="43.80071" lon="2.12606">
        <ele>278.92</ele>
        <time>2026-02-22T09:34:07Z</time>
      </trkpt>
      <trkpt lat="43.80064" lon="2.12594">
        <ele>279.88</ele>
        <time>2026-02-22T09:34:17Z</time>
      </trkpt>
      <trkpt lat="43.80057" lon="2.12586">
        <ele>279.4</ele>
        <time>2026-02-22T09:34:26Z</time>
      </trkpt>
      <trkpt lat="43.80044" lon="2.12589">
        <ele>278.44</ele>
        <time>2026-02-22T09:34:36Z</time>
      </trkpt>
      <trkpt lat="43.80035" lon="2.12599">
        <ele>278.44</ele>
        <time>2026-02-22T09:34:46Z</time>
      </trkpt>
      <trkpt lat="43.80026" lon="2.12606">
        <ele>277.96</ele>
        <time>2026-02-22T09:34:55Z</time>
      </trkpt>
      <trkpt lat="43.80018" lon="2.12615">
        <ele>277.48</ele>
        <time>2026-02-22T09:35:05Z</time>
      </trkpt>
      <trkpt lat="43.8001" lon="2.12622">
        <ele>276.52</ele>
        <time>2026-02-22T09:35:14Z</time>
      </trkpt>
      <trkpt lat="43.80002" lon="2.12632">
        <ele>277</ele>
        <time>2026-02-22T09:35:24Z</time>
      </trkpt>
      <trkpt lat="43.79992" lon="2.12637">
        <ele>277</ele>
        <time>2026-02-22T09:35:35Z</time>
      </trkpt>
      <trkpt lat="43.79977" lon="2.12636">
        <ele>277</ele>
        <time>2026-02-22T09:35:49Z</time>
      </trkpt>
      <trkpt lat="43.79964" lon="2.12636">
        <ele>277.96</ele>
        <time>2026-02-22T09:36:01Z</time>
      </trkpt>
      <trkpt lat="43.79952" lon="2.12636">
        <ele>278.92</ele>
        <time>2026-02-22T09:36:12Z</time>
      </trkpt>
      <trkpt lat="43.79939" lon="2.12636">
        <ele>280.36</ele>
        <time>2026-02-22T09:36:24Z</time>
      </trkpt>
      <trkpt lat="43.79927" lon="2.12637">
        <ele>280.36</ele>
        <time>2026-02-22T09:36:36Z</time>
      </trkpt>
      <trkpt lat="43.79913" lon="2.12637">
        <ele>279.88</ele>
        <time>2026-02-22T09:36:49Z</time>
      </trkpt>
      <trkpt lat="43.79897" lon="2.12621">
        <ele>279.4</ele>
        <time>2026-02-22T09:37:10Z</time>
      </trkpt>
      <trkpt lat="43.79891" lon="2.12607">
        <ele>279.88</ele>
        <time>2026-02-22T09:37:21Z</time>
      </trkpt>
      <trkpt lat="43.79883" lon="2.12588">
        <ele>277.48</ele>
        <time>2026-02-22T09:37:38Z</time>
      </trkpt>
      <trkpt lat="43.79875" lon="2.1256">
        <ele>275.07</ele>
        <time>2026-02-22T09:37:58Z</time>
      </trkpt>
      <trkpt lat="43.79869" lon="2.12541">
        <ele>270.75</ele>
        <time>2026-02-22T09:38:11Z</time>
      </trkpt>
      <trkpt lat="43.79864" lon="2.12523">
        <ele>268.35</ele>
        <time>2026-02-22T09:38:25Z</time>
      </trkpt>
      <trkpt lat="43.7986" lon="2.12504">
        <ele>265.94</ele>
        <time>2026-02-22T09:38:40Z</time>
      </trkpt>
      <trkpt lat="43.79874" lon="2.12461">
        <ele>260.65</ele>
        <time>2026-02-22T09:39:27Z</time>
      </trkpt>
      <trkpt lat="43.79903" lon="2.12361">
        <ele>251.04</ele>
        <time>2026-02-22T09:41:04Z</time>
      </trkpt>
      <trkpt lat="43.79912" lon="2.12342">
        <ele>250.56</ele>
        <time>2026-02-22T09:41:21Z</time>
      </trkpt>
      <trkpt lat="43.79919" lon="2.12327">
        <ele>250.56</ele>
        <time>2026-02-22T09:41:34Z</time>
      </trkpt>
      <trkpt lat="43.79906" lon="2.12326">
        <ele>250.08</ele>
        <time>2026-02-22T09:43:14Z</time>
      </trkpt>
      <trkpt lat="43.79895" lon="2.12336">
        <ele>247.68</ele>
        <time>2026-02-22T09:43:25Z</time>
      </trkpt>
      <trkpt lat="43.79881" lon="2.12337">
        <ele>247.2</ele>
        <time>2026-02-22T09:43:39Z</time>
      </trkpt>
      <trkpt lat="43.79873" lon="2.12329">
        <ele>245.75</ele>
        <time>2026-02-22T09:43:49Z</time>
      </trkpt>
      <trkpt lat="43.79862" lon="2.12317">
        <ele>241.91</ele>
        <time>2026-02-22T09:44:10Z</time>
      </trkpt>
      <trkpt lat="43.79855" lon="2.1231">
        <ele>241.43</ele>
        <time>2026-02-22T09:44:19Z</time>
      </trkpt>
      <trkpt lat="43.79848" lon="2.12301">
        <ele>240.47</ele>
        <time>2026-02-22T09:44:28Z</time>
      </trkpt>
      <trkpt lat="43.7984" lon="2.12293">
        <ele>239.99</ele>
        <time>2026-02-22T09:44:37Z</time>
      </trkpt>
      <trkpt lat="43.79833" lon="2.12284">
        <ele>238.54</ele>
        <time>2026-02-22T09:45:04Z</time>
      </trkpt>
      <trkpt lat="43.79822" lon="2.12281">
        <ele>239.02</ele>
        <time>2026-02-22T09:45:12Z</time>
      </trkpt>
      <trkpt lat="43.79814" lon="2.12274">
        <ele>238.54</ele>
        <time>2026-02-22T09:45:19Z</time>
      </trkpt>
      <trkpt lat="43.79806" lon="2.12269">
        <ele>236.62</ele>
        <time>2026-02-22T09:45:27Z</time>
      </trkpt>
      <trkpt lat="43.79796" lon="2.12265">
        <ele>235.18</ele>
        <time>2026-02-22T09:45:35Z</time>
      </trkpt>
      <trkpt lat="43.7979" lon="2.12261">
        <ele>233.74</ele>
        <time>2026-02-22T09:45:48Z</time>
      </trkpt>
      <trkpt lat="43.79781" lon="2.12254">
        <ele>232.3</ele>
        <time>2026-02-22T09:45:57Z</time>
      </trkpt>
      <trkpt lat="43.79771" lon="2.12248">
        <ele>231.33</ele>
        <time>2026-02-22T09:46:06Z</time>
      </trkpt>
      <trkpt lat="43.79762" lon="2.12239">
        <ele>230.85</ele>
        <time>2026-02-22T09:46:17Z</time>
      </trkpt>
      <trkpt lat="43.79754" lon="2.1223">
        <ele>229.41</ele>
        <time>2026-02-22T09:46:28Z</time>
      </trkpt>
      <trkpt lat="43.79744" lon="2.12226">
        <ele>227.97</ele>
        <time>2026-02-22T09:46:38Z</time>
      </trkpt>
      <trkpt lat="43.79734" lon="2.12219">
        <ele>227.49</ele>
        <time>2026-02-22T09:46:47Z</time>
      </trkpt>
      <trkpt lat="43.79723" lon="2.12217">
        <ele>226.05</ele>
        <time>2026-02-22T09:46:56Z</time>
      </trkpt>
      <trkpt lat="43.79712" lon="2.12214">
        <ele>224.61</ele>
        <time>2026-02-22T09:47:05Z</time>
      </trkpt>
      <trkpt lat="43.797" lon="2.12215">
        <ele>224.61</ele>
        <time>2026-02-22T09:47:16Z</time>
      </trkpt>
      <trkpt lat="43.79689" lon="2.12219">
        <ele>224.61</ele>
        <time>2026-02-22T09:47:25Z</time>
      </trkpt>
      <trkpt lat="43.79678" lon="2.12227">
        <ele>223.16</ele>
        <time>2026-02-22T09:47:34Z</time>
      </trkpt>
      <trkpt lat="43.79666" lon="2.12235">
        <ele>222.68</ele>
        <time>2026-02-22T09:47:44Z</time>
      </trkpt>
      <trkpt lat="43.79657" lon="2.12245">
        <ele>221.72</ele>
        <time>2026-02-22T09:47:54Z</time>
      </trkpt>
      <trkpt lat="43.79649" lon="2.12257">
        <ele>221.24</ele>
        <time>2026-02-22T09:48:04Z</time>
      </trkpt>
      <trkpt lat="43.7964" lon="2.12269">
        <ele>221.24</ele>
        <time>2026-02-22T09:48:15Z</time>
      </trkpt>
      <trkpt lat="43.79631" lon="2.12284">
        <ele>221.24</ele>
        <time>2026-02-22T09:48:42Z</time>
      </trkpt>
      <trkpt lat="43.79621" lon="2.12295">
        <ele>221.72</ele>
        <time>2026-02-22T09:48:52Z</time>
      </trkpt>
      <trkpt lat="43.79614" lon="2.12306">
        <ele>222.2</ele>
        <time>2026-02-22T09:49:02Z</time>
      </trkpt>
      <trkpt lat="43.79608" lon="2.12321">
        <ele>221.24</ele>
        <time>2026-02-22T09:49:13Z</time>
      </trkpt>
      <trkpt lat="43.79598" lon="2.12333">
        <ele>220.76</ele>
        <time>2026-02-22T09:49:25Z</time>
      </trkpt>
      <trkpt lat="43.79593" lon="2.12349">
        <ele>220.76</ele>
        <time>2026-02-22T09:49:35Z</time>
      </trkpt>
      <trkpt lat="43.79586" lon="2.12362">
        <ele>221.72</ele>
        <time>2026-02-22T09:49:44Z</time>
      </trkpt>
      <trkpt lat="43.7958" lon="2.12374">
        <ele>222.2</ele>
        <time>2026-02-22T09:49:53Z</time>
      </trkpt>
      <trkpt lat="43.79573" lon="2.12385">
        <ele>222.68</ele>
        <time>2026-02-22T09:50:02Z</time>
      </trkpt>
      <trkpt lat="43.79566" lon="2.12397">
        <ele>221.24</ele>
        <time>2026-02-22T09:50:12Z</time>
      </trkpt>
      <trkpt lat="43.79557" lon="2.12405">
        <ele>220.76</ele>
        <time>2026-02-22T09:50:23Z</time>
      </trkpt>
      <trkpt lat="43.7955" lon="2.12397">
        <ele>224.12</ele>
        <time>2026-02-22T09:51:06Z</time>
      </trkpt>
      <trkpt lat="43.79542" lon="2.12387">
        <ele>223.16</ele>
        <time>2026-02-22T09:51:17Z</time>
      </trkpt>
      <trkpt lat="43.79532" lon="2.12382">
        <ele>221.72</ele>
        <time>2026-02-22T09:51:32Z</time>
      </trkpt>
      <trkpt lat="43.79518" lon="2.12401">
        <ele>218.36</ele>
        <time>2026-02-22T09:52:09Z</time>
      </trkpt>
      <trkpt lat="43.79512" lon="2.12418">
        <ele>217.4</ele>
        <time>2026-02-22T09:52:19Z</time>
      </trkpt>
      <trkpt lat="43.79517" lon="2.12415">
        <ele>220.28</ele>
        <time>2026-02-22T09:53:26Z</time>
      </trkpt>
      <trkpt lat="43.79524" lon="2.12401">
        <ele>219.32</ele>
        <time>2026-02-22T09:53:37Z</time>
      </trkpt>
      <trkpt lat="43.79532" lon="2.12389">
        <ele>219.8</ele>
        <time>2026-02-22T09:53:46Z</time>
      </trkpt>
      <trkpt lat="43.79522" lon="2.12404">
        <ele>229.89</ele>
        <time>2026-02-22T09:55:34Z</time>
      </trkpt>
      <trkpt lat="43.79514" lon="2.12414">
        <ele>224.12</ele>
        <time>2026-02-22T09:55:44Z</time>
      </trkpt>
      <trkpt lat="43.7951" lon="2.1243">
        <ele>221.72</ele>
        <time>2026-02-22T09:55:58Z</time>
      </trkpt>
      <trkpt lat="43.7952" lon="2.1244">
        <ele>221.72</ele>
        <time>2026-02-22T09:56:23Z</time>
      </trkpt>
      <trkpt lat="43.79532" lon="2.12451">
        <ele>220.76</ele>
        <time>2026-02-22T09:56:38Z</time>
      </trkpt>
      <trkpt lat="43.79539" lon="2.1246">
        <ele>219.32</ele>
        <time>2026-02-22T09:56:46Z</time>
      </trkpt>
      <trkpt lat="43.79543" lon="2.12472">
        <ele>219.32</ele>
        <time>2026-02-22T09:56:55Z</time>
      </trkpt>
      <trkpt lat="43.79549" lon="2.12484">
        <ele>218.36</ele>
        <time>2026-02-22T09:57:03Z</time>
      </trkpt>
      <trkpt lat="43.79554" lon="2.12499">
        <ele>219.32</ele>
        <time>2026-02-22T09:57:11Z</time>
      </trkpt>
      <trkpt lat="43.79557" lon="2.12513">
        <ele>218.84</ele>
        <time>2026-02-22T09:57:23Z</time>
      </trkpt>
      <trkpt lat="43.79558" lon="2.12528">
        <ele>218.36</ele>
        <time>2026-02-22T09:57:31Z</time>
      </trkpt>
      <trkpt lat="43.79553" lon="2.12539">
        <ele>217.4</ele>
        <time>2026-02-22T09:57:38Z</time>
      </trkpt>
      <trkpt lat="43.79543" lon="2.1254">
        <ele>215.95</ele>
        <time>2026-02-22T09:57:46Z</time>
      </trkpt>
      <trkpt lat="43.79536" lon="2.12533">
        <ele>214.03</ele>
        <time>2026-02-22T09:57:53Z</time>
      </trkpt>
      <trkpt lat="43.79528" lon="2.12524">
        <ele>213.07</ele>
        <time>2026-02-22T09:58:01Z</time>
      </trkpt>
      <trkpt lat="43.79519" lon="2.12516">
        <ele>211.63</ele>
        <time>2026-02-22T09:58:09Z</time>
      </trkpt>
      <trkpt lat="43.7951" lon="2.12508">
        <ele>211.15</ele>
        <time>2026-02-22T09:58:18Z</time>
      </trkpt>
      <trkpt lat="43.79499" lon="2.12501">
        <ele>208.26</ele>
        <time>2026-02-22T09:58:35Z</time>
      </trkpt>
      <trkpt lat="43.79489" lon="2.12495">
        <ele>207.3</ele>
        <time>2026-02-22T09:58:42Z</time>
      </trkpt>
      <trkpt lat="43.79481" lon="2.12488">
        <ele>207.3</ele>
        <time>2026-02-22T09:58:49Z</time>
      </trkpt>
      <trkpt lat="43.79474" lon="2.12482">
        <ele>206.82</ele>
        <time>2026-02-22T09:58:56Z</time>
      </trkpt>
      <trkpt lat="43.79465" lon="2.12475">
        <ele>206.34</ele>
        <time>2026-02-22T09:59:04Z</time>
      </trkpt>
      <trkpt lat="43.79457" lon="2.12467">
        <ele>205.86</ele>
        <time>2026-02-22T09:59:12Z</time>
      </trkpt>
      <trkpt lat="43.79444" lon="2.12457">
        <ele>204.9</ele>
        <time>2026-02-22T09:59:23Z</time>
      </trkpt>
      <trkpt lat="43.79434" lon="2.1245">
        <ele>201.53</ele>
        <time>2026-02-22T09:59:33Z</time>
      </trkpt>
      <trkpt lat="43.79424" lon="2.12443">
        <ele>200.09</ele>
        <time>2026-02-22T09:59:43Z</time>
      </trkpt>
      <trkpt lat="43.79414" lon="2.12436">
        <ele>199.61</ele>
        <time>2026-02-22T09:59:53Z</time>
      </trkpt>
      <trkpt lat="43.794" lon="2.12428">
        <ele>199.13</ele>
        <time>2026-02-22T10:00:05Z</time>
      </trkpt>
      <trkpt lat="43.79377" lon="2.12416">
        <ele>197.69</ele>
        <time>2026-02-22T10:00:25Z</time>
      </trkpt>
      <trkpt lat="43.7936" lon="2.12412">
        <ele>197.21</ele>
        <time>2026-02-22T10:00:39Z</time>
      </trkpt>
      <trkpt lat="43.79343" lon="2.12411">
        <ele>198.17</ele>
        <time>2026-02-22T10:00:52Z</time>
      </trkpt>
      <trkpt lat="43.79336" lon="2.12417">
        <ele>201.05</ele>
        <time>2026-02-22T10:01:58Z</time>
      </trkpt>
      <trkpt lat="43.79325" lon="2.1243">
        <ele>197.69</ele>
        <time>2026-02-22T10:02:07Z</time>
      </trkpt>
      <trkpt lat="43.79315" lon="2.12437">
        <ele>196.25</ele>
        <time>2026-02-22T10:02:15Z</time>
      </trkpt>
      <trkpt lat="43.79308" lon="2.12447">
        <ele>196.25</ele>
        <time>2026-02-22T10:02:23Z</time>
      </trkpt>
      <trkpt lat="43.79298" lon="2.12456">
        <ele>195.77</ele>
        <time>2026-02-22T10:02:32Z</time>
      </trkpt>
      <trkpt lat="43.79287" lon="2.12467">
        <ele>193.36</ele>
        <time>2026-02-22T10:02:41Z</time>
      </trkpt>
      <trkpt lat="43.79277" lon="2.12477">
        <ele>191.44</ele>
        <time>2026-02-22T10:02:49Z</time>
      </trkpt>
      <trkpt lat="43.79268" lon="2.12485">
        <ele>190.96</ele>
        <time>2026-02-22T10:02:56Z</time>
      </trkpt>
      <trkpt lat="43.7926" lon="2.12493">
        <ele>190.96</ele>
        <time>2026-02-22T10:03:03Z</time>
      </trkpt>
      <trkpt lat="43.79252" lon="2.12502">
        <ele>190.96</ele>
        <time>2026-02-22T10:03:10Z</time>
      </trkpt>
      <trkpt lat="43.79244" lon="2.1251">
        <ele>191.92</ele>
        <time>2026-02-22T10:03:17Z</time>
      </trkpt>
      <trkpt lat="43.79235" lon="2.12519">
        <ele>191.92</ele>
        <time>2026-02-22T10:03:24Z</time>
      </trkpt>
      <trkpt lat="43.79227" lon="2.12528">
        <ele>191.44</ele>
        <time>2026-02-22T10:03:31Z</time>
      </trkpt>
      <trkpt lat="43.79219" lon="2.12538">
        <ele>191.44</ele>
        <time>2026-02-22T10:03:38Z</time>
      </trkpt>
      <trkpt lat="43.79211" lon="2.12546">
        <ele>190.96</ele>
        <time>2026-02-22T10:03:45Z</time>
      </trkpt>
      <trkpt lat="43.79203" lon="2.12554">
        <ele>190</ele>
        <time>2026-02-22T10:03:52Z</time>
      </trkpt>
      <trkpt lat="43.79195" lon="2.12562">
        <ele>190</ele>
        <time>2026-02-22T10:03:59Z</time>
      </trkpt>
      <trkpt lat="43.79187" lon="2.12571">
        <ele>190</ele>
        <time>2026-02-22T10:04:06Z</time>
      </trkpt>
      <trkpt lat="43.79179" lon="2.1258">
        <ele>190</ele>
        <time>2026-02-22T10:04:13Z</time>
      </trkpt>
      <trkpt lat="43.79171" lon="2.12588">
        <ele>190</ele>
        <time>2026-02-22T10:04:20Z</time>
      </trkpt>
      <trkpt lat="43.79162" lon="2.12597">
        <ele>190</ele>
        <time>2026-02-22T10:04:27Z</time>
      </trkpt>
      <trkpt lat="43.79154" lon="2.12605">
        <ele>190.96</ele>
        <time>2026-02-22T10:04:34Z</time>
      </trkpt>
      <trkpt lat="43.79145" lon="2.12613">
        <ele>190.48</ele>
        <time>2026-02-22T10:04:41Z</time>
      </trkpt>
      <trkpt lat="43.79137" lon="2.12623">
        <ele>190.48</ele>
        <time>2026-02-22T10:04:48Z</time>
      </trkpt>
      <trkpt lat="43.79129" lon="2.12631">
        <ele>190.96</ele>
        <time>2026-02-22T10:04:55Z</time>
      </trkpt>
      <trkpt lat="43.79121" lon="2.12638">
        <ele>190.96</ele>
        <time>2026-02-22T10:05:02Z</time>
      </trkpt>
      <trkpt lat="43.79113" lon="2.12647">
        <ele>190.48</ele>
        <time>2026-02-22T10:05:09Z</time>
      </trkpt>
      <trkpt lat="43.79106" lon="2.12656">
        <ele>190</ele>
        <time>2026-02-22T10:05:16Z</time>
      </trkpt>
      <trkpt lat="43.79098" lon="2.12664">
        <ele>189.52</ele>
        <time>2026-02-22T10:05:24Z</time>
      </trkpt>
      <trkpt lat="43.79089" lon="2.12673">
        <ele>189.04</ele>
        <time>2026-02-22T10:05:32Z</time>
      </trkpt>
      <trkpt lat="43.79081" lon="2.12681">
        <ele>189.04</ele>
        <time>2026-02-22T10:05:39Z</time>
      </trkpt>
      <trkpt lat="43.79073" lon="2.12688">
        <ele>189.52</ele>
        <time>2026-02-22T10:05:46Z</time>
      </trkpt>
      <trkpt lat="43.79065" lon="2.12698">
        <ele>190.48</ele>
        <time>2026-02-22T10:05:56Z</time>
      </trkpt>
      <trkpt lat="43.79065" lon="2.12717">
        <ele>193.36</ele>
        <time>2026-02-22T10:06:57Z</time>
      </trkpt>
      <trkpt lat="43.7907" lon="2.1273">
        <ele>192.88</ele>
        <time>2026-02-22T10:07:07Z</time>
      </trkpt>
      <trkpt lat="43.79077" lon="2.12741">
        <ele>192.4</ele>
        <time>2026-02-22T10:07:17Z</time>
      </trkpt>
      <trkpt lat="43.79082" lon="2.12751">
        <ele>191.44</ele>
        <time>2026-02-22T10:07:26Z</time>
      </trkpt>
      <trkpt lat="43.79087" lon="2.12763">
        <ele>190.96</ele>
        <time>2026-02-22T10:07:34Z</time>
      </trkpt>
      <trkpt lat="43.79093" lon="2.12773">
        <ele>190.48</ele>
        <time>2026-02-22T10:07:42Z</time>
      </trkpt>
      <trkpt lat="43.79099" lon="2.12785">
        <ele>190.48</ele>
        <time>2026-02-22T10:07:50Z</time>
      </trkpt>
      <trkpt lat="43.79105" lon="2.12795">
        <ele>189.52</ele>
        <time>2026-02-22T10:07:58Z</time>
      </trkpt>
      <trkpt lat="43.79111" lon="2.12806">
        <ele>188.56</ele>
        <time>2026-02-22T10:08:08Z</time>
      </trkpt>
      <trkpt lat="43.79117" lon="2.12816">
        <ele>188.56</ele>
        <time>2026-02-22T10:08:16Z</time>
      </trkpt>
      <trkpt lat="43.79122" lon="2.12828">
        <ele>189.52</ele>
        <time>2026-02-22T10:08:25Z</time>
      </trkpt>
      <trkpt lat="43.79126" lon="2.12841">
        <ele>189.52</ele>
        <time>2026-02-22T10:08:33Z</time>
      </trkpt>
      <trkpt lat="43.79132" lon="2.12851">
        <ele>189.04</ele>
        <time>2026-02-22T10:08:40Z</time>
      </trkpt>
      <trkpt lat="43.79137" lon="2.12863">
        <ele>189.04</ele>
        <time>2026-02-22T10:08:47Z</time>
      </trkpt>
      <trkpt lat="43.79144" lon="2.12872">
        <ele>188.56</ele>
        <time>2026-02-22T10:08:54Z</time>
      </trkpt>
      <trkpt lat="43.79149" lon="2.12885">
        <ele>188.08</ele>
        <time>2026-02-22T10:09:04Z</time>
      </trkpt>
      <trkpt lat="43.79154" lon="2.12896">
        <ele>188.56</ele>
        <time>2026-02-22T10:09:13Z</time>
      </trkpt>
      <trkpt lat="43.79161" lon="2.12908">
        <ele>188.08</ele>
        <time>2026-02-22T10:09:22Z</time>
      </trkpt>
      <trkpt lat="43.79166" lon="2.12919">
        <ele>188.08</ele>
        <time>2026-02-22T10:09:30Z</time>
      </trkpt>
      <trkpt lat="43.79171" lon="2.1293">
        <ele>188.08</ele>
        <time>2026-02-22T10:09:38Z</time>
      </trkpt>
      <trkpt lat="43.79177" lon="2.12941">
        <ele>187.59</ele>
        <time>2026-02-22T10:09:46Z</time>
      </trkpt>
      <trkpt lat="43.79183" lon="2.12953">
        <ele>187.59</ele>
        <time>2026-02-22T10:09:55Z</time>
      </trkpt>
      <trkpt lat="43.79188" lon="2.12963">
        <ele>188.08</ele>
        <time>2026-02-22T10:10:03Z</time>
      </trkpt>
      <trkpt lat="43.79193" lon="2.12976">
        <ele>188.56</ele>
        <time>2026-02-22T10:10:12Z</time>
      </trkpt>
      <trkpt lat="43.79198" lon="2.12989">
        <ele>189.52</ele>
        <time>2026-02-22T10:10:21Z</time>
      </trkpt>
      <trkpt lat="43.79204" lon="2.12999">
        <ele>190.48</ele>
        <time>2026-02-22T10:10:30Z</time>
      </trkpt>
      <trkpt lat="43.79208" lon="2.13006">
        <ele>189.52</ele>
        <time>2026-02-22T10:10:40Z</time>
      </trkpt>
      <trkpt lat="43.79215" lon="2.13019">
        <ele>189.04</ele>
        <time>2026-02-22T10:10:48Z</time>
      </trkpt>
      <trkpt lat="43.7922" lon="2.13032">
        <ele>190.48</ele>
        <time>2026-02-22T10:10:56Z</time>
      </trkpt>
      <trkpt lat="43.79226" lon="2.13042">
        <ele>190.48</ele>
        <time>2026-02-22T10:11:04Z</time>
      </trkpt>
      <trkpt lat="43.79232" lon="2.13052">
        <ele>190</ele>
        <time>2026-02-22T10:11:13Z</time>
      </trkpt>
      <trkpt lat="43.79237" lon="2.13063">
        <ele>190</ele>
        <time>2026-02-22T10:11:21Z</time>
      </trkpt>
      <trkpt lat="43.79243" lon="2.13074">
        <ele>189.52</ele>
        <time>2026-02-22T10:11:29Z</time>
      </trkpt>
      <trkpt lat="43.79248" lon="2.13086">
        <ele>189.04</ele>
        <time>2026-02-22T10:11:37Z</time>
      </trkpt>
      <trkpt lat="43.79254" lon="2.13099">
        <ele>189.52</ele>
        <time>2026-02-22T10:11:46Z</time>
      </trkpt>
      <trkpt lat="43.7926" lon="2.1311">
        <ele>189.04</ele>
        <time>2026-02-22T10:11:54Z</time>
      </trkpt>
      <trkpt lat="43.79265" lon="2.13121">
        <ele>189.04</ele>
        <time>2026-02-22T10:12:02Z</time>
      </trkpt>
      <trkpt lat="43.79271" lon="2.13133">
        <ele>189.52</ele>
        <time>2026-02-22T10:12:10Z</time>
      </trkpt>
      <trkpt lat="43.79277" lon="2.13144">
        <ele>189.04</ele>
        <time>2026-02-22T10:12:18Z</time>
      </trkpt>
      <trkpt lat="43.79282" lon="2.13156">
        <ele>189.52</ele>
        <time>2026-02-22T10:12:27Z</time>
      </trkpt>
      <trkpt lat="43.79288" lon="2.1317">
        <ele>190</ele>
        <time>2026-02-22T10:12:35Z</time>
      </trkpt>
      <trkpt lat="43.79293" lon="2.13184">
        <ele>190</ele>
        <time>2026-02-22T10:12:44Z</time>
      </trkpt>
      <trkpt lat="43.79299" lon="2.13195">
        <ele>190</ele>
        <time>2026-02-22T10:12:53Z</time>
      </trkpt>
      <trkpt lat="43.79305" lon="2.13206">
        <ele>189.04</ele>
        <time>2026-02-22T10:13:02Z</time>
      </trkpt>
      <trkpt lat="43.79311" lon="2.13218">
        <ele>188.56</ele>
        <time>2026-02-22T10:13:12Z</time>
      </trkpt>
      <trkpt lat="43.79318" lon="2.13231">
        <ele>187.11</ele>
        <time>2026-02-22T10:13:22Z</time>
      </trkpt>
      <trkpt lat="43.79325" lon="2.13246">
        <ele>185.19</ele>
        <time>2026-02-22T10:13:32Z</time>
      </trkpt>
      <trkpt lat="43.7933" lon="2.1326">
        <ele>183.75</ele>
        <time>2026-02-22T10:13:42Z</time>
      </trkpt>
      <trkpt lat="43.79335" lon="2.13273">
        <ele>184.23</ele>
        <time>2026-02-22T10:13:51Z</time>
      </trkpt>
      <trkpt lat="43.79341" lon="2.13286">
        <ele>188.08</ele>
        <time>2026-02-22T10:14:00Z</time>
      </trkpt>
      <trkpt lat="43.79348" lon="2.13298">
        <ele>190.48</ele>
        <time>2026-02-22T10:14:09Z</time>
      </trkpt>
      <trkpt lat="43.79354" lon="2.13311">
        <ele>189.52</ele>
        <time>2026-02-22T10:14:18Z</time>
      </trkpt>
      <trkpt lat="43.7936" lon="2.13319">
        <ele>188.08</ele>
        <time>2026-02-22T10:14:27Z</time>
      </trkpt>
      <trkpt lat="43.79366" lon="2.1333">
        <ele>190.96</ele>
        <time>2026-02-22T10:14:34Z</time>
      </trkpt>
      <trkpt lat="43.79373" lon="2.13343">
        <ele>191.92</ele>
        <time>2026-02-22T10:14:42Z</time>
      </trkpt>
      <trkpt lat="43.79379" lon="2.13355">
        <ele>192.88</ele>
        <time>2026-02-22T10:14:50Z</time>
      </trkpt>
      <trkpt lat="43.79384" lon="2.13367">
        <ele>194.8</ele>
        <time>2026-02-22T10:14:58Z</time>
      </trkpt>
      <trkpt lat="43.79389" lon="2.13378">
        <ele>193.84</ele>
        <time>2026-02-22T10:15:06Z</time>
      </trkpt>
      <trkpt lat="43.79394" lon="2.13386">
        <ele>192.88</ele>
        <time>2026-02-22T10:15:14Z</time>
      </trkpt>
      <trkpt lat="43.794" lon="2.13399">
        <ele>192.88</ele>
        <time>2026-02-22T10:15:22Z</time>
      </trkpt>
      <trkpt lat="43.79406" lon="2.1341">
        <ele>192.88</ele>
        <time>2026-02-22T10:15:30Z</time>
      </trkpt>
      <trkpt lat="43.79411" lon="2.13422">
        <ele>192.88</ele>
        <time>2026-02-22T10:15:38Z</time>
      </trkpt>
      <trkpt lat="43.79418" lon="2.13433">
        <ele>191.92</ele>
        <time>2026-02-22T10:15:47Z</time>
      </trkpt>
      <trkpt lat="43.79424" lon="2.13445">
        <ele>192.4</ele>
        <time>2026-02-22T10:15:56Z</time>
      </trkpt>
      <trkpt lat="43.7943" lon="2.13455">
        <ele>192.88</ele>
        <time>2026-02-22T10:16:04Z</time>
      </trkpt>
      <trkpt lat="43.79438" lon="2.13467">
        <ele>192.88</ele>
        <time>2026-02-22T10:16:13Z</time>
      </trkpt>
      <trkpt lat="43.79445" lon="2.13478">
        <ele>191.44</ele>
        <time>2026-02-22T10:16:22Z</time>
      </trkpt>
      <trkpt lat="43.79453" lon="2.13488">
        <ele>191.44</ele>
        <time>2026-02-22T10:16:31Z</time>
      </trkpt>
      <trkpt lat="43.79462" lon="2.13499">
        <ele>192.4</ele>
        <time>2026-02-22T10:16:40Z</time>
      </trkpt>
      <trkpt lat="43.7947" lon="2.13507">
        <ele>190.48</ele>
        <time>2026-02-22T10:16:48Z</time>
      </trkpt>
      <trkpt lat="43.79478" lon="2.13515">
        <ele>191.44</ele>
        <time>2026-02-22T10:16:56Z</time>
      </trkpt>
      <trkpt lat="43.79487" lon="2.13527">
        <ele>192.88</ele>
        <time>2026-02-22T10:17:05Z</time>
      </trkpt>
      <trkpt lat="43.79495" lon="2.13536">
        <ele>192.88</ele>
        <time>2026-02-22T10:17:14Z</time>
      </trkpt>
      <trkpt lat="43.79503" lon="2.13546">
        <ele>194.32</ele>
        <time>2026-02-22T10:17:24Z</time>
      </trkpt>
      <trkpt lat="43.79515" lon="2.13562">
        <ele>193.36</ele>
        <time>2026-02-22T10:17:39Z</time>
      </trkpt>
      <trkpt lat="43.79534" lon="2.13589">
        <ele>189.04</ele>
        <time>2026-02-22T10:18:33Z</time>
      </trkpt>
      <trkpt lat="43.79548" lon="2.13602">
        <ele>190</ele>
        <time>2026-02-22T10:18:45Z</time>
      </trkpt>
      <trkpt lat="43.79557" lon="2.13615">
        <ele>190</ele>
        <time>2026-02-22T10:18:55Z</time>
      </trkpt>
      <trkpt lat="43.79567" lon="2.13625">
        <ele>190</ele>
        <time>2026-02-22T10:19:05Z</time>
      </trkpt>
      <trkpt lat="43.79574" lon="2.13635">
        <ele>192.4</ele>
        <time>2026-02-22T10:19:14Z</time>
      </trkpt>
      <trkpt lat="43.79583" lon="2.13643">
        <ele>192.88</ele>
        <time>2026-02-22T10:19:22Z</time>
      </trkpt>
      <trkpt lat="43.79591" lon="2.1365">
        <ele>194.32</ele>
        <time>2026-02-22T10:19:30Z</time>
      </trkpt>
      <trkpt lat="43.79599" lon="2.1366">
        <ele>195.28</ele>
        <time>2026-02-22T10:19:39Z</time>
      </trkpt>
      <trkpt lat="43.79606" lon="2.13669">
        <ele>195.28</ele>
        <time>2026-02-22T10:19:48Z</time>
      </trkpt>
      <trkpt lat="43.79613" lon="2.13681">
        <ele>195.28</ele>
        <time>2026-02-22T10:19:57Z</time>
      </trkpt>
      <trkpt lat="43.79621" lon="2.13692">
        <ele>195.28</ele>
        <time>2026-02-22T10:20:06Z</time>
      </trkpt>
      <trkpt lat="43.79629" lon="2.13699">
        <ele>194.32</ele>
        <time>2026-02-22T10:20:14Z</time>
      </trkpt>
      <trkpt lat="43.79636" lon="2.13708">
        <ele>194.32</ele>
        <time>2026-02-22T10:20:22Z</time>
      </trkpt>
      <trkpt lat="43.79643" lon="2.13718">
        <ele>193.84</ele>
        <time>2026-02-22T10:20:30Z</time>
      </trkpt>
      <trkpt lat="43.79651" lon="2.13727">
        <ele>193.84</ele>
        <time>2026-02-22T10:20:39Z</time>
      </trkpt>
      <trkpt lat="43.79657" lon="2.13736">
        <ele>194.32</ele>
        <time>2026-02-22T10:20:47Z</time>
      </trkpt>
      <trkpt lat="43.79665" lon="2.13742">
        <ele>195.28</ele>
        <time>2026-02-22T10:20:56Z</time>
      </trkpt>
      <trkpt lat="43.79672" lon="2.13752">
        <ele>195.28</ele>
        <time>2026-02-22T10:21:05Z</time>
      </trkpt>
      <trkpt lat="43.79678" lon="2.13763">
        <ele>194.8</ele>
        <time>2026-02-22T10:21:13Z</time>
      </trkpt>
      <trkpt lat="43.79686" lon="2.13773">
        <ele>194.32</ele>
        <time>2026-02-22T10:21:21Z</time>
      </trkpt>
      <trkpt lat="43.79692" lon="2.13782">
        <ele>193.84</ele>
        <time>2026-02-22T10:21:29Z</time>
      </trkpt>
      <trkpt lat="43.79699" lon="2.13792">
        <ele>194.8</ele>
        <time>2026-02-22T10:21:37Z</time>
      </trkpt>
      <trkpt lat="43.79706" lon="2.13802">
        <ele>194.8</ele>
        <time>2026-02-22T10:21:45Z</time>
      </trkpt>
      <trkpt lat="43.79713" lon="2.13811">
        <ele>194.8</ele>
        <time>2026-02-22T10:21:53Z</time>
      </trkpt>
      <trkpt lat="43.7972" lon="2.13821">
        <ele>195.28</ele>
        <time>2026-02-22T10:22:01Z</time>
      </trkpt>
      <trkpt lat="43.79727" lon="2.13831">
        <ele>196.25</ele>
        <time>2026-02-22T10:22:09Z</time>
      </trkpt>
      <trkpt lat="43.79733" lon="2.1384">
        <ele>196.73</ele>
        <time>2026-02-22T10:22:17Z</time>
      </trkpt>
      <trkpt lat="43.79739" lon="2.1385">
        <ele>197.69</ele>
        <time>2026-02-22T10:22:25Z</time>
      </trkpt>
      <trkpt lat="43.79745" lon="2.1386">
        <ele>197.69</ele>
        <time>2026-02-22T10:22:33Z</time>
      </trkpt>
      <trkpt lat="43.79751" lon="2.1387">
        <ele>198.17</ele>
        <time>2026-02-22T10:22:41Z</time>
      </trkpt>
      <trkpt lat="43.79758" lon="2.1388">
        <ele>198.17</ele>
        <time>2026-02-22T10:22:49Z</time>
      </trkpt>
      <trkpt lat="43.79764" lon="2.13889">
        <ele>198.17</ele>
        <time>2026-02-22T10:22:57Z</time>
      </trkpt>
      <trkpt lat="43.7977" lon="2.13899">
        <ele>198.17</ele>
        <time>2026-02-22T10:23:05Z</time>
      </trkpt>
      <trkpt lat="43.79777" lon="2.1391">
        <ele>196.25</ele>
        <time>2026-02-22T10:23:14Z</time>
      </trkpt>
      <trkpt lat="43.79783" lon="2.13919">
        <ele>195.77</ele>
        <time>2026-02-22T10:23:23Z</time>
      </trkpt>
      <trkpt lat="43.7979" lon="2.1393">
        <ele>195.28</ele>
        <time>2026-02-22T10:23:32Z</time>
      </trkpt>
      <trkpt lat="43.79797" lon="2.13939">
        <ele>195.28</ele>
        <time>2026-02-22T10:23:41Z</time>
      </trkpt>
      <trkpt lat="43.79804" lon="2.13949">
        <ele>195.28</ele>
        <time>2026-02-22T10:23:51Z</time>
      </trkpt>
      <trkpt lat="43.79809" lon="2.1396">
        <ele>196.25</ele>
        <time>2026-02-22T10:24:00Z</time>
      </trkpt>
      <trkpt lat="43.79817" lon="2.13969">
        <ele>195.77</ele>
        <time>2026-02-22T10:24:08Z</time>
      </trkpt>
      <trkpt lat="43.79824" lon="2.13979">
        <ele>196.25</ele>
        <time>2026-02-22T10:24:16Z</time>
      </trkpt>
      <trkpt lat="43.7983" lon="2.13989">
        <ele>196.73</ele>
        <time>2026-02-22T10:24:24Z</time>
      </trkpt>
      <trkpt lat="43.79835" lon="2.14001">
        <ele>196.73</ele>
        <time>2026-02-22T10:24:32Z</time>
      </trkpt>
      <trkpt lat="43.79842" lon="2.14011">
        <ele>196.25</ele>
        <time>2026-02-22T10:24:40Z</time>
      </trkpt>
      <trkpt lat="43.79849" lon="2.14022">
        <ele>196.25</ele>
        <time>2026-02-22T10:24:48Z</time>
      </trkpt>
      <trkpt lat="43.79855" lon="2.14032">
        <ele>196.73</ele>
        <time>2026-02-22T10:24:56Z</time>
      </trkpt>
      <trkpt lat="43.79861" lon="2.14043">
        <ele>198.17</ele>
        <time>2026-02-22T10:25:04Z</time>
      </trkpt>
      <trkpt lat="43.79868" lon="2.14051">
        <ele>198.17</ele>
        <time>2026-02-22T10:25:11Z</time>
      </trkpt>
      <trkpt lat="43.79874" lon="2.14061">
        <ele>197.69</ele>
        <time>2026-02-22T10:25:18Z</time>
      </trkpt>
      <trkpt lat="43.79882" lon="2.1407">
        <ele>198.17</ele>
        <time>2026-02-22T10:25:26Z</time>
      </trkpt>
      <trkpt lat="43.79888" lon="2.14083">
        <ele>197.21</ele>
        <time>2026-02-22T10:25:35Z</time>
      </trkpt>
      <trkpt lat="43.79895" lon="2.14097">
        <ele>194.8</ele>
        <time>2026-02-22T10:25:46Z</time>
      </trkpt>
      <trkpt lat="43.79903" lon="2.14108">
        <ele>194.8</ele>
        <time>2026-02-22T10:25:56Z</time>
      </trkpt>
      <trkpt lat="43.79897" lon="2.14119">
        <ele>195.77</ele>
        <time>2026-02-22T10:26:22Z</time>
      </trkpt>
      <trkpt lat="43.79887" lon="2.14124">
        <ele>195.77</ele>
        <time>2026-02-22T10:26:32Z</time>
      </trkpt>
      <trkpt lat="43.79878" lon="2.1413">
        <ele>195.77</ele>
        <time>2026-02-22T10:26:41Z</time>
      </trkpt>
      <trkpt lat="43.79867" lon="2.14136">
        <ele>195.77</ele>
        <time>2026-02-22T10:26:51Z</time>
      </trkpt>
      <trkpt lat="43.79858" lon="2.14141">
        <ele>194.8</ele>
        <time>2026-02-22T10:27:00Z</time>
      </trkpt>
      <trkpt lat="43.79848" lon="2.14147">
        <ele>195.77</ele>
        <time>2026-02-22T10:27:09Z</time>
      </trkpt>
      <trkpt lat="43.7984" lon="2.14154">
        <ele>195.28</ele>
        <time>2026-02-22T10:27:19Z</time>
      </trkpt>
      <trkpt lat="43.79829" lon="2.14156">
        <ele>195.77</ele>
        <time>2026-02-22T10:27:31Z</time>
      </trkpt>
      <trkpt lat="43.79817" lon="2.14158">
        <ele>194.8</ele>
        <time>2026-02-22T10:27:42Z</time>
      </trkpt>
      <trkpt lat="43.79808" lon="2.14163">
        <ele>193.84</ele>
        <time>2026-02-22T10:27:53Z</time>
      </trkpt>
      <trkpt lat="43.79792" lon="2.14177">
        <ele>195.28</ele>
        <time>2026-02-22T10:28:14Z</time>
      </trkpt>
      <trkpt lat="43.79782" lon="2.1419">
        <ele>196.25</ele>
        <time>2026-02-22T10:28:27Z</time>
      </trkpt>
      <trkpt lat="43.79778" lon="2.14224">
        <ele>195.28</ele>
        <time>2026-02-22T10:28:59Z</time>
      </trkpt>
      <trkpt lat="43.7977" lon="2.14262">
        <ele>195.77</ele>
        <time>2026-02-22T10:29:48Z</time>
      </trkpt>
      <trkpt lat="43.79745" lon="2.14326">
        <ele>194.32</ele>
        <time>2026-02-22T10:30:57Z</time>
      </trkpt>
      <trkpt lat="43.79759" lon="2.14352">
        <ele>196.73</ele>
        <time>2026-02-22T10:31:59Z</time>
      </trkpt>
      <trkpt lat="43.7977" lon="2.14372">
        <ele>197.21</ele>
        <time>2026-02-22T10:32:16Z</time>
      </trkpt>
      <trkpt lat="43.79772" lon="2.14396">
        <ele>197.69</ele>
        <time>2026-02-22T10:33:24Z</time>
      </trkpt>
      <trkpt lat="43.79764" lon="2.14404">
        <ele>198.65</ele>
        <time>2026-02-22T10:33:33Z</time>
      </trkpt>
      <trkpt lat="43.79754" lon="2.14412">
        <ele>199.61</ele>
        <time>2026-02-22T10:33:42Z</time>
      </trkpt>
      <trkpt lat="43.79744" lon="2.14417">
        <ele>200.09</ele>
        <time>2026-02-22T10:33:51Z</time>
      </trkpt>
      <trkpt lat="43.79734" lon="2.14419">
        <ele>200.57</ele>
        <time>2026-02-22T10:34:01Z</time>
      </trkpt>
      <trkpt lat="43.79725" lon="2.14422">
        <ele>201.05</ele>
        <time>2026-02-22T10:34:11Z</time>
      </trkpt>
      <trkpt lat="43.79714" lon="2.14421">
        <ele>201.05</ele>
        <time>2026-02-22T10:34:21Z</time>
      </trkpt>
      <trkpt lat="43.79716" lon="2.14445">
        <ele>199.61</ele>
        <time>2026-02-22T10:34:47Z</time>
      </trkpt>
      <trkpt lat="43.79731" lon="2.14463">
        <ele>199.13</ele>
        <time>2026-02-22T10:35:14Z</time>
      </trkpt>
      <trkpt lat="43.79739" lon="2.14481">
        <ele>200.09</ele>
        <time>2026-02-22T10:35:27Z</time>
      </trkpt>
      <trkpt lat="43.79747" lon="2.14496">
        <ele>200.57</ele>
        <time>2026-02-22T10:35:37Z</time>
      </trkpt>
      <trkpt lat="43.79756" lon="2.1451">
        <ele>199.13</ele>
        <time>2026-02-22T10:35:47Z</time>
      </trkpt>
      <trkpt lat="43.79764" lon="2.14523">
        <ele>198.17</ele>
        <time>2026-02-22T10:35:57Z</time>
      </trkpt>
      <trkpt lat="43.79773" lon="2.14536">
        <ele>198.17</ele>
        <time>2026-02-22T10:36:07Z</time>
      </trkpt>
      <trkpt lat="43.79783" lon="2.14549">
        <ele>198.65</ele>
        <time>2026-02-22T10:36:18Z</time>
      </trkpt>
      <trkpt lat="43.79791" lon="2.14562">
        <ele>199.61</ele>
        <time>2026-02-22T10:36:28Z</time>
      </trkpt>
      <trkpt lat="43.798" lon="2.1458">
        <ele>199.13</ele>
        <time>2026-02-22T10:36:40Z</time>
      </trkpt>
      <trkpt lat="43.79806" lon="2.14592">
        <ele>199.61</ele>
        <time>2026-02-22T10:36:49Z</time>
      </trkpt>
      <trkpt lat="43.79813" lon="2.14603">
        <ele>199.61</ele>
        <time>2026-02-22T10:36:58Z</time>
      </trkpt>
      <trkpt lat="43.7982" lon="2.14614">
        <ele>199.61</ele>
        <time>2026-02-22T10:37:08Z</time>
      </trkpt>
      <trkpt lat="43.79833" lon="2.14635">
        <ele>199.61</ele>
        <time>2026-02-22T10:37:34Z</time>
      </trkpt>
      <trkpt lat="43.79843" lon="2.14656">
        <ele>199.13</ele>
        <time>2026-02-22T10:38:00Z</time>
      </trkpt>
      <trkpt lat="43.79854" lon="2.14669">
        <ele>200.09</ele>
        <time>2026-02-22T10:38:11Z</time>
      </trkpt>
      <trkpt lat="43.79863" lon="2.14686">
        <ele>200.09</ele>
        <time>2026-02-22T10:38:25Z</time>
      </trkpt>
      <trkpt lat="43.79879" lon="2.14713">
        <ele>200.57</ele>
        <time>2026-02-22T10:38:47Z</time>
      </trkpt>
      <trkpt lat="43.79893" lon="2.14737">
        <ele>200.57</ele>
        <time>2026-02-22T10:39:07Z</time>
      </trkpt>
      <trkpt lat="43.79919" lon="2.14777">
        <ele>199.13</ele>
        <time>2026-02-22T10:39:39Z</time>
      </trkpt>
      <trkpt lat="43.79936" lon="2.14801">
        <ele>201.05</ele>
        <time>2026-02-22T10:40:02Z</time>
      </trkpt>
      <trkpt lat="43.79946" lon="2.14815">
        <ele>200.09</ele>
        <time>2026-02-22T10:40:14Z</time>
      </trkpt>
      <trkpt lat="43.79954" lon="2.14828">
        <ele>200.09</ele>
        <time>2026-02-22T10:40:26Z</time>
      </trkpt>
      <trkpt lat="43.79965" lon="2.14842">
        <ele>200.09</ele>
        <time>2026-02-22T10:40:40Z</time>
      </trkpt>
      <trkpt lat="43.79973" lon="2.14852">
        <ele>200.57</ele>
        <time>2026-02-22T10:40:51Z</time>
      </trkpt>
      <trkpt lat="43.7998" lon="2.14865">
        <ele>201.05</ele>
        <time>2026-02-22T10:41:01Z</time>
      </trkpt>
      <trkpt lat="43.79988" lon="2.14875">
        <ele>201.53</ele>
        <time>2026-02-22T10:41:11Z</time>
      </trkpt>
      <trkpt lat="43.79996" lon="2.14892">
        <ele>202.01</ele>
        <time>2026-02-22T10:41:39Z</time>
      </trkpt>
      <trkpt lat="43.80017" lon="2.14885">
        <ele>201.05</ele>
        <time>2026-02-22T10:41:58Z</time>
      </trkpt>
      <trkpt lat="43.8003" lon="2.14883">
        <ele>201.05</ele>
        <time>2026-02-22T10:42:10Z</time>
      </trkpt>
      <trkpt lat="43.80039" lon="2.1488">
        <ele>201.05</ele>
        <time>2026-02-22T10:42:20Z</time>
      </trkpt>
      <trkpt lat="43.80049" lon="2.14878">
        <ele>201.05</ele>
        <time>2026-02-22T10:42:29Z</time>
      </trkpt>
      <trkpt lat="43.80059" lon="2.14881">
        <ele>201.05</ele>
        <time>2026-02-22T10:42:38Z</time>
      </trkpt>
      <trkpt lat="43.80068" lon="2.14886">
        <ele>201.05</ele>
        <time>2026-02-22T10:42:48Z</time>
      </trkpt>
      <trkpt lat="43.80078" lon="2.14892">
        <ele>200.09</ele>
        <time>2026-02-22T10:42:58Z</time>
      </trkpt>
      <trkpt lat="43.80088" lon="2.14898">
        <ele>200.57</ele>
        <time>2026-02-22T10:43:07Z</time>
      </trkpt>
      <trkpt lat="43.80099" lon="2.14904">
        <ele>200.57</ele>
        <time>2026-02-22T10:43:17Z</time>
      </trkpt>
      <trkpt lat="43.8011" lon="2.14911">
        <ele>201.53</ele>
        <time>2026-02-22T10:43:27Z</time>
      </trkpt>
      <trkpt lat="43.8012" lon="2.14917">
        <ele>201.53</ele>
        <time>2026-02-22T10:43:37Z</time>
      </trkpt>
      <trkpt lat="43.80127" lon="2.14928">
        <ele>200.57</ele>
        <time>2026-02-22T10:43:47Z</time>
      </trkpt>
      <trkpt lat="43.80135" lon="2.14939">
        <ele>198.65</ele>
        <time>2026-02-22T10:43:58Z</time>
      </trkpt>
      <trkpt lat="43.80143" lon="2.14949">
        <ele>197.69</ele>
        <time>2026-02-22T10:44:08Z</time>
      </trkpt>
      <trkpt lat="43.80151" lon="2.14961">
        <ele>198.17</ele>
        <time>2026-02-22T10:44:18Z</time>
      </trkpt>
      <trkpt lat="43.8016" lon="2.14971">
        <ele>199.13</ele>
        <time>2026-02-22T10:44:29Z</time>
      </trkpt>
      <trkpt lat="43.80175" lon="2.1497">
        <ele>198.17</ele>
        <time>2026-02-22T10:44:44Z</time>
      </trkpt>
      <trkpt lat="43.80184" lon="2.14961">
        <ele>199.13</ele>
        <time>2026-02-22T10:44:54Z</time>
      </trkpt>
      <trkpt lat="43.80194" lon="2.14954">
        <ele>199.61</ele>
        <time>2026-02-22T10:45:03Z</time>
      </trkpt>
      <trkpt lat="43.80203" lon="2.14946">
        <ele>199.61</ele>
        <time>2026-02-22T10:45:12Z</time>
      </trkpt>
      <trkpt lat="43.80211" lon="2.14938">
        <ele>200.09</ele>
        <time>2026-02-22T10:45:20Z</time>
      </trkpt>
      <trkpt lat="43.8022" lon="2.14931">
        <ele>200.09</ele>
        <time>2026-02-22T10:45:29Z</time>
      </trkpt>
      <trkpt lat="43.8023" lon="2.14924">
        <ele>200.09</ele>
        <time>2026-02-22T10:45:37Z</time>
      </trkpt>
      <trkpt lat="43.8024" lon="2.14916">
        <ele>200.57</ele>
        <time>2026-02-22T10:45:46Z</time>
      </trkpt>
      <trkpt lat="43.80251" lon="2.14909">
        <ele>199.13</ele>
        <time>2026-02-22T10:45:58Z</time>
      </trkpt>
      <trkpt lat="43.80267" lon="2.14913">
        <ele>197.21</ele>
        <time>2026-02-22T10:46:20Z</time>
      </trkpt>
      <trkpt lat="43.80276" lon="2.14922">
        <ele>197.69</ele>
        <time>2026-02-22T10:46:29Z</time>
      </trkpt>
      <trkpt lat="43.80283" lon="2.14934">
        <ele>197.69</ele>
        <time>2026-02-22T10:46:38Z</time>
      </trkpt>
      <trkpt lat="43.8029" lon="2.14945">
        <ele>196.73</ele>
        <time>2026-02-22T10:46:47Z</time>
      </trkpt>
      <trkpt lat="43.80298" lon="2.14957">
        <ele>197.21</ele>
        <time>2026-02-22T10:46:56Z</time>
      </trkpt>
      <trkpt lat="43.80305" lon="2.14967">
        <ele>197.69</ele>
        <time>2026-02-22T10:47:05Z</time>
      </trkpt>
      <trkpt lat="43.80315" lon="2.14978">
        <ele>196.73</ele>
        <time>2026-02-22T10:47:16Z</time>
      </trkpt>
      <trkpt lat="43.80324" lon="2.14989">
        <ele>197.69</ele>
        <time>2026-02-22T10:47:26Z</time>
      </trkpt>
      <trkpt lat="43.80334" lon="2.14998">
        <ele>197.69</ele>
        <time>2026-02-22T10:47:36Z</time>
      </trkpt>
      <trkpt lat="43.80341" lon="2.15008">
        <ele>196.73</ele>
        <time>2026-02-22T10:47:46Z</time>
      </trkpt>
      <trkpt lat="43.8035" lon="2.15016">
        <ele>196.25</ele>
        <time>2026-02-22T10:47:56Z</time>
      </trkpt>
      <trkpt lat="43.80361" lon="2.15026">
        <ele>197.69</ele>
        <time>2026-02-22T10:48:06Z</time>
      </trkpt>
      <trkpt lat="43.8037" lon="2.15038">
        <ele>199.61</ele>
        <time>2026-02-22T10:48:17Z</time>
      </trkpt>
      <trkpt lat="43.804" lon="2.15047">
        <ele>197.69</ele>
        <time>2026-02-22T10:48:47Z</time>
      </trkpt>
      <trkpt lat="43.80421" lon="2.1503">
        <ele>196.25</ele>
        <time>2026-02-22T10:49:06Z</time>
      </trkpt>
      <trkpt lat="43.80436" lon="2.15023">
        <ele>196.73</ele>
        <time>2026-02-22T10:49:20Z</time>
      </trkpt>
      <trkpt lat="43.80454" lon="2.1502">
        <ele>199.61</ele>
        <time>2026-02-22T10:50:11Z</time>
      </trkpt>
      <trkpt lat="43.80462" lon="2.15031">
        <ele>198.17</ele>
        <time>2026-02-22T10:50:21Z</time>
      </trkpt>
      <trkpt lat="43.80469" lon="2.15024">
        <ele>200.57</ele>
        <time>2026-02-22T10:52:37Z</time>
      </trkpt>
      <trkpt lat="43.80478" lon="2.15024">
        <ele>197.69</ele>
        <time>2026-02-22T10:53:24Z</time>
      </trkpt>
      <trkpt lat="43.80485" lon="2.1501">
        <ele>198.17</ele>
        <time>2026-02-22T10:53:34Z</time>
      </trkpt>
      <trkpt lat="43.80487" lon="2.14994">
        <ele>198.17</ele>
        <time>2026-02-22T10:53:52Z</time>
      </trkpt>
      <trkpt lat="43.80485" lon="2.14978">
        <ele>198.17</ele>
        <time>2026-02-22T10:54:30Z</time>
      </trkpt>
      <trkpt lat="43.80478" lon="2.14964">
        <ele>198.17</ele>
        <time>2026-02-22T10:54:39Z</time>
      </trkpt>
      <trkpt lat="43.80479" lon="2.1495">
        <ele>197.69</ele>
        <time>2026-02-22T10:54:49Z</time>
      </trkpt>
      <trkpt lat="43.80475" lon="2.14932">
        <ele>195.28</ele>
        <time>2026-02-22T10:55:04Z</time>
      </trkpt>
      <trkpt lat="43.80472" lon="2.1491">
        <ele>193.84</ele>
        <time>2026-02-22T10:55:20Z</time>
      </trkpt>
      <trkpt lat="43.80481" lon="2.14938">
        <ele>205.38</ele>
        <time>2026-02-22T11:39:20Z</time>
      </trkpt>
      <trkpt lat="43.80478" lon="2.14952">
        <ele>204.42</ele>
        <time>2026-02-22T11:39:42Z</time>
      </trkpt>
      <trkpt lat="43.80472" lon="2.14965">
        <ele>214.03</ele>
        <time>2026-02-22T11:39:53Z</time>
      </trkpt>
      <trkpt lat="43.80474" lon="2.14981">
        <ele>217.4</ele>
        <time>2026-02-22T11:40:02Z</time>
      </trkpt>
      <trkpt lat="43.80475" lon="2.14998">
        <ele>214.51</ele>
        <time>2026-02-22T11:40:11Z</time>
      </trkpt>
      <trkpt lat="43.80472" lon="2.1501">
        <ele>211.15</ele>
        <time>2026-02-22T11:40:24Z</time>
      </trkpt>
      <trkpt lat="43.80467" lon="2.15024">
        <ele>208.26</ele>
        <time>2026-02-22T11:40:36Z</time>
      </trkpt>
      <trkpt lat="43.80464" lon="2.15038">
        <ele>205.86</ele>
        <time>2026-02-22T11:46:38Z</time>
      </trkpt>
      <trkpt lat="43.80454" lon="2.15043">
        <ele>204.42</ele>
        <time>2026-02-22T11:46:50Z</time>
      </trkpt>
      <trkpt lat="43.80442" lon="2.15043">
        <ele>200.57</ele>
        <time>2026-02-22T11:47:02Z</time>
      </trkpt>
      <trkpt lat="43.8043" lon="2.15039">
        <ele>198.65</ele>
        <time>2026-02-22T11:47:12Z</time>
      </trkpt>
      <trkpt lat="43.80417" lon="2.15034">
        <ele>197.69</ele>
        <time>2026-02-22T11:47:35Z</time>
      </trkpt>
      <trkpt lat="43.80406" lon="2.15041">
        <ele>191.92</ele>
        <time>2026-02-22T11:47:46Z</time>
      </trkpt>
      <trkpt lat="43.80386" lon="2.15038">
        <ele>186.15</ele>
        <time>2026-02-22T11:48:03Z</time>
      </trkpt>
      <trkpt lat="43.80371" lon="2.15031">
        <ele>180.38</ele>
        <time>2026-02-22T11:48:20Z</time>
      </trkpt>
      <trkpt lat="43.8036" lon="2.15022">
        <ele>190</ele>
        <time>2026-02-22T11:48:45Z</time>
      </trkpt>
      <trkpt lat="43.80349" lon="2.15017">
        <ele>192.4</ele>
        <time>2026-02-22T11:48:54Z</time>
      </trkpt>
      <trkpt lat="43.80343" lon="2.15028">
        <ele>195.28</ele>
        <time>2026-02-22T11:49:03Z</time>
      </trkpt>
      <trkpt lat="43.8034" lon="2.15043">
        <ele>195.77</ele>
        <time>2026-02-22T11:49:12Z</time>
      </trkpt>
      <trkpt lat="43.80336" lon="2.15058">
        <ele>198.65</ele>
        <time>2026-02-22T11:49:21Z</time>
      </trkpt>
      <trkpt lat="43.80329" lon="2.15071">
        <ele>201.53</ele>
        <time>2026-02-22T11:49:31Z</time>
      </trkpt>
      <trkpt lat="43.80324" lon="2.15083">
        <ele>203.94</ele>
        <time>2026-02-22T11:49:41Z</time>
      </trkpt>
      <trkpt lat="43.80317" lon="2.15096">
        <ele>206.34</ele>
        <time>2026-02-22T11:49:51Z</time>
      </trkpt>
      <trkpt lat="43.8031" lon="2.1511">
        <ele>206.82</ele>
        <time>2026-02-22T11:50:04Z</time>
      </trkpt>
      <trkpt lat="43.80301" lon="2.15125">
        <ele>203.94</ele>
        <time>2026-02-22T11:50:15Z</time>
      </trkpt>
      <trkpt lat="43.80293" lon="2.15136">
        <ele>202.49</ele>
        <time>2026-02-22T11:50:27Z</time>
      </trkpt>
      <trkpt lat="43.80285" lon="2.15145">
        <ele>202.01</ele>
        <time>2026-02-22T11:50:36Z</time>
      </trkpt>
      <trkpt lat="43.80276" lon="2.15155">
        <ele>202.49</ele>
        <time>2026-02-22T11:50:45Z</time>
      </trkpt>
      <trkpt lat="43.80266" lon="2.15164">
        <ele>202.98</ele>
        <time>2026-02-22T11:50:54Z</time>
      </trkpt>
      <trkpt lat="43.80257" lon="2.15172">
        <ele>203.46</ele>
        <time>2026-02-22T11:51:05Z</time>
      </trkpt>
      <trkpt lat="43.80247" lon="2.15168">
        <ele>202.98</ele>
        <time>2026-02-22T11:51:18Z</time>
      </trkpt>
      <trkpt lat="43.80233" lon="2.15155">
        <ele>203.94</ele>
        <time>2026-02-22T11:51:35Z</time>
      </trkpt>
      <trkpt lat="43.80217" lon="2.15138">
        <ele>205.38</ele>
        <time>2026-02-22T11:51:53Z</time>
      </trkpt>
      <trkpt lat="43.80207" lon="2.15127">
        <ele>204.9</ele>
        <time>2026-02-22T11:52:04Z</time>
      </trkpt>
      <trkpt lat="43.80192" lon="2.15111">
        <ele>205.86</ele>
        <time>2026-02-22T11:52:19Z</time>
      </trkpt>
      <trkpt lat="43.80182" lon="2.15099">
        <ele>205.38</ele>
        <time>2026-02-22T11:52:30Z</time>
      </trkpt>
      <trkpt lat="43.8017" lon="2.15087">
        <ele>204.42</ele>
        <time>2026-02-22T11:52:42Z</time>
      </trkpt>
      <trkpt lat="43.8015" lon="2.15067">
        <ele>203.94</ele>
        <time>2026-02-22T11:53:04Z</time>
      </trkpt>
      <trkpt lat="43.80119" lon="2.1503">
        <ele>207.78</ele>
        <time>2026-02-22T11:53:40Z</time>
      </trkpt>
      <trkpt lat="43.80092" lon="2.15003">
        <ele>206.34</ele>
        <time>2026-02-22T11:54:07Z</time>
      </trkpt>
      <trkpt lat="43.80079" lon="2.14988">
        <ele>205.38</ele>
        <time>2026-02-22T11:54:21Z</time>
      </trkpt>
      <trkpt lat="43.8007" lon="2.14975">
        <ele>204.9</ele>
        <time>2026-02-22T11:54:32Z</time>
      </trkpt>
      <trkpt lat="43.80056" lon="2.14957">
        <ele>205.86</ele>
        <time>2026-02-22T11:54:47Z</time>
      </trkpt>
      <trkpt lat="43.8005" lon="2.14947">
        <ele>206.34</ele>
        <time>2026-02-22T11:54:57Z</time>
      </trkpt>
      <trkpt lat="43.80038" lon="2.14933">
        <ele>206.34</ele>
        <time>2026-02-22T11:55:10Z</time>
      </trkpt>
      <trkpt lat="43.80027" lon="2.14921">
        <ele>206.34</ele>
        <time>2026-02-22T11:55:22Z</time>
      </trkpt>
      <trkpt lat="43.80015" lon="2.14906">
        <ele>205.86</ele>
        <time>2026-02-22T11:55:36Z</time>
      </trkpt>
      <trkpt lat="43.80005" lon="2.1489">
        <ele>204.9</ele>
        <time>2026-02-22T11:55:49Z</time>
      </trkpt>
      <trkpt lat="43.79996" lon="2.1488">
        <ele>205.86</ele>
        <time>2026-02-22T11:56:00Z</time>
      </trkpt>
      <trkpt lat="43.79987" lon="2.14867">
        <ele>206.34</ele>
        <time>2026-02-22T11:56:12Z</time>
      </trkpt>
      <trkpt lat="43.79977" lon="2.14854">
        <ele>205.86</ele>
        <time>2026-02-22T11:56:24Z</time>
      </trkpt>
      <trkpt lat="43.79965" lon="2.14839">
        <ele>203.94</ele>
        <time>2026-02-22T11:56:37Z</time>
      </trkpt>
      <trkpt lat="43.79958" lon="2.14826">
        <ele>203.46</ele>
        <time>2026-02-22T11:56:46Z</time>
      </trkpt>
      <trkpt lat="43.79948" lon="2.14812">
        <ele>204.42</ele>
        <time>2026-02-22T11:56:58Z</time>
      </trkpt>
      <trkpt lat="43.79939" lon="2.14797">
        <ele>203.94</ele>
        <time>2026-02-22T11:57:09Z</time>
      </trkpt>
      <trkpt lat="43.79929" lon="2.14782">
        <ele>203.46</ele>
        <time>2026-02-22T11:57:19Z</time>
      </trkpt>
      <trkpt lat="43.79921" lon="2.14771">
        <ele>203.46</ele>
        <time>2026-02-22T11:57:29Z</time>
      </trkpt>
      <trkpt lat="43.79912" lon="2.14756">
        <ele>203.46</ele>
        <time>2026-02-22T11:57:40Z</time>
      </trkpt>
      <trkpt lat="43.79903" lon="2.14741">
        <ele>203.94</ele>
        <time>2026-02-22T11:57:51Z</time>
      </trkpt>
      <trkpt lat="43.79893" lon="2.14727">
        <ele>204.42</ele>
        <time>2026-02-22T11:58:02Z</time>
      </trkpt>
      <trkpt lat="43.79886" lon="2.14715">
        <ele>205.38</ele>
        <time>2026-02-22T11:58:12Z</time>
      </trkpt>
      <trkpt lat="43.79879" lon="2.14704">
        <ele>205.38</ele>
        <time>2026-02-22T11:58:22Z</time>
      </trkpt>
      <trkpt lat="43.79871" lon="2.1469">
        <ele>206.34</ele>
        <time>2026-02-22T11:58:33Z</time>
      </trkpt>
      <trkpt lat="43.79865" lon="2.14676">
        <ele>205.86</ele>
        <time>2026-02-22T11:58:44Z</time>
      </trkpt>
      <trkpt lat="43.79856" lon="2.14663">
        <ele>206.34</ele>
        <time>2026-02-22T11:58:54Z</time>
      </trkpt>
      <trkpt lat="43.79848" lon="2.14648">
        <ele>205.38</ele>
        <time>2026-02-22T11:59:05Z</time>
      </trkpt>
      <trkpt lat="43.7984" lon="2.14637">
        <ele>204.42</ele>
        <time>2026-02-22T11:59:15Z</time>
      </trkpt>
      <trkpt lat="43.79832" lon="2.14624">
        <ele>202.98</ele>
        <time>2026-02-22T11:59:25Z</time>
      </trkpt>
      <trkpt lat="43.79823" lon="2.14612">
        <ele>202.01</ele>
        <time>2026-02-22T11:59:37Z</time>
      </trkpt>
      <trkpt lat="43.79814" lon="2.14597">
        <ele>202.98</ele>
        <time>2026-02-22T11:59:48Z</time>
      </trkpt>
      <trkpt lat="43.79805" lon="2.14582">
        <ele>202.98</ele>
        <time>2026-02-22T12:00:00Z</time>
      </trkpt>
      <trkpt lat="43.79797" lon="2.1457">
        <ele>201.53</ele>
        <time>2026-02-22T12:00:11Z</time>
      </trkpt>
      <trkpt lat="43.79789" lon="2.14559">
        <ele>201.53</ele>
        <time>2026-02-22T12:00:21Z</time>
      </trkpt>
      <trkpt lat="43.79782" lon="2.14547">
        <ele>200.09</ele>
        <time>2026-02-22T12:00:31Z</time>
      </trkpt>
      <trkpt lat="43.79774" lon="2.14534">
        <ele>200.57</ele>
        <time>2026-02-22T12:00:42Z</time>
      </trkpt>
      <trkpt lat="43.79763" lon="2.14516">
        <ele>201.05</ele>
        <time>2026-02-22T12:00:54Z</time>
      </trkpt>
      <trkpt lat="43.79753" lon="2.14499">
        <ele>199.61</ele>
        <time>2026-02-22T12:01:07Z</time>
      </trkpt>
      <trkpt lat="43.79746" lon="2.14485">
        <ele>201.05</ele>
        <time>2026-02-22T12:01:17Z</time>
      </trkpt>
      <trkpt lat="43.79735" lon="2.14468">
        <ele>201.53</ele>
        <time>2026-02-22T12:01:32Z</time>
      </trkpt>
      <trkpt lat="43.79728" lon="2.14457">
        <ele>201.53</ele>
        <time>2026-02-22T12:01:41Z</time>
      </trkpt>
      <trkpt lat="43.79721" lon="2.14444">
        <ele>202.49</ele>
        <time>2026-02-22T12:01:50Z</time>
      </trkpt>
      <trkpt lat="43.79713" lon="2.1443">
        <ele>204.42</ele>
        <time>2026-02-22T12:02:01Z</time>
      </trkpt>
      <trkpt lat="43.79705" lon="2.14418">
        <ele>205.38</ele>
        <time>2026-02-22T12:02:13Z</time>
      </trkpt>
      <trkpt lat="43.79693" lon="2.144">
        <ele>206.34</ele>
        <time>2026-02-22T12:02:28Z</time>
      </trkpt>
      <trkpt lat="43.79685" lon="2.14388">
        <ele>205.86</ele>
        <time>2026-02-22T12:02:40Z</time>
      </trkpt>
      <trkpt lat="43.7967" lon="2.14362">
        <ele>204.42</ele>
        <time>2026-02-22T12:03:00Z</time>
      </trkpt>
      <trkpt lat="43.7965" lon="2.14332">
        <ele>203.46</ele>
        <time>2026-02-22T12:03:24Z</time>
      </trkpt>
      <trkpt lat="43.79639" lon="2.14318">
        <ele>203.94</ele>
        <time>2026-02-22T12:03:38Z</time>
      </trkpt>
      <trkpt lat="43.7963" lon="2.14305">
        <ele>203.94</ele>
        <time>2026-02-22T12:03:50Z</time>
      </trkpt>
      <trkpt lat="43.7962" lon="2.1429">
        <ele>202.49</ele>
        <time>2026-02-22T12:04:04Z</time>
      </trkpt>
      <trkpt lat="43.79604" lon="2.1427">
        <ele>202.98</ele>
        <time>2026-02-22T12:04:22Z</time>
      </trkpt>
      <trkpt lat="43.79586" lon="2.14248">
        <ele>205.86</ele>
        <time>2026-02-22T12:04:41Z</time>
      </trkpt>
      <trkpt lat="43.79567" lon="2.14224">
        <ele>204.42</ele>
        <time>2026-02-22T12:04:57Z</time>
      </trkpt>
      <trkpt lat="43.79554" lon="2.1421">
        <ele>202.98</ele>
        <time>2026-02-22T12:05:13Z</time>
      </trkpt>
      <trkpt lat="43.79531" lon="2.14182">
        <ele>202.98</ele>
        <time>2026-02-22T12:05:38Z</time>
      </trkpt>
      <trkpt lat="43.79511" lon="2.14162">
        <ele>202.49</ele>
        <time>2026-02-22T12:05:58Z</time>
      </trkpt>
      <trkpt lat="43.79488" lon="2.14137">
        <ele>203.94</ele>
        <time>2026-02-22T12:06:24Z</time>
      </trkpt>
      <trkpt lat="43.7947" lon="2.14121">
        <ele>202.98</ele>
        <time>2026-02-22T12:06:41Z</time>
      </trkpt>
      <trkpt lat="43.79459" lon="2.14108">
        <ele>203.94</ele>
        <time>2026-02-22T12:06:55Z</time>
      </trkpt>
      <trkpt lat="43.79448" lon="2.14096">
        <ele>204.9</ele>
        <time>2026-02-22T12:07:06Z</time>
      </trkpt>
      <trkpt lat="43.79438" lon="2.14084">
        <ele>205.38</ele>
        <time>2026-02-22T12:07:17Z</time>
      </trkpt>
      <trkpt lat="43.79429" lon="2.14076">
        <ele>205.38</ele>
        <time>2026-02-22T12:07:27Z</time>
      </trkpt>
      <trkpt lat="43.7942" lon="2.14069">
        <ele>205.86</ele>
        <time>2026-02-22T12:07:38Z</time>
      </trkpt>
      <trkpt lat="43.79409" lon="2.14061">
        <ele>207.78</ele>
        <time>2026-02-22T12:07:50Z</time>
      </trkpt>
      <trkpt lat="43.79401" lon="2.14074">
        <ele>208.26</ele>
        <time>2026-02-22T12:08:02Z</time>
      </trkpt>
      <trkpt lat="43.79394" lon="2.14088">
        <ele>206.82</ele>
        <time>2026-02-22T12:08:12Z</time>
      </trkpt>
      <trkpt lat="43.79389" lon="2.14099">
        <ele>205.86</ele>
        <time>2026-02-22T12:08:22Z</time>
      </trkpt>
      <trkpt lat="43.79385" lon="2.14112">
        <ele>204.42</ele>
        <time>2026-02-22T12:08:33Z</time>
      </trkpt>
      <trkpt lat="43.79378" lon="2.14123">
        <ele>204.42</ele>
        <time>2026-02-22T12:08:42Z</time>
      </trkpt>
      <trkpt lat="43.79373" lon="2.14136">
        <ele>205.38</ele>
        <time>2026-02-22T12:08:53Z</time>
      </trkpt>
      <trkpt lat="43.79367" lon="2.14148">
        <ele>205.86</ele>
        <time>2026-02-22T12:09:02Z</time>
      </trkpt>
      <trkpt lat="43.79362" lon="2.14159">
        <ele>206.82</ele>
        <time>2026-02-22T12:09:11Z</time>
      </trkpt>
      <trkpt lat="43.79357" lon="2.14172">
        <ele>207.3</ele>
        <time>2026-02-22T12:09:20Z</time>
      </trkpt>
      <trkpt lat="43.79351" lon="2.14184">
        <ele>207.3</ele>
        <time>2026-02-22T12:09:29Z</time>
      </trkpt>
      <trkpt lat="43.79347" lon="2.14194">
        <ele>207.78</ele>
        <time>2026-02-22T12:09:37Z</time>
      </trkpt>
      <trkpt lat="43.79342" lon="2.14207">
        <ele>208.26</ele>
        <time>2026-02-22T12:09:46Z</time>
      </trkpt>
      <trkpt lat="43.79337" lon="2.14219">
        <ele>211.15</ele>
        <time>2026-02-22T12:09:55Z</time>
      </trkpt>
      <trkpt lat="43.79332" lon="2.1423">
        <ele>211.63</ele>
        <time>2026-02-22T12:10:04Z</time>
      </trkpt>
      <trkpt lat="43.79335" lon="2.14243">
        <ele>211.63</ele>
        <time>2026-02-22T12:10:14Z</time>
      </trkpt>
      <trkpt lat="43.79339" lon="2.14255">
        <ele>210.67</ele>
        <time>2026-02-22T12:10:26Z</time>
      </trkpt>
      <trkpt lat="43.79342" lon="2.14275">
        <ele>212.11</ele>
        <time>2026-02-22T12:10:56Z</time>
      </trkpt>
      <trkpt lat="43.79337" lon="2.14292">
        <ele>212.59</ele>
        <time>2026-02-22T12:11:10Z</time>
      </trkpt>
      <trkpt lat="43.79331" lon="2.14309">
        <ele>212.59</ele>
        <time>2026-02-22T12:11:25Z</time>
      </trkpt>
      <trkpt lat="43.79324" lon="2.14322">
        <ele>211.63</ele>
        <time>2026-02-22T12:11:38Z</time>
      </trkpt>
      <trkpt lat="43.79316" lon="2.14337">
        <ele>212.59</ele>
        <time>2026-02-22T12:11:50Z</time>
      </trkpt>
      <trkpt lat="43.79307" lon="2.14356">
        <ele>214.03</ele>
        <time>2026-02-22T12:12:07Z</time>
      </trkpt>
      <trkpt lat="43.79301" lon="2.14371">
        <ele>215.95</ele>
        <time>2026-02-22T12:12:20Z</time>
      </trkpt>
      <trkpt lat="43.79296" lon="2.14387">
        <ele>216.91</ele>
        <time>2026-02-22T12:12:33Z</time>
      </trkpt>
      <trkpt lat="43.79287" lon="2.14404">
        <ele>220.28</ele>
        <time>2026-02-22T12:12:51Z</time>
      </trkpt>
      <trkpt lat="43.79281" lon="2.14418">
        <ele>221.72</ele>
        <time>2026-02-22T12:13:04Z</time>
      </trkpt>
      <trkpt lat="43.79274" lon="2.14431">
        <ele>224.12</ele>
        <time>2026-02-22T12:13:17Z</time>
      </trkpt>
      <trkpt lat="43.79268" lon="2.14441">
        <ele>225.57</ele>
        <time>2026-02-22T12:13:29Z</time>
      </trkpt>
      <trkpt lat="43.79262" lon="2.14454">
        <ele>228.45</ele>
        <time>2026-02-22T12:13:40Z</time>
      </trkpt>
      <trkpt lat="43.79255" lon="2.14464">
        <ele>229.89</ele>
        <time>2026-02-22T12:13:51Z</time>
      </trkpt>
      <trkpt lat="43.79248" lon="2.14473">
        <ele>231.33</ele>
        <time>2026-02-22T12:14:01Z</time>
      </trkpt>
      <trkpt lat="43.79242" lon="2.14485">
        <ele>233.74</ele>
        <time>2026-02-22T12:14:12Z</time>
      </trkpt>
      <trkpt lat="43.79236" lon="2.14499">
        <ele>233.26</ele>
        <time>2026-02-22T12:14:22Z</time>
      </trkpt>
      <trkpt lat="43.79234" lon="2.14513">
        <ele>233.26</ele>
        <time>2026-02-22T12:14:33Z</time>
      </trkpt>
      <trkpt lat="43.79231" lon="2.14532">
        <ele>231.33</ele>
        <time>2026-02-22T12:14:48Z</time>
      </trkpt>
      <trkpt lat="43.79231" lon="2.14548">
        <ele>230.37</ele>
        <time>2026-02-22T12:15:01Z</time>
      </trkpt>
      <trkpt lat="43.79224" lon="2.14566">
        <ele>230.37</ele>
        <time>2026-02-22T12:15:15Z</time>
      </trkpt>
      <trkpt lat="43.79218" lon="2.14578">
        <ele>232.78</ele>
        <time>2026-02-22T12:15:26Z</time>
      </trkpt>
      <trkpt lat="43.79215" lon="2.14593">
        <ele>233.74</ele>
        <time>2026-02-22T12:15:36Z</time>
      </trkpt>
      <trkpt lat="43.79215" lon="2.14608">
        <ele>236.62</ele>
        <time>2026-02-22T12:15:46Z</time>
      </trkpt>
      <trkpt lat="43.79214" lon="2.14621">
        <ele>239.99</ele>
        <time>2026-02-22T12:15:56Z</time>
      </trkpt>
      <trkpt lat="43.79213" lon="2.14634">
        <ele>242.39</ele>
        <time>2026-02-22T12:16:06Z</time>
      </trkpt>
      <trkpt lat="43.79212" lon="2.14648">
        <ele>244.31</ele>
        <time>2026-02-22T12:16:17Z</time>
      </trkpt>
      <trkpt lat="43.79211" lon="2.14662">
        <ele>245.75</ele>
        <time>2026-02-22T12:16:27Z</time>
      </trkpt>
      <trkpt lat="43.79209" lon="2.14676">
        <ele>247.2</ele>
        <time>2026-02-22T12:16:38Z</time>
      </trkpt>
      <trkpt lat="43.79206" lon="2.14689">
        <ele>248.16</ele>
        <time>2026-02-22T12:16:48Z</time>
      </trkpt>
      <trkpt lat="43.79204" lon="2.14702">
        <ele>248.64</ele>
        <time>2026-02-22T12:17:01Z</time>
      </trkpt>
      <trkpt lat="43.792" lon="2.14716">
        <ele>250.08</ele>
        <time>2026-02-22T12:17:19Z</time>
      </trkpt>
      <trkpt lat="43.79196" lon="2.14729">
        <ele>251.52</ele>
        <time>2026-02-22T12:17:29Z</time>
      </trkpt>
      <trkpt lat="43.79192" lon="2.14742">
        <ele>251.52</ele>
        <time>2026-02-22T12:17:40Z</time>
      </trkpt>
      <trkpt lat="43.79187" lon="2.14756">
        <ele>252</ele>
        <time>2026-02-22T12:17:52Z</time>
      </trkpt>
      <trkpt lat="43.79183" lon="2.1477">
        <ele>252.48</ele>
        <time>2026-02-22T12:18:02Z</time>
      </trkpt>
      <trkpt lat="43.79179" lon="2.14783">
        <ele>252.96</ele>
        <time>2026-02-22T12:18:12Z</time>
      </trkpt>
      <trkpt lat="43.79176" lon="2.14796">
        <ele>252.96</ele>
        <time>2026-02-22T12:18:21Z</time>
      </trkpt>
      <trkpt lat="43.79171" lon="2.14809">
        <ele>253.44</ele>
        <time>2026-02-22T12:18:31Z</time>
      </trkpt>
      <trkpt lat="43.79164" lon="2.14821">
        <ele>252.96</ele>
        <time>2026-02-22T12:18:42Z</time>
      </trkpt>
      <trkpt lat="43.79154" lon="2.1483">
        <ele>251.52</ele>
        <time>2026-02-22T12:18:55Z</time>
      </trkpt>
      <trkpt lat="43.79143" lon="2.14851">
        <ele>264.02</ele>
        <time>2026-02-22T12:22:34Z</time>
      </trkpt>
      <trkpt lat="43.7913" lon="2.14856">
        <ele>261.14</ele>
        <time>2026-02-22T12:22:46Z</time>
      </trkpt>
      <trkpt lat="43.79121" lon="2.14867">
        <ele>260.17</ele>
        <time>2026-02-22T12:22:57Z</time>
      </trkpt>
      <trkpt lat="43.79113" lon="2.14878">
        <ele>259.69</ele>
        <time>2026-02-22T12:23:06Z</time>
      </trkpt>
      <trkpt lat="43.79105" lon="2.14889">
        <ele>260.17</ele>
        <time>2026-02-22T12:23:16Z</time>
      </trkpt>
      <trkpt lat="43.79097" lon="2.149">
        <ele>259.21</ele>
        <time>2026-02-22T12:23:26Z</time>
      </trkpt>
      <trkpt lat="43.79089" lon="2.14911">
        <ele>259.21</ele>
        <time>2026-02-22T12:23:36Z</time>
      </trkpt>
      <trkpt lat="43.79081" lon="2.14921">
        <ele>259.69</ele>
        <time>2026-02-22T12:23:46Z</time>
      </trkpt>
      <trkpt lat="43.79072" lon="2.14932">
        <ele>260.65</ele>
        <time>2026-02-22T12:23:56Z</time>
      </trkpt>
      <trkpt lat="43.79062" lon="2.1494">
        <ele>261.14</ele>
        <time>2026-02-22T12:24:05Z</time>
      </trkpt>
      <trkpt lat="43.79054" lon="2.14947">
        <ele>261.14</ele>
        <time>2026-02-22T12:24:14Z</time>
      </trkpt>
      <trkpt lat="43.79045" lon="2.14957">
        <ele>260.17</ele>
        <time>2026-02-22T12:24:24Z</time>
      </trkpt>
      <trkpt lat="43.79035" lon="2.14967">
        <ele>258.73</ele>
        <time>2026-02-22T12:24:35Z</time>
      </trkpt>
      <trkpt lat="43.79028" lon="2.14979">
        <ele>258.25</ele>
        <time>2026-02-22T12:24:44Z</time>
      </trkpt>
      <trkpt lat="43.79028" lon="2.14995">
        <ele>258.73</ele>
        <time>2026-02-22T12:24:53Z</time>
      </trkpt>
      <trkpt lat="43.79027" lon="2.15012">
        <ele>259.69</ele>
        <time>2026-02-22T12:25:03Z</time>
      </trkpt>
      <trkpt lat="43.79022" lon="2.15025">
        <ele>260.17</ele>
        <time>2026-02-22T12:25:13Z</time>
      </trkpt>
      <trkpt lat="43.79015" lon="2.15037">
        <ele>260.17</ele>
        <time>2026-02-22T12:25:23Z</time>
      </trkpt>
      <trkpt lat="43.79008" lon="2.15049">
        <ele>260.17</ele>
        <time>2026-02-22T12:25:33Z</time>
      </trkpt>
      <trkpt lat="43.79001" lon="2.15061">
        <ele>259.69</ele>
        <time>2026-02-22T12:25:43Z</time>
      </trkpt>
      <trkpt lat="43.78995" lon="2.15074">
        <ele>260.17</ele>
        <time>2026-02-22T12:25:53Z</time>
      </trkpt>
      <trkpt lat="43.78987" lon="2.15086">
        <ele>259.21</ele>
        <time>2026-02-22T12:26:05Z</time>
      </trkpt>
      <trkpt lat="43.78982" lon="2.151">
        <ele>258.73</ele>
        <time>2026-02-22T12:26:14Z</time>
      </trkpt>
      <trkpt lat="43.78985" lon="2.15115">
        <ele>258.25</ele>
        <time>2026-02-22T12:26:23Z</time>
      </trkpt>
      <trkpt lat="43.78992" lon="2.15127">
        <ele>257.77</ele>
        <time>2026-02-22T12:26:33Z</time>
      </trkpt>
      <trkpt lat="43.79" lon="2.15138">
        <ele>258.25</ele>
        <time>2026-02-22T12:26:43Z</time>
      </trkpt>
      <trkpt lat="43.79002" lon="2.15155">
        <ele>261.62</ele>
        <time>2026-02-22T12:26:56Z</time>
      </trkpt>
      <trkpt lat="43.79" lon="2.15168">
        <ele>262.1</ele>
        <time>2026-02-22T12:27:06Z</time>
      </trkpt>
      <trkpt lat="43.78997" lon="2.15182">
        <ele>262.58</ele>
        <time>2026-02-22T12:27:15Z</time>
      </trkpt>
      <trkpt lat="43.78994" lon="2.15195">
        <ele>264.02</ele>
        <time>2026-02-22T12:27:24Z</time>
      </trkpt>
      <trkpt lat="43.7899" lon="2.15208">
        <ele>264.02</ele>
        <time>2026-02-22T12:27:32Z</time>
      </trkpt>
      <trkpt lat="43.78986" lon="2.1522">
        <ele>264.02</ele>
        <time>2026-02-22T12:27:40Z</time>
      </trkpt>
      <trkpt lat="43.78981" lon="2.15232">
        <ele>264.02</ele>
        <time>2026-02-22T12:27:49Z</time>
      </trkpt>
      <trkpt lat="43.78975" lon="2.15243">
        <ele>266.42</ele>
        <time>2026-02-22T12:27:58Z</time>
      </trkpt>
      <trkpt lat="43.78969" lon="2.15253">
        <ele>267.86</ele>
        <time>2026-02-22T12:28:07Z</time>
      </trkpt>
      <trkpt lat="43.78964" lon="2.15264">
        <ele>268.83</ele>
        <time>2026-02-22T12:28:16Z</time>
      </trkpt>
      <trkpt lat="43.78958" lon="2.15274">
        <ele>269.31</ele>
        <time>2026-02-22T12:28:25Z</time>
      </trkpt>
      <trkpt lat="43.78952" lon="2.15286">
        <ele>271.23</ele>
        <time>2026-02-22T12:28:35Z</time>
      </trkpt>
      <trkpt lat="43.78947" lon="2.15298">
        <ele>272.67</ele>
        <time>2026-02-22T12:28:44Z</time>
      </trkpt>
      <trkpt lat="43.78943" lon="2.15309">
        <ele>274.11</ele>
        <time>2026-02-22T12:28:53Z</time>
      </trkpt>
      <trkpt lat="43.78939" lon="2.15322">
        <ele>274.59</ele>
        <time>2026-02-22T12:29:03Z</time>
      </trkpt>
      <trkpt lat="43.78936" lon="2.15336">
        <ele>275.07</ele>
        <time>2026-02-22T12:29:14Z</time>
      </trkpt>
      <trkpt lat="43.78933" lon="2.15352">
        <ele>275.56</ele>
        <time>2026-02-22T12:29:24Z</time>
      </trkpt>
      <trkpt lat="43.7893" lon="2.15367">
        <ele>275.56</ele>
        <time>2026-02-22T12:29:34Z</time>
      </trkpt>
      <trkpt lat="43.78927" lon="2.15381">
        <ele>277</ele>
        <time>2026-02-22T12:29:43Z</time>
      </trkpt>
      <trkpt lat="43.78924" lon="2.15393">
        <ele>277.96</ele>
        <time>2026-02-22T12:29:52Z</time>
      </trkpt>
      <trkpt lat="43.78921" lon="2.15406">
        <ele>278.92</ele>
        <time>2026-02-22T12:30:01Z</time>
      </trkpt>
      <trkpt lat="43.78917" lon="2.15418">
        <ele>279.4</ele>
        <time>2026-02-22T12:30:10Z</time>
      </trkpt>
      <trkpt lat="43.78914" lon="2.1543">
        <ele>281.32</ele>
        <time>2026-02-22T12:30:19Z</time>
      </trkpt>
      <trkpt lat="43.7891" lon="2.15443">
        <ele>282.28</ele>
        <time>2026-02-22T12:30:28Z</time>
      </trkpt>
      <trkpt lat="43.78907" lon="2.15457">
        <ele>284.21</ele>
        <time>2026-02-22T12:30:38Z</time>
      </trkpt>
      <trkpt lat="43.78903" lon="2.15469">
        <ele>285.17</ele>
        <time>2026-02-22T12:30:50Z</time>
      </trkpt>
      <trkpt lat="43.78899" lon="2.15483">
        <ele>285.17</ele>
        <time>2026-02-22T12:30:59Z</time>
      </trkpt>
      <trkpt lat="43.78891" lon="2.15491">
        <ele>288.05</ele>
        <time>2026-02-22T12:31:23Z</time>
      </trkpt>
      <trkpt lat="43.78887" lon="2.15506">
        <ele>288.05</ele>
        <time>2026-02-22T12:31:33Z</time>
      </trkpt>
      <trkpt lat="43.78886" lon="2.15525">
        <ele>287.57</ele>
        <time>2026-02-22T12:31:52Z</time>
      </trkpt>
      <trkpt lat="43.78881" lon="2.15539">
        <ele>286.13</ele>
        <time>2026-02-22T12:32:00Z</time>
      </trkpt>
      <trkpt lat="43.78876" lon="2.15554">
        <ele>284.21</ele>
        <time>2026-02-22T12:32:09Z</time>
      </trkpt>
      <trkpt lat="43.78873" lon="2.15568">
        <ele>282.77</ele>
        <time>2026-02-22T12:32:18Z</time>
      </trkpt>
      <trkpt lat="43.78869" lon="2.15581">
        <ele>281.32</ele>
        <time>2026-02-22T12:32:27Z</time>
      </trkpt>
      <trkpt lat="43.78864" lon="2.15594">
        <ele>279.88</ele>
        <time>2026-02-22T12:32:35Z</time>
      </trkpt>
      <trkpt lat="43.7886" lon="2.15607">
        <ele>280.84</ele>
        <time>2026-02-22T12:32:43Z</time>
      </trkpt>
      <trkpt lat="43.78856" lon="2.15619">
        <ele>280.84</ele>
        <time>2026-02-22T12:32:51Z</time>
      </trkpt>
      <trkpt lat="43.78851" lon="2.15631">
        <ele>280.36</ele>
        <time>2026-02-22T12:32:59Z</time>
      </trkpt>
      <trkpt lat="43.78846" lon="2.15642">
        <ele>280.36</ele>
        <time>2026-02-22T12:33:07Z</time>
      </trkpt>
      <trkpt lat="43.78841" lon="2.15654">
        <ele>279.4</ele>
        <time>2026-02-22T12:33:15Z</time>
      </trkpt>
      <trkpt lat="43.78836" lon="2.15665">
        <ele>278.92</ele>
        <time>2026-02-22T12:33:23Z</time>
      </trkpt>
      <trkpt lat="43.78831" lon="2.15678">
        <ele>277.96</ele>
        <time>2026-02-22T12:33:31Z</time>
      </trkpt>
      <trkpt lat="43.78824" lon="2.15689">
        <ele>277</ele>
        <time>2026-02-22T12:33:40Z</time>
      </trkpt>
      <trkpt lat="43.78818" lon="2.15701">
        <ele>276.04</ele>
        <time>2026-02-22T12:33:48Z</time>
      </trkpt>
      <trkpt lat="43.78812" lon="2.15712">
        <ele>275.07</ele>
        <time>2026-02-22T12:33:57Z</time>
      </trkpt>
      <trkpt lat="43.78806" lon="2.15723">
        <ele>274.11</ele>
        <time>2026-02-22T12:34:06Z</time>
      </trkpt>
      <trkpt lat="43.78801" lon="2.15736">
        <ele>272.67</ele>
        <time>2026-02-22T12:34:15Z</time>
      </trkpt>
      <trkpt lat="43.78795" lon="2.15747">
        <ele>271.71</ele>
        <time>2026-02-22T12:34:23Z</time>
      </trkpt>
      <trkpt lat="43.7879" lon="2.15759">
        <ele>271.23</ele>
        <time>2026-02-22T12:34:31Z</time>
      </trkpt>
      <trkpt lat="43.78785" lon="2.15772">
        <ele>272.19</ele>
        <time>2026-02-22T12:34:40Z</time>
      </trkpt>
      <trkpt lat="43.78779" lon="2.15784">
        <ele>272.19</ele>
        <time>2026-02-22T12:34:49Z</time>
      </trkpt>
      <trkpt lat="43.78775" lon="2.15796">
        <ele>272.67</ele>
        <time>2026-02-22T12:34:58Z</time>
      </trkpt>
      <trkpt lat="43.7877" lon="2.15809">
        <ele>273.15</ele>
        <time>2026-02-22T12:35:07Z</time>
      </trkpt>
      <trkpt lat="43.78766" lon="2.15822">
        <ele>273.15</ele>
        <time>2026-02-22T12:35:16Z</time>
      </trkpt>
      <trkpt lat="43.78762" lon="2.15836">
        <ele>274.11</ele>
        <time>2026-02-22T12:35:25Z</time>
      </trkpt>
      <trkpt lat="43.78757" lon="2.15848">
        <ele>274.59</ele>
        <time>2026-02-22T12:35:35Z</time>
      </trkpt>
      <trkpt lat="43.78751" lon="2.15864">
        <ele>274.11</ele>
        <time>2026-02-22T12:35:45Z</time>
      </trkpt>
      <trkpt lat="43.78747" lon="2.15877">
        <ele>274.59</ele>
        <time>2026-02-22T12:35:53Z</time>
      </trkpt>
      <trkpt lat="43.78743" lon="2.15891">
        <ele>276.04</ele>
        <time>2026-02-22T12:36:02Z</time>
      </trkpt>
      <trkpt lat="43.78739" lon="2.15904">
        <ele>276.52</ele>
        <time>2026-02-22T12:36:10Z</time>
      </trkpt>
      <trkpt lat="43.78734" lon="2.15916">
        <ele>276.52</ele>
        <time>2026-02-22T12:36:19Z</time>
      </trkpt>
      <trkpt lat="43.78727" lon="2.15928">
        <ele>276.52</ele>
        <time>2026-02-22T12:36:29Z</time>
      </trkpt>
      <trkpt lat="43.78721" lon="2.15939">
        <ele>277.96</ele>
        <time>2026-02-22T12:36:39Z</time>
      </trkpt>
      <trkpt lat="43.78716" lon="2.15952">
        <ele>279.4</ele>
        <time>2026-02-22T12:36:49Z</time>
      </trkpt>
      <trkpt lat="43.7871" lon="2.15963">
        <ele>280.84</ele>
        <time>2026-02-22T12:36:59Z</time>
      </trkpt>
      <trkpt lat="43.78704" lon="2.15976">
        <ele>281.8</ele>
        <time>2026-02-22T12:37:09Z</time>
      </trkpt>
      <trkpt lat="43.78697" lon="2.15989">
        <ele>282.28</ele>
        <time>2026-02-22T12:37:19Z</time>
      </trkpt>
      <trkpt lat="43.7869" lon="2.16001">
        <ele>282.77</ele>
        <time>2026-02-22T12:37:28Z</time>
      </trkpt>
      <trkpt lat="43.78684" lon="2.16013">
        <ele>282.77</ele>
        <time>2026-02-22T12:37:38Z</time>
      </trkpt>
      <trkpt lat="43.78677" lon="2.16024">
        <ele>283.73</ele>
        <time>2026-02-22T12:37:47Z</time>
      </trkpt>
      <trkpt lat="43.78671" lon="2.16036">
        <ele>284.21</ele>
        <time>2026-02-22T12:37:56Z</time>
      </trkpt>
      <trkpt lat="43.78665" lon="2.16049">
        <ele>285.17</ele>
        <time>2026-02-22T12:38:05Z</time>
      </trkpt>
      <trkpt lat="43.7866" lon="2.16062">
        <ele>285.65</ele>
        <time>2026-02-22T12:38:14Z</time>
      </trkpt>
      <trkpt lat="43.78657" lon="2.16076">
        <ele>286.61</ele>
        <time>2026-02-22T12:38:23Z</time>
      </trkpt>
      <trkpt lat="43.78654" lon="2.16089">
        <ele>287.57</ele>
        <time>2026-02-22T12:38:32Z</time>
      </trkpt>
      <trkpt lat="43.78652" lon="2.16105">
        <ele>288.53</ele>
        <time>2026-02-22T12:38:42Z</time>
      </trkpt>
      <trkpt lat="43.78647" lon="2.16119">
        <ele>289.49</ele>
        <time>2026-02-22T12:38:52Z</time>
      </trkpt>
      <trkpt lat="43.78642" lon="2.16134">
        <ele>290.46</ele>
        <time>2026-02-22T12:39:02Z</time>
      </trkpt>
      <trkpt lat="43.78637" lon="2.16147">
        <ele>291.42</ele>
        <time>2026-02-22T12:39:12Z</time>
      </trkpt>
      <trkpt lat="43.78634" lon="2.16161">
        <ele>292.86</ele>
        <time>2026-02-22T12:39:22Z</time>
      </trkpt>
      <trkpt lat="43.78631" lon="2.16173">
        <ele>295.26</ele>
        <time>2026-02-22T12:39:43Z</time>
      </trkpt>
      <trkpt lat="43.78633" lon="2.1619">
        <ele>295.74</ele>
        <time>2026-02-22T12:39:53Z</time>
      </trkpt>
      <trkpt lat="43.78637" lon="2.16204">
        <ele>295.74</ele>
        <time>2026-02-22T12:40:02Z</time>
      </trkpt>
      <trkpt lat="43.78642" lon="2.16217">
        <ele>294.78</ele>
        <time>2026-02-22T12:40:12Z</time>
      </trkpt>
      <trkpt lat="43.78649" lon="2.16228">
        <ele>295.74</ele>
        <time>2026-02-22T12:40:21Z</time>
      </trkpt>
      <trkpt lat="43.78656" lon="2.1624">
        <ele>295.74</ele>
        <time>2026-02-22T12:40:34Z</time>
      </trkpt>
      <trkpt lat="43.78663" lon="2.1625">
        <ele>296.22</ele>
        <time>2026-02-22T12:40:43Z</time>
      </trkpt>
      <trkpt lat="43.7867" lon="2.16261">
        <ele>295.74</ele>
        <time>2026-02-22T12:40:52Z</time>
      </trkpt>
      <trkpt lat="43.78675" lon="2.16274">
        <ele>296.22</ele>
        <time>2026-02-22T12:41:01Z</time>
      </trkpt>
      <trkpt lat="43.7868" lon="2.16286">
        <ele>296.7</ele>
        <time>2026-02-22T12:41:10Z</time>
      </trkpt>
      <trkpt lat="43.78684" lon="2.163">
        <ele>296.22</ele>
        <time>2026-02-22T12:41:19Z</time>
      </trkpt>
      <trkpt lat="43.78688" lon="2.16313">
        <ele>295.74</ele>
        <time>2026-02-22T12:41:27Z</time>
      </trkpt>
      <trkpt lat="43.78693" lon="2.16324">
        <ele>294.3</ele>
        <time>2026-02-22T12:41:35Z</time>
      </trkpt>
      <trkpt lat="43.78692" lon="2.16336">
        <ele>293.34</ele>
        <time>2026-02-22T12:41:43Z</time>
      </trkpt>
      <trkpt lat="43.78691" lon="2.1635">
        <ele>292.86</ele>
        <time>2026-02-22T12:41:51Z</time>
      </trkpt>
      <trkpt lat="43.78688" lon="2.16364">
        <ele>292.38</ele>
        <time>2026-02-22T12:41:59Z</time>
      </trkpt>
      <trkpt lat="43.78685" lon="2.16378">
        <ele>291.9</ele>
        <time>2026-02-22T12:42:07Z</time>
      </trkpt>
      <trkpt lat="43.78682" lon="2.16391">
        <ele>291.42</ele>
        <time>2026-02-22T12:42:15Z</time>
      </trkpt>
      <trkpt lat="43.78679" lon="2.16404">
        <ele>289.97</ele>
        <time>2026-02-22T12:42:24Z</time>
      </trkpt>
      <trkpt lat="43.78687" lon="2.1641">
        <ele>288.05</ele>
        <time>2026-02-22T12:42:53Z</time>
      </trkpt>
      <trkpt lat="43.78694" lon="2.164">
        <ele>285.17</ele>
        <time>2026-02-22T12:43:03Z</time>
      </trkpt>
      <trkpt lat="43.78702" lon="2.16391">
        <ele>284.21</ele>
        <time>2026-02-22T12:43:13Z</time>
      </trkpt>
      <trkpt lat="43.78711" lon="2.16382">
        <ele>282.77</ele>
        <time>2026-02-22T12:43:23Z</time>
      </trkpt>
      <trkpt lat="43.7872" lon="2.16368">
        <ele>279.88</ele>
        <time>2026-02-22T12:43:36Z</time>
      </trkpt>
      <trkpt lat="43.7873" lon="2.16355">
        <ele>278.44</ele>
        <time>2026-02-22T12:43:48Z</time>
      </trkpt>
      <trkpt lat="43.78739" lon="2.16344">
        <ele>278.44</ele>
        <time>2026-02-22T12:44:01Z</time>
      </trkpt>
      <trkpt lat="43.78748" lon="2.16331">
        <ele>276.52</ele>
        <time>2026-02-22T12:44:15Z</time>
      </trkpt>
      <trkpt lat="43.78762" lon="2.16313">
        <ele>275.07</ele>
        <time>2026-02-22T12:44:32Z</time>
      </trkpt>
      <trkpt lat="43.78781" lon="2.16291">
        <ele>275.56</ele>
        <time>2026-02-22T12:44:54Z</time>
      </trkpt>
      <trkpt lat="43.78792" lon="2.16278">
        <ele>274.59</ele>
        <time>2026-02-22T12:45:07Z</time>
      </trkpt>
      <trkpt lat="43.78815" lon="2.16256">
        <ele>271.71</ele>
        <time>2026-02-22T12:45:35Z</time>
      </trkpt>
      <trkpt lat="43.78826" lon="2.16248">
        <ele>270.27</ele>
        <time>2026-02-22T12:45:47Z</time>
      </trkpt>
      <trkpt lat="43.78841" lon="2.16241">
        <ele>268.83</ele>
        <time>2026-02-22T12:46:02Z</time>
      </trkpt>
      <trkpt lat="43.78856" lon="2.16233">
        <ele>266.9</ele>
        <time>2026-02-22T12:46:17Z</time>
      </trkpt>
      <trkpt lat="43.7887" lon="2.16227">
        <ele>265.94</ele>
        <time>2026-02-22T12:46:29Z</time>
      </trkpt>
      <trkpt lat="43.78884" lon="2.16221">
        <ele>266.42</ele>
        <time>2026-02-22T12:46:40Z</time>
      </trkpt>
      <trkpt lat="43.78896" lon="2.16214">
        <ele>265.94</ele>
        <time>2026-02-22T12:46:51Z</time>
      </trkpt>
      <trkpt lat="43.78908" lon="2.16207">
        <ele>266.42</ele>
        <time>2026-02-22T12:47:03Z</time>
      </trkpt>
      <trkpt lat="43.78922" lon="2.16203">
        <ele>263.54</ele>
        <time>2026-02-22T12:47:17Z</time>
      </trkpt>
      <trkpt lat="43.78949" lon="2.1619">
        <ele>263.06</ele>
        <time>2026-02-22T12:47:44Z</time>
      </trkpt>
      <trkpt lat="43.78963" lon="2.16183">
        <ele>264.5</ele>
        <time>2026-02-22T12:47:56Z</time>
      </trkpt>
      <trkpt lat="43.7898" lon="2.16175">
        <ele>266.9</ele>
        <time>2026-02-22T12:48:11Z</time>
      </trkpt>
      <trkpt lat="43.78994" lon="2.16168">
        <ele>267.86</ele>
        <time>2026-02-22T12:48:22Z</time>
      </trkpt>
      <trkpt lat="43.79006" lon="2.1616">
        <ele>268.83</ele>
        <time>2026-02-22T12:48:33Z</time>
      </trkpt>
      <trkpt lat="43.79019" lon="2.16151">
        <ele>267.86</ele>
        <time>2026-02-22T12:48:48Z</time>
      </trkpt>
      <trkpt lat="43.79032" lon="2.16139">
        <ele>267.38</ele>
        <time>2026-02-22T12:49:04Z</time>
      </trkpt>
      <trkpt lat="43.79045" lon="2.16128">
        <ele>268.83</ele>
        <time>2026-02-22T12:49:15Z</time>
      </trkpt>
      <trkpt lat="43.79058" lon="2.16119">
        <ele>269.79</ele>
        <time>2026-02-22T12:49:32Z</time>
      </trkpt>
      <trkpt lat="43.79068" lon="2.16111">
        <ele>269.79</ele>
        <time>2026-02-22T12:49:46Z</time>
      </trkpt>
      <trkpt lat="43.79077" lon="2.16105">
        <ele>269.79</ele>
        <time>2026-02-22T12:49:57Z</time>
      </trkpt>
      <trkpt lat="43.79089" lon="2.16102">
        <ele>269.31</ele>
        <time>2026-02-22T12:50:08Z</time>
      </trkpt>
      <trkpt lat="43.791" lon="2.16097">
        <ele>270.27</ele>
        <time>2026-02-22T12:50:19Z</time>
      </trkpt>
      <trkpt lat="43.7911" lon="2.16093">
        <ele>269.79</ele>
        <time>2026-02-22T12:50:29Z</time>
      </trkpt>
      <trkpt lat="43.79121" lon="2.16086">
        <ele>269.31</ele>
        <time>2026-02-22T12:50:39Z</time>
      </trkpt>
      <trkpt lat="43.79131" lon="2.1608">
        <ele>269.79</ele>
        <time>2026-02-22T12:50:50Z</time>
      </trkpt>
      <trkpt lat="43.79142" lon="2.16074">
        <ele>269.79</ele>
        <time>2026-02-22T12:51:01Z</time>
      </trkpt>
      <trkpt lat="43.79152" lon="2.16067">
        <ele>269.31</ele>
        <time>2026-02-22T12:51:11Z</time>
      </trkpt>
      <trkpt lat="43.79162" lon="2.16061">
        <ele>268.83</ele>
        <time>2026-02-22T12:51:22Z</time>
      </trkpt>
      <trkpt lat="43.79172" lon="2.16051">
        <ele>268.83</ele>
        <time>2026-02-22T12:51:33Z</time>
      </trkpt>
      <trkpt lat="43.79181" lon="2.16043">
        <ele>268.83</ele>
        <time>2026-02-22T12:51:43Z</time>
      </trkpt>
      <trkpt lat="43.79191" lon="2.16035">
        <ele>267.86</ele>
        <time>2026-02-22T12:51:53Z</time>
      </trkpt>
      <trkpt lat="43.79199" lon="2.16025">
        <ele>268.35</ele>
        <time>2026-02-22T12:52:03Z</time>
      </trkpt>
      <trkpt lat="43.79206" lon="2.16014">
        <ele>268.35</ele>
        <time>2026-02-22T12:52:13Z</time>
      </trkpt>
      <trkpt lat="43.79214" lon="2.16003">
        <ele>268.83</ele>
        <time>2026-02-22T12:52:22Z</time>
      </trkpt>
      <trkpt lat="43.79222" lon="2.15992">
        <ele>270.27</ele>
        <time>2026-02-22T12:52:32Z</time>
      </trkpt>
      <trkpt lat="43.7923" lon="2.15979">
        <ele>271.23</ele>
        <time>2026-02-22T12:52:43Z</time>
      </trkpt>
      <trkpt lat="43.79238" lon="2.15967">
        <ele>271.71</ele>
        <time>2026-02-22T12:52:53Z</time>
      </trkpt>
      <trkpt lat="43.79245" lon="2.15956">
        <ele>272.19</ele>
        <time>2026-02-22T12:53:03Z</time>
      </trkpt>
      <trkpt lat="43.79252" lon="2.15945">
        <ele>271.71</ele>
        <time>2026-02-22T12:53:14Z</time>
      </trkpt>
      <trkpt lat="43.79258" lon="2.15935">
        <ele>272.67</ele>
        <time>2026-02-22T12:53:38Z</time>
      </trkpt>
      <trkpt lat="43.79268" lon="2.15927">
        <ele>272.19</ele>
        <time>2026-02-22T12:53:50Z</time>
      </trkpt>
      <trkpt lat="43.79276" lon="2.15918">
        <ele>271.23</ele>
        <time>2026-02-22T12:54:01Z</time>
      </trkpt>
      <trkpt lat="43.79287" lon="2.15914">
        <ele>271.23</ele>
        <time>2026-02-22T12:54:10Z</time>
      </trkpt>
      <trkpt lat="43.79296" lon="2.15906">
        <ele>270.75</ele>
        <time>2026-02-22T12:54:19Z</time>
      </trkpt>
      <trkpt lat="43.79305" lon="2.159">
        <ele>270.75</ele>
        <time>2026-02-22T12:54:28Z</time>
      </trkpt>
      <trkpt lat="43.79315" lon="2.15894">
        <ele>270.27</ele>
        <time>2026-02-22T12:54:37Z</time>
      </trkpt>
      <trkpt lat="43.79325" lon="2.15886">
        <ele>269.31</ele>
        <time>2026-02-22T12:54:47Z</time>
      </trkpt>
      <trkpt lat="43.79336" lon="2.15877">
        <ele>266.42</ele>
        <time>2026-02-22T12:55:03Z</time>
      </trkpt>
      <trkpt lat="43.79345" lon="2.1587">
        <ele>265.94</ele>
        <time>2026-02-22T12:55:12Z</time>
      </trkpt>
      <trkpt lat="43.79356" lon="2.15862">
        <ele>266.42</ele>
        <time>2026-02-22T12:55:22Z</time>
      </trkpt>
      <trkpt lat="43.79365" lon="2.15854">
        <ele>265.94</ele>
        <time>2026-02-22T12:55:31Z</time>
      </trkpt>
      <trkpt lat="43.79375" lon="2.15846">
        <ele>265.94</ele>
        <time>2026-02-22T12:55:40Z</time>
      </trkpt>
      <trkpt lat="43.79384" lon="2.15836">
        <ele>265.46</ele>
        <time>2026-02-22T12:55:51Z</time>
      </trkpt>
      <trkpt lat="43.79393" lon="2.15827">
        <ele>264.98</ele>
        <time>2026-02-22T12:56:00Z</time>
      </trkpt>
      <trkpt lat="43.79403" lon="2.15818">
        <ele>264.5</ele>
        <time>2026-02-22T12:56:09Z</time>
      </trkpt>
      <trkpt lat="43.79412" lon="2.15809">
        <ele>264.02</ele>
        <time>2026-02-22T12:56:18Z</time>
      </trkpt>
      <trkpt lat="43.79421" lon="2.158">
        <ele>264.98</ele>
        <time>2026-02-22T12:56:28Z</time>
      </trkpt>
      <trkpt lat="43.7943" lon="2.15792">
        <ele>265.46</ele>
        <time>2026-02-22T12:56:38Z</time>
      </trkpt>
      <trkpt lat="43.79439" lon="2.15783">
        <ele>266.42</ele>
        <time>2026-02-22T12:56:47Z</time>
      </trkpt>
      <trkpt lat="43.79447" lon="2.15773">
        <ele>266.42</ele>
        <time>2026-02-22T12:56:56Z</time>
      </trkpt>
      <trkpt lat="43.79454" lon="2.15762">
        <ele>265.94</ele>
        <time>2026-02-22T12:57:05Z</time>
      </trkpt>
      <trkpt lat="43.79464" lon="2.15752">
        <ele>267.86</ele>
        <time>2026-02-22T12:57:58Z</time>
      </trkpt>
      <trkpt lat="43.79469" lon="2.15743">
        <ele>268.35</ele>
        <time>2026-02-22T12:58:10Z</time>
      </trkpt>
      <trkpt lat="43.79476" lon="2.15732">
        <ele>268.35</ele>
        <time>2026-02-22T12:58:18Z</time>
      </trkpt>
      <trkpt lat="43.79481" lon="2.15722">
        <ele>268.35</ele>
        <time>2026-02-22T12:58:26Z</time>
      </trkpt>
      <trkpt lat="43.79487" lon="2.15712">
        <ele>267.86</ele>
        <time>2026-02-22T12:58:35Z</time>
      </trkpt>
      <trkpt lat="43.79493" lon="2.157">
        <ele>266.9</ele>
        <time>2026-02-22T12:58:45Z</time>
      </trkpt>
      <trkpt lat="43.795" lon="2.15689">
        <ele>266.42</ele>
        <time>2026-02-22T12:58:54Z</time>
      </trkpt>
      <trkpt lat="43.79506" lon="2.15677">
        <ele>266.9</ele>
        <time>2026-02-22T12:59:02Z</time>
      </trkpt>
      <trkpt lat="43.79512" lon="2.15667">
        <ele>266.9</ele>
        <time>2026-02-22T12:59:10Z</time>
      </trkpt>
      <trkpt lat="43.79518" lon="2.15656">
        <ele>266.42</ele>
        <time>2026-02-22T12:59:18Z</time>
      </trkpt>
      <trkpt lat="43.79525" lon="2.15645">
        <ele>265.94</ele>
        <time>2026-02-22T12:59:26Z</time>
      </trkpt>
      <trkpt lat="43.79531" lon="2.15635">
        <ele>265.46</ele>
        <time>2026-02-22T12:59:34Z</time>
      </trkpt>
      <trkpt lat="43.79537" lon="2.15624">
        <ele>265.46</ele>
        <time>2026-02-22T12:59:42Z</time>
      </trkpt>
      <trkpt lat="43.79546" lon="2.15614">
        <ele>265.46</ele>
        <time>2026-02-22T12:59:50Z</time>
      </trkpt>
      <trkpt lat="43.79552" lon="2.15604">
        <ele>264.5</ele>
        <time>2026-02-22T12:59:58Z</time>
      </trkpt>
      <trkpt lat="43.79559" lon="2.15594">
        <ele>264.98</ele>
        <time>2026-02-22T13:00:06Z</time>
      </trkpt>
      <trkpt lat="43.79566" lon="2.15584">
        <ele>265.46</ele>
        <time>2026-02-22T13:00:14Z</time>
      </trkpt>
      <trkpt lat="43.79572" lon="2.15574">
        <ele>265.94</ele>
        <time>2026-02-22T13:00:22Z</time>
      </trkpt>
      <trkpt lat="43.79579" lon="2.15563">
        <ele>265.94</ele>
        <time>2026-02-22T13:00:30Z</time>
      </trkpt>
      <trkpt lat="43.79585" lon="2.15553">
        <ele>265.46</ele>
        <time>2026-02-22T13:00:38Z</time>
      </trkpt>
      <trkpt lat="43.79592" lon="2.15543">
        <ele>265.46</ele>
        <time>2026-02-22T13:00:46Z</time>
      </trkpt>
      <trkpt lat="43.79598" lon="2.15533">
        <ele>265.94</ele>
        <time>2026-02-22T13:00:54Z</time>
      </trkpt>
      <trkpt lat="43.79604" lon="2.15523">
        <ele>265.94</ele>
        <time>2026-02-22T13:01:02Z</time>
      </trkpt>
      <trkpt lat="43.79611" lon="2.15512">
        <ele>266.42</ele>
        <time>2026-02-22T13:01:10Z</time>
      </trkpt>
      <trkpt lat="43.79618" lon="2.15502">
        <ele>266.42</ele>
        <time>2026-02-22T13:01:18Z</time>
      </trkpt>
      <trkpt lat="43.79625" lon="2.15492">
        <ele>266.9</ele>
        <time>2026-02-22T13:01:26Z</time>
      </trkpt>
      <trkpt lat="43.79631" lon="2.15483">
        <ele>267.86</ele>
        <time>2026-02-22T13:01:34Z</time>
      </trkpt>
      <trkpt lat="43.79638" lon="2.15475">
        <ele>267.86</ele>
        <time>2026-02-22T13:01:42Z</time>
      </trkpt>
      <trkpt lat="43.79644" lon="2.15466">
        <ele>267.86</ele>
        <time>2026-02-22T13:01:50Z</time>
      </trkpt>
      <trkpt lat="43.79652" lon="2.15457">
        <ele>267.38</ele>
        <time>2026-02-22T13:01:58Z</time>
      </trkpt>
      <trkpt lat="43.79661" lon="2.15451">
        <ele>266.9</ele>
        <time>2026-02-22T13:02:06Z</time>
      </trkpt>
      <trkpt lat="43.7967" lon="2.15444">
        <ele>265.94</ele>
        <time>2026-02-22T13:02:14Z</time>
      </trkpt>
      <trkpt lat="43.79679" lon="2.15437">
        <ele>265.46</ele>
        <time>2026-02-22T13:02:22Z</time>
      </trkpt>
      <trkpt lat="43.79687" lon="2.15431">
        <ele>265.46</ele>
        <time>2026-02-22T13:02:30Z</time>
      </trkpt>
      <trkpt lat="43.79696" lon="2.15425">
        <ele>264.98</ele>
        <time>2026-02-22T13:02:38Z</time>
      </trkpt>
      <trkpt lat="43.79707" lon="2.15418">
        <ele>263.54</ele>
        <time>2026-02-22T13:02:47Z</time>
      </trkpt>
      <trkpt lat="43.79716" lon="2.15413">
        <ele>262.58</ele>
        <time>2026-02-22T13:02:56Z</time>
      </trkpt>
      <trkpt lat="43.79725" lon="2.15406">
        <ele>261.14</ele>
        <time>2026-02-22T13:03:05Z</time>
      </trkpt>
      <trkpt lat="43.79735" lon="2.15399">
        <ele>260.17</ele>
        <time>2026-02-22T13:03:15Z</time>
      </trkpt>
      <trkpt lat="43.79747" lon="2.1539">
        <ele>259.69</ele>
        <time>2026-02-22T13:04:26Z</time>
      </trkpt>
      <trkpt lat="43.79758" lon="2.15391">
        <ele>258.25</ele>
        <time>2026-02-22T13:04:42Z</time>
      </trkpt>
      <trkpt lat="43.7987" lon="2.15399">
        <ele>242.39</ele>
        <time>2026-02-22T13:08:42Z</time>
      </trkpt>
      <trkpt lat="43.7994" lon="2.15398">
        <ele>227.97</ele>
        <time>2026-02-22T13:10:28Z</time>
      </trkpt>
      <trkpt lat="43.79961" lon="2.15386">
        <ele>224.61</ele>
        <time>2026-02-22T13:10:58Z</time>
      </trkpt>
      <trkpt lat="43.79973" lon="2.15375">
        <ele>219.32</ele>
        <time>2026-02-22T13:12:09Z</time>
      </trkpt>
      <trkpt lat="43.79984" lon="2.15372">
        <ele>219.8</ele>
        <time>2026-02-22T13:12:18Z</time>
      </trkpt>
      <trkpt lat="43.79993" lon="2.15364">
        <ele>217.4</ele>
        <time>2026-02-22T13:12:28Z</time>
      </trkpt>
      <trkpt lat="43.80004" lon="2.15357">
        <ele>216.43</ele>
        <time>2026-02-22T13:12:36Z</time>
      </trkpt>
      <trkpt lat="43.80014" lon="2.15349">
        <ele>215.47</ele>
        <time>2026-02-22T13:12:45Z</time>
      </trkpt>
      <trkpt lat="43.80027" lon="2.15341">
        <ele>215.95</ele>
        <time>2026-02-22T13:13:01Z</time>
      </trkpt>
      <trkpt lat="43.80036" lon="2.15333">
        <ele>214.51</ele>
        <time>2026-02-22T13:13:11Z</time>
      </trkpt>
      <trkpt lat="43.80045" lon="2.15326">
        <ele>214.51</ele>
        <time>2026-02-22T13:13:19Z</time>
      </trkpt>
      <trkpt lat="43.80056" lon="2.15319">
        <ele>214.51</ele>
        <time>2026-02-22T13:13:27Z</time>
      </trkpt>
      <trkpt lat="43.80067" lon="2.15312">
        <ele>214.51</ele>
        <time>2026-02-22T13:13:35Z</time>
      </trkpt>
      <trkpt lat="43.80077" lon="2.15306">
        <ele>215.47</ele>
        <time>2026-02-22T13:13:43Z</time>
      </trkpt>
      <trkpt lat="43.80088" lon="2.15297">
        <ele>214.51</ele>
        <time>2026-02-22T13:13:53Z</time>
      </trkpt>
      <trkpt lat="43.80101" lon="2.15289">
        <ele>213.07</ele>
        <time>2026-02-22T13:14:06Z</time>
      </trkpt>
      <trkpt lat="43.80114" lon="2.15288">
        <ele>211.63</ele>
        <time>2026-02-22T13:14:19Z</time>
      </trkpt>
      <trkpt lat="43.80127" lon="2.15291">
        <ele>209.22</ele>
        <time>2026-02-22T13:14:32Z</time>
      </trkpt>
      <trkpt lat="43.80154" lon="2.153">
        <ele>204.42</ele>
        <time>2026-02-22T13:14:58Z</time>
      </trkpt>
      <trkpt lat="43.80177" lon="2.15306">
        <ele>201.05</ele>
        <time>2026-02-22T13:15:18Z</time>
      </trkpt>
      <trkpt lat="43.80192" lon="2.1531">
        <ele>201.53</ele>
        <time>2026-02-22T13:15:52Z</time>
      </trkpt>
      <trkpt lat="43.80203" lon="2.15311">
        <ele>203.94</ele>
        <time>2026-02-22T13:16:01Z</time>
      </trkpt>
      <trkpt lat="43.80214" lon="2.15314">
        <ele>202.98</ele>
        <time>2026-02-22T13:16:10Z</time>
      </trkpt>
      <trkpt lat="43.80225" lon="2.15316">
        <ele>202.49</ele>
        <time>2026-02-22T13:16:19Z</time>
      </trkpt>
      <trkpt lat="43.80236" lon="2.15319">
        <ele>202.49</ele>
        <time>2026-02-22T13:16:28Z</time>
      </trkpt>
      <trkpt lat="43.80248" lon="2.15309">
        <ele>204.9</ele>
        <time>2026-02-22T13:16:52Z</time>
      </trkpt>
      <trkpt lat="43.80259" lon="2.15311">
        <ele>204.9</ele>
        <time>2026-02-22T13:17:03Z</time>
      </trkpt>
      <trkpt lat="43.80269" lon="2.15316">
        <ele>203.94</ele>
        <time>2026-02-22T13:17:13Z</time>
      </trkpt>
      <trkpt lat="43.8028" lon="2.15319">
        <ele>203.94</ele>
        <time>2026-02-22T13:17:22Z</time>
      </trkpt>
      <trkpt lat="43.80291" lon="2.15321">
        <ele>202.98</ele>
        <time>2026-02-22T13:17:30Z</time>
      </trkpt>
      <trkpt lat="43.80301" lon="2.15322">
        <ele>203.46</ele>
        <time>2026-02-22T13:17:39Z</time>
      </trkpt>
      <trkpt lat="43.80312" lon="2.15321">
        <ele>203.46</ele>
        <time>2026-02-22T13:17:48Z</time>
      </trkpt>
      <trkpt lat="43.80324" lon="2.15317">
        <ele>202.98</ele>
        <time>2026-02-22T13:17:57Z</time>
      </trkpt>
      <trkpt lat="43.80334" lon="2.1531">
        <ele>202.49</ele>
        <time>2026-02-22T13:18:08Z</time>
      </trkpt>
      <trkpt lat="43.80343" lon="2.15301">
        <ele>200.57</ele>
        <time>2026-02-22T13:18:18Z</time>
      </trkpt>
      <trkpt lat="43.80351" lon="2.15291">
        <ele>201.05</ele>
        <time>2026-02-22T13:18:26Z</time>
      </trkpt>
      <trkpt lat="43.80358" lon="2.15276">
        <ele>201.53</ele>
        <time>2026-02-22T13:18:35Z</time>
      </trkpt>
      <trkpt lat="43.80367" lon="2.1527">
        <ele>202.49</ele>
        <time>2026-02-22T13:18:44Z</time>
      </trkpt>
      <trkpt lat="43.80374" lon="2.15258">
        <ele>201.53</ele>
        <time>2026-02-22T13:18:54Z</time>
      </trkpt>
      <trkpt lat="43.8038" lon="2.15246">
        <ele>200.09</ele>
        <time>2026-02-22T13:19:03Z</time>
      </trkpt>
      <trkpt lat="43.80385" lon="2.15233">
        <ele>199.61</ele>
        <time>2026-02-22T13:19:13Z</time>
      </trkpt>
      <trkpt lat="43.8039" lon="2.15219">
        <ele>199.61</ele>
        <time>2026-02-22T13:19:22Z</time>
      </trkpt>
      <trkpt lat="43.80395" lon="2.15205">
        <ele>200.09</ele>
        <time>2026-02-22T13:19:31Z</time>
      </trkpt>
      <trkpt lat="43.80401" lon="2.15191">
        <ele>199.13</ele>
        <time>2026-02-22T13:19:40Z</time>
      </trkpt>
      <trkpt lat="43.80407" lon="2.15177">
        <ele>199.61</ele>
        <time>2026-02-22T13:19:50Z</time>
      </trkpt>
      <trkpt lat="43.80413" lon="2.15163">
        <ele>199.61</ele>
        <time>2026-02-22T13:19:59Z</time>
      </trkpt>
      <trkpt lat="43.80419" lon="2.15149">
        <ele>200.09</ele>
        <time>2026-02-22T13:20:07Z</time>
      </trkpt>
      <trkpt lat="43.80424" lon="2.15136">
        <ele>199.61</ele>
        <time>2026-02-22T13:20:16Z</time>
      </trkpt>
      <trkpt lat="43.8043" lon="2.15122">
        <ele>197.69</ele>
        <time>2026-02-22T13:20:25Z</time>
      </trkpt>
      <trkpt lat="43.80435" lon="2.15109">
        <ele>197.21</ele>
        <time>2026-02-22T13:20:34Z</time>
      </trkpt>
      <trkpt lat="43.80442" lon="2.15095">
        <ele>194.32</ele>
        <time>2026-02-22T13:20:44Z</time>
      </trkpt>
      <trkpt lat="43.80449" lon="2.15082">
        <ele>192.88</ele>
        <time>2026-02-22T13:20:54Z</time>
      </trkpt>
      <trkpt lat="43.80457" lon="2.15059">
        <ele>192.4</ele>
        <time>2026-02-22T13:21:10Z</time>
      </trkpt>
    </trkseg>
  </trk>
</gpx>